Provisional Data: Hammer Creek near Route 322


Please select a monitoring station.
Please select start date.
Please select start date.

Toggle Unit: C/F Toggle Unit: C/F
Sample Time Temperature (C) Temperature (F) Specific Conductivity (mS/cm) pH   Turbidity (NTU+) DO (mg/L)
10/22/2021 12:00:00 AM 14.28 57.704 0.525 7.92 2.41 9.09
10/22/2021 12:15:00 AM 14.19 57.542 0.526 7.91 13.29 9.13
10/22/2021 12:30:00 AM 14.09 57.362 0.527 7.9 12.69 9.14
10/22/2021 12:45:00 AM 14 57.2 0.527 7.9 12.3 9.17
10/22/2021 1:00:00 AM 13.94 57.092 0.527 7.9 2.46 9.19
10/22/2021 1:15:00 AM 13.88 56.984 0.527 7.89 2.47 9.21
10/22/2021 1:30:00 AM 13.83 56.894 0.528 7.9 2.36 9.21
10/22/2021 1:45:00 AM 13.78 56.804 0.528 7.89 2.47 9.24
10/22/2021 2:00:00 AM 13.74 56.732 0.528 7.89 2.3 9.24
10/22/2021 2:15:00 AM 13.69 56.642 0.528 7.88 2.23 9.27
10/22/2021 2:30:00 AM 13.65 56.57 0.528 7.88 2.42 9.27
10/22/2021 2:45:00 AM 13.6 56.48 0.529 7.88 2.13 9.26
10/22/2021 3:00:00 AM 13.55 56.39 0.529 7.87 12.01 9.31
10/22/2021 3:15:00 AM 13.5 56.3 0.529 7.88 2.35 9.3
10/22/2021 3:30:00 AM 13.44 56.192 0.529 7.87 2.31 9.32
10/22/2021 3:45:00 AM 13.4 56.12 0.529 7.87 2.33 9.36
10/22/2021 4:00:00 AM 13.35 56.03 0.529 7.87 2.49 9.37
10/22/2021 4:15:00 AM 13.31 55.958 0.529 7.87 2.54 9.38
10/22/2021 4:30:00 AM 13.26 55.868 0.529 7.87 2.51 9.4
10/22/2021 4:45:00 AM 13.22 55.796 0.529 7.87 13.27 9.4
10/22/2021 5:00:00 AM 13.19 55.742 0.529 7.88 2.42 9.41
10/22/2021 5:15:00 AM 13.14 55.652 0.529 7.88 2.48 9.43
10/22/2021 5:30:00 AM 13.1 55.58 0.529 7.88 2.46 9.44
10/22/2021 5:45:00 AM 13.06 55.508 0.529 7.88 2.44 9.46
10/22/2021 6:00:00 AM 13.01 55.418 0.53 7.86 12.88 9.48
10/22/2021 6:15:00 AM 12.97 55.346 0.53 7.88 2.49 9.5
10/22/2021 6:30:00 AM 12.92 55.256 0.53 7.89 2.38 9.51
10/22/2021 6:45:00 AM 12.88 55.184 0.53 7.88 3.7 9.51
10/22/2021 7:00:00 AM 12.84 55.112 0.53 7.88 2.54 9.55
10/22/2021 7:15:00 AM 12.8 55.04 0.53 7.87 13.51 9.56
10/22/2021 7:30:00 AM 12.76 54.968 0.53 7.88 2.36 9.57
10/22/2021 7:45:00 AM 12.73 54.914 0.53 7.89 2.3 9.62
10/22/2021 8:00:00 AM 12.7 54.86 0.53 7.88 12.15 9.67
10/22/2021 8:15:00 AM 12.67 54.806 0.53 7.91 2.25 9.74
10/22/2021 8:30:00 AM 12.65 54.77 0.53 7.89 11.5 9.86
10/22/2021 8:45:00 AM 12.63 54.734 0.53 7.91 11.82 9.97
10/22/2021 9:00:00 AM 12.62 54.716 0.53 7.93 1.93 10.05
10/22/2021 9:15:00 AM 12.62 54.716 0.529 7.94 1.91 10.21
10/22/2021 9:30:00 AM 12.64 54.752 0.529 7.96 1.91 10.43
10/22/2021 9:45:00 AM 12.68 54.824 0.529 7.98 11.99 10.72
10/22/2021 10:00:00 AM 12.71 54.878 0.528 8.01 1.81 10.96
10/22/2021 10:15:00 AM 12.73 54.914 0.528 8.02 1.86 11.07
10/22/2021 10:30:00 AM 12.8 55.04 0.527 8.06 10.77 11.37
10/22/2021 10:45:00 AM 12.84 55.112 0.527 8.1 1.75 11.53
10/22/2021 11:00:00 AM 12.9 55.22 0.526 8.12 1.75 11.81
10/22/2021 11:15:00 AM 12.96 55.328 0.525 8.16 1.82 12.04
10/22/2021 11:30:00 AM 13.02 55.436 0.524 8.19 1.7 12.29
10/22/2021 11:45:00 AM 13.09 55.562 0.523 8.21 1.64 12.47
10/22/2021 12:00:00 PM 13.14 55.652 0.523 8.22 11.06 12.62
10/22/2021 12:15:00 PM 13.16 55.688 0.522 8.25 1.77 12.61
10/22/2021 12:30:00 PM 13.18 55.724 0.522 8.24 1.7 12.52
10/22/2021 12:45:00 PM 13.21 55.778 0.522 8.26 1.63 12.55
10/22/2021 1:00:00 PM 13.26 55.868 0.521 8.26 11.89 12.66
10/22/2021 1:15:00 PM 13.32 55.976 0.52 8.3 1.71 12.85
10/22/2021 1:30:00 PM 13.38 56.084 0.519 8.32 1.76 12.98
10/22/2021 1:45:00 PM 13.44 56.192 0.518 8.34 1.9 13.11
10/22/2021 2:00:00 PM 13.48 56.264 0.518 8.34 1.9 13.1
10/22/2021 2:15:00 PM 13.51 56.318 0.517 8.34 1.83 12.95
10/22/2021 2:30:00 PM 13.53 56.354 0.517 8.35 1.85 12.79
10/22/2021 2:45:00 PM 13.57 56.426 0.517 8.35 1.89 12.71
10/22/2021 3:00:00 PM 13.62 56.516 0.516 8.36 1.82 12.83
10/22/2021 3:15:00 PM 13.67 56.606 0.515 8.37 1.79 12.85
10/22/2021 3:30:00 PM 13.71 56.678 0.514 8.38 1.78 12.85
10/22/2021 3:45:00 PM 13.77 56.786 0.514 8.39 9.41 12.81
10/22/2021 4:00:00 PM 13.83 56.894 0.513 8.39 1.84 12.79
10/22/2021 4:15:00 PM 13.87 56.966 0.513 8.38 10.64 12.67
10/22/2021 4:30:00 PM 13.89 57.002 0.512 8.38 1.81 12.5
10/22/2021 4:45:00 PM 13.91 57.038 0.512 8.37 11.4 12.28
10/22/2021 5:00:00 PM 13.92 57.056 0.512 8.36 1.8 11.99
10/22/2021 5:15:00 PM 13.94 57.092 0.512 8.35 1.77 11.74
10/22/2021 5:30:00 PM 13.96 57.128 0.512 8.32 1.83 11.49
10/22/2021 5:45:00 PM 13.97 57.146 0.513 8.31 1.8 11.24
10/22/2021 6:00:00 PM 13.97 57.146 0.513 8.27 11.79 10.99
10/22/2021 6:15:00 PM 13.95 57.11 0.514 8.26 1.97 10.7
10/22/2021 6:30:00 PM 13.93 57.074 0.515 8.22 1.99 10.46
10/22/2021 6:45:00 PM 13.91 57.038 0.516 8.19 1.98 10.23
10/22/2021 7:00:00 PM 13.89 57.002 0.517 8.15 11.04 10.08
10/22/2021 7:15:00 PM 13.86 56.948 0.518 8.13 2.16 9.93
10/22/2021 7:30:00 PM 13.83 56.894 0.518 8.1 2.32 9.84
10/22/2021 7:45:00 PM 13.8 56.84 0.519 8.09 2.09 9.76
10/22/2021 8:00:00 PM 13.78 56.804 0.519 8.06 2.13 9.69
10/22/2021 8:15:00 PM 13.76 56.768 0.52 8.05 2.12 9.63
10/22/2021 8:30:00 PM 13.74 56.732 0.52 8.03 2.17 9.56
10/22/2021 8:45:00 PM 13.7 56.66 0.521 8.02 2.08 9.53
10/22/2021 9:00:00 PM 13.67 56.606 0.521 8 11.97 9.5
10/22/2021 9:15:00 PM 13.63 56.534 0.521 8 2.36 9.48
10/22/2021 9:30:00 PM 13.6 56.48 0.522 7.98 2.12 9.47
10/22/2021 9:45:00 PM 13.58 56.444 0.522 7.98 2.21 9.45
10/22/2021 10:00:00 PM 13.55 56.39 0.523 7.95 11.32 9.43
10/22/2021 10:15:00 PM 13.52 56.336 0.523 7.96 2.43 9.4
10/22/2021 10:30:00 PM 13.48 56.264 0.524 7.95 2.51 9.4
10/22/2021 10:45:00 PM 13.44 56.192 0.524 7.94 2.51 9.39
10/22/2021 11:00:00 PM 13.38 56.084 0.525 7.93 2.5 9.39
10/22/2021 11:15:00 PM 13.32 55.976 0.525 7.93 2.45 9.4
10/22/2021 11:30:00 PM 13.25 55.85 0.526 7.92 2.56 9.4
10/22/2021 11:45:00 PM 13.17 55.706 0.526 7.92 2.81 9.41
10/23/2021 12:00:00 AM 13.09 55.562 0.527 7.9 11.69 9.44
10/23/2021 12:15:00 AM 13.01 55.418 0.527 7.9 12.32 9.45
10/23/2021 12:30:00 AM 12.93 55.274 0.528 7.89 12.28 9.47
10/23/2021 12:45:00 AM 12.86 55.148 0.528 7.9 2.55 9.49
10/23/2021 1:00:00 AM 12.79 55.022 0.528 7.9 2.6 9.49
10/23/2021 1:15:00 AM 12.72 54.896 0.528 7.89 2.59 9.52
10/23/2021 1:30:00 AM 12.65 54.77 0.529 7.88 2.5 9.54
10/23/2021 1:45:00 AM 12.59 54.662 0.529 7.89 2.68 9.56
10/23/2021 2:00:00 AM 12.54 54.572 0.529 7.89 2.44 9.57
10/23/2021 2:15:00 AM 12.5 54.5 0.529 7.88 2.52 9.61
10/23/2021 2:30:00 AM 12.45 54.41 0.529 7.89 2.42 9.62
10/23/2021 2:45:00 AM 12.41 54.338 0.529 7.89 2.4 9.64
10/23/2021 3:00:00 AM 12.38 54.284 0.529 7.87 11.92 9.66
10/23/2021 3:15:00 AM 12.34 54.212 0.529 7.88 2.55 9.68
10/23/2021 3:30:00 AM 12.32 54.176 0.529 7.87 12.4 9.69
10/23/2021 3:45:00 AM 12.29 54.122 0.529 7.87 2.54 9.68
10/23/2021 4:00:00 AM 12.26 54.068 0.529 7.88 2.7 9.7
10/23/2021 4:15:00 AM 12.24 54.032 0.529 7.87 12.02 9.71
10/23/2021 4:30:00 AM 12.22 53.996 0.529 7.87 12.65 9.72
10/23/2021 4:45:00 AM 12.19 53.942 0.53 7.88 2.61 9.73
10/23/2021 5:00:00 AM 12.17 53.906 0.53 7.87 2.62 9.73
10/23/2021 5:15:00 AM 12.15 53.87 0.53 7.88 2.72 9.74
10/23/2021 5:30:00 AM 12.12 53.816 0.53 7.88 2.84 9.76
10/23/2021 5:45:00 AM 12.09 53.762 0.53 7.87 2.44 9.72
10/23/2021 6:00:00 AM 12.07 53.726 0.53 7.87 3.42 9.71
10/23/2021 6:15:00 AM 12.04 53.672 0.53 7.87 2.67 9.74
10/23/2021 6:30:00 AM 12.02 53.636 0.53 7.87 11.39 9.78
10/23/2021 6:45:00 AM 11.99 53.582 0.53 7.86 12.2 9.81
10/23/2021 7:00:00 AM 11.97 53.546 0.53 7.88 2.43 9.82
10/23/2021 7:15:00 AM 11.95 53.51 0.53 7.87 2.32 9.83
10/23/2021 7:30:00 AM 11.93 53.474 0.53 7.87 2.28 9.84
10/23/2021 7:45:00 AM 11.91 53.438 0.53 7.87 12.1 9.86
10/23/2021 8:00:00 AM 11.9 53.42 0.53 7.87 11.57 9.89
10/23/2021 8:15:00 AM 11.9 53.42 0.53 7.87 11.2 9.94
10/23/2021 8:30:00 AM 11.9 53.42 0.53 7.88 2.29 10
10/23/2021 8:45:00 AM 11.9 53.42 0.53 7.91 2.15 10.08
10/23/2021 9:00:00 AM 11.91 53.438 0.53 7.91 2.16 10.16
10/23/2021 9:15:00 AM 11.92 53.456 0.53 7.91 11.34 10.28
10/23/2021 9:30:00 AM 11.93 53.474 0.53 7.93 2 10.38
10/23/2021 9:45:00 AM 11.95 53.51 0.529 7.95 2.08 10.47
10/23/2021 10:00:00 AM 11.98 53.564 0.529 7.96 1.37 10.7
10/23/2021 10:15:00 AM 12.03 53.654 0.528 8 1.62 11.07
10/23/2021 10:30:00 AM 12.09 53.762 0.527 8.04 1.71 11.39
10/23/2021 10:45:00 AM 12.15 53.87 0.527 8.06 1.7 11.68
10/23/2021 11:00:00 AM 12.18 53.924 0.526 8.09 1.82 11.8
10/23/2021 11:15:00 AM 12.21 53.978 0.526 8.12 1.81 11.88
10/23/2021 11:30:00 AM 12.25 54.05 0.525 8.12 1.61 11.99
10/23/2021 11:45:00 AM 12.29 54.122 0.525 8.14 10.91 12.09
10/23/2021 12:00:00 PM 12.33 54.194 0.524 8.15 11.05 12.19
10/23/2021 12:15:00 PM 12.4 54.32 0.523 8.18 10.49 12.41
10/23/2021 12:30:00 PM 12.5 54.5 0.522 8.23 1.7 12.73
10/23/2021 12:45:00 PM 12.56 54.608 0.521 8.25 1.63 12.85
10/23/2021 1:00:00 PM 12.65 54.77 0.52 8.28 1.69 13.04
10/23/2021 1:15:00 PM 12.69 54.842 0.519 8.27 1.82 12.94
10/23/2021 1:30:00 PM 12.79 55.022 0.519 8.29 11.41 13.15
10/23/2021 1:45:00 PM 12.85 55.13 0.518 8.32 1.92 13.22
10/23/2021 2:00:00 PM 12.94 55.292 0.517 8.34 1.83 13.37
10/23/2021 2:15:00 PM 13 55.4 0.516 8.36 1.73 13.4
10/23/2021 2:30:00 PM 13.02 55.436 0.516 8.36 1.89 13.21
10/23/2021 2:45:00 PM 13.07 55.526 0.515 8.37 1.85 13.14
10/23/2021 3:00:00 PM 13.09 55.562 0.516 8.34 10.61 12.96
10/23/2021 3:15:00 PM 13.12 55.616 0.516 8.36 1.85 12.75
10/23/2021 3:30:00 PM 13.12 55.616 0.516 8.33 1.82 12.42
10/23/2021 3:45:00 PM 13.15 55.67 0.516 8.32 1.9 12.27
10/23/2021 4:00:00 PM 13.17 55.706 0.516 8.31 1.88 12.11
10/23/2021 4:15:00 PM 13.2 55.76 0.515 8.31 1.86 12.07
10/23/2021 4:30:00 PM 13.23 55.814 0.515 8.31 1.92 11.96
10/23/2021 4:45:00 PM 13.26 55.868 0.515 8.3 1.81 11.87
10/23/2021 5:00:00 PM 13.29 55.922 0.514 8.29 1.88 11.76
10/23/2021 5:15:00 PM 13.3 55.94 0.515 8.27 2.09 11.44
10/23/2021 5:30:00 PM 13.29 55.922 0.515 8.25 1.95 11.21
10/23/2021 5:45:00 PM 13.27 55.886 0.515 8.23 98.3 10.99
10/23/2021 6:00:00 PM 13.24 55.832 0.516 8.2 2.06 10.81
10/23/2021 6:15:00 PM 13.22 55.796 0.516 8.19 2.25 10.63
10/23/2021 6:30:00 PM 13.19 55.742 0.517 8.16 2.38 10.44
10/23/2021 6:45:00 PM 13.16 55.688 0.517 8.14 2.39 10.28
10/23/2021 7:00:00 PM 13.13 55.634 0.518 8.12 2.32 10.17
10/23/2021 7:15:00 PM 13.1 55.58 0.518 8.1 2.38 10.07
10/23/2021 7:30:00 PM 13.07 55.526 0.518 8.07 11.97 9.99
10/23/2021 7:45:00 PM 13.04 55.472 0.518 8.07 2.41 9.93
10/23/2021 8:00:00 PM 13.01 55.418 0.519 8.04 10.88 9.86
10/23/2021 8:15:00 PM 12.97 55.346 0.519 8.03 11.27 9.82
10/23/2021 8:30:00 PM 12.91 55.238 0.519 8.04 2.27 9.8
10/23/2021 8:45:00 PM 12.86 55.148 0.519 8.03 2.28 9.78
10/23/2021 9:00:00 PM 12.82 55.076 0.52 7.99 12.53 9.76
10/23/2021 9:15:00 PM 12.77 54.986 0.52 8 2.22 9.73
10/23/2021 9:30:00 PM 12.71 54.878 0.52 7.99 2.25 9.73
10/23/2021 9:45:00 PM 12.64 54.752 0.521 7.98 2.38 9.73
10/23/2021 10:00:00 PM 12.59 54.662 0.521 7.98 2.24 9.73
10/23/2021 10:15:00 PM 12.52 54.536 0.521 7.97 2.08 9.75
10/23/2021 10:30:00 PM 12.45 54.41 0.522 7.95 2.31 9.73
10/23/2021 10:45:00 PM 12.37 54.266 0.522 7.96 2.28 9.75
10/23/2021 11:00:00 PM 12.3 54.14 0.522 7.94 2.36 9.76
10/23/2021 11:15:00 PM 12.23 54.014 0.523 7.95 2.36 9.77
10/23/2021 11:30:00 PM 12.15 53.87 0.523 7.94 2.33 9.77
10/23/2021 11:45:00 PM 12.07 53.726 0.524 7.94 2.42 9.79
10/24/2021 12:00:00 AM 11.99 53.582 0.525 7.92 2.33 9.8
10/24/2021 12:15:00 AM 11.9 53.42 0.525 7.93 2.25 9.83
10/24/2021 12:30:00 AM 11.81 53.258 0.526 7.92 2.27 9.85
10/24/2021 12:45:00 AM 11.72 53.096 0.526 7.92 2.41 9.88
10/24/2021 1:00:00 AM 11.62 52.916 0.526 7.91 2.37 9.91
10/24/2021 1:15:00 AM 11.53 52.754 0.527 7.9 2.45 9.93
10/24/2021 1:30:00 AM 11.44 52.592 0.527 7.91 2.55 9.95
10/24/2021 1:45:00 AM 11.35 52.43 0.527 7.89 12.11 9.97
10/24/2021 2:00:00 AM 11.27 52.286 0.527 7.89 11.76 10.01
10/24/2021 2:15:00 AM 11.18 52.124 0.527 7.9 2.36 10.04
10/24/2021 2:30:00 AM 11.1 51.98 0.528 7.9 2.35 10.05
10/24/2021 2:45:00 AM 11.02 51.836 0.528 7.89 11.65 10.09
10/24/2021 3:00:00 AM 10.94 51.692 0.528 7.89 11.81 10.12
10/24/2021 3:15:00 AM 10.87 51.566 0.528 7.91 2.21 10.15
10/24/2021 3:30:00 AM 10.79 51.422 0.528 7.88 11.51 10.16
10/24/2021 3:45:00 AM 10.71 51.278 0.528 7.89 2.42 10.19
10/24/2021 4:00:00 AM 10.66 51.188 0.528 7.89 2.23 10.21
10/24/2021 4:15:00 AM 10.61 51.098 0.528 7.9 2.6 10.25
10/24/2021 4:30:00 AM 10.56 51.008 0.528 7.89 2.52 10.27
10/24/2021 4:45:00 AM 10.51 50.918 0.528 7.9 2.76 10.28
10/24/2021 5:00:00 AM 10.47 50.846 0.529 7.89 2.3 10.3
10/24/2021 5:15:00 AM 10.44 50.792 0.529 7.89 10.83 10.32
10/24/2021 5:30:00 AM 10.4 50.72 0.529 7.91 2.22 10.34
10/24/2021 5:45:00 AM 10.37 50.666 0.529 7.89 2.3 10.35
10/24/2021 6:00:00 AM 10.33 50.594 0.529 7.89 12 10.37
10/24/2021 6:15:00 AM 10.29 50.522 0.529 7.91 2.36 10.39
10/24/2021 6:30:00 AM 10.25 50.45 0.529 7.89 2.28 10.4
10/24/2021 6:45:00 AM 10.23 50.414 0.53 7.89 2.45 10.42
10/24/2021 7:00:00 AM 10.21 50.378 0.53 7.9 2.26 10.43
10/24/2021 7:15:00 AM 10.19 50.342 0.53 7.9 2.32 10.44
10/24/2021 7:30:00 AM 10.16 50.288 0.53 7.9 2.31 10.44
10/24/2021 7:45:00 AM 10.14 50.252 0.53 7.91 2.23 10.5
10/24/2021 8:00:00 AM 10.12 50.216 0.53 7.91 2.29 10.56
10/24/2021 8:15:00 AM 10.1 50.18 0.53 7.9 11.14 10.66
10/24/2021 8:30:00 AM 10.1 50.18 0.53 7.93 2.13 10.79
10/24/2021 8:45:00 AM 10.12 50.216 0.529 7.95 2.1 10.98
10/24/2021 9:00:00 AM 10.14 50.252 0.529 7.95 10.9 11.09
10/24/2021 9:15:00 AM 10.16 50.288 0.529 7.96 1.95 11.21
10/24/2021 9:30:00 AM 10.18 50.324 0.529 7.97 10.62 11.26
10/24/2021 9:45:00 AM 10.21 50.378 0.529 7.99 1.97 11.4
10/24/2021 10:00:00 AM 10.24 50.432 0.528 8.01 1.97 11.52
10/24/2021 10:15:00 AM 10.26 50.468 0.528 8.02 1.9 11.58
10/24/2021 10:30:00 AM 10.28 50.504 0.528 8.01 1.89 11.59
10/24/2021 10:45:00 AM 10.32 50.576 0.528 8.02 10.6 11.62
10/24/2021 11:00:00 AM 10.35 50.63 0.528 8.04 1.86 11.69
10/24/2021 11:15:00 AM 10.4 50.72 0.527 8.06 1.86 11.75
10/24/2021 11:30:00 AM 10.45 50.81 0.527 8.05 10.45 11.85
10/24/2021 11:45:00 AM 10.56 51.008 0.526 8.11 1.79 12.27
10/24/2021 12:00:00 PM 10.63 51.134 0.526 8.12 1.79 12.41
10/24/2021 12:15:00 PM 10.69 51.242 0.525 8.14 10.72 12.5
10/24/2021 12:30:00 PM 10.77 51.386 0.524 8.17 1.93 12.7
10/24/2021 12:45:00 PM 10.87 51.566 0.524 8.2 1.97 12.95
10/24/2021 1:00:00 PM 10.99 51.782 0.523 8.23 1.87 13.2
10/24/2021 1:15:00 PM 11.08 51.944 0.522 8.25 9.82 13.35
10/24/2021 1:30:00 PM 11.2 52.16 0.521 8.28 9.96 13.55
10/24/2021 1:45:00 PM 11.3 52.34 0.52 8.31 1.92 13.7
10/24/2021 2:00:00 PM 11.42 52.556 0.52 8.33 10.62 13.85
10/24/2021 2:15:00 PM 11.54 52.772 0.519 8.35 11.66 13.97
10/24/2021 2:30:00 PM 11.63 52.934 0.518 8.37 11.19 13.98
10/24/2021 2:45:00 PM 11.71 53.078 0.517 8.38 11.3 13.96
10/24/2021 3:00:00 PM 11.8 53.24 0.516 8.4 2.02 13.96
10/24/2021 3:15:00 PM 11.9 53.42 0.516 8.41 10.6 13.99
10/24/2021 3:30:00 PM 11.98 53.564 0.515 8.43 2.04 13.82
10/24/2021 3:45:00 PM 12.05 53.69 0.515 8.42 1.98 13.7
10/24/2021 4:00:00 PM 12.14 53.852 0.514 8.43 2.05 13.64
10/24/2021 4:15:00 PM 12.17 53.906 0.514 8.42 1.91 13.4
10/24/2021 4:30:00 PM 12.25 54.05 0.514 8.43 1.86 13.26
10/24/2021 4:45:00 PM 12.31 54.158 0.514 8.4 10.27 13.06
10/24/2021 5:00:00 PM 12.34 54.212 0.514 8.4 1.94 12.7
10/24/2021 5:15:00 PM 12.35 54.23 0.515 8.37 2 12.33
10/24/2021 5:30:00 PM 12.37 54.266 0.516 8.33 11.03 12.04
10/24/2021 5:45:00 PM 12.38 54.284 0.516 8.32 1.87 11.74
10/24/2021 6:00:00 PM 12.4 54.32 0.517 8.29 1.91 11.45
10/24/2021 6:15:00 PM 12.4 54.32 0.517 8.25 1.93 11.19
10/24/2021 6:30:00 PM 12.4 54.32 0.518 8.22 2.05 10.95
10/24/2021 6:45:00 PM 12.42 54.356 0.518 8.19 2.15 10.77
10/24/2021 7:00:00 PM 12.44 54.392 0.519 8.16 2.07 10.61
10/24/2021 7:15:00 PM 12.46 54.428 0.519 8.15 2.05 10.47
10/24/2021 7:30:00 PM 12.5 54.5 0.519 8.12 2.18 10.34
10/24/2021 7:45:00 PM 12.53 54.554 0.519 8.11 2.06 10.23
10/24/2021 8:00:00 PM 12.57 54.626 0.519 8.1 2.29 10.15
10/24/2021 8:15:00 PM 12.6 54.68 0.519 8.08 2.1 10.06
10/24/2021 8:30:00 PM 12.63 54.734 0.519 8.06 2.24 9.99
10/24/2021 8:45:00 PM 12.66 54.788 0.519 8.05 2.21 9.93
10/24/2021 9:00:00 PM 12.68 54.824 0.52 8.05 2.38 9.88
10/24/2021 9:15:00 PM 12.71 54.878 0.52 8.03 2.38 9.83
10/24/2021 9:30:00 PM 12.73 54.914 0.52 8.02 2.37 9.79
10/24/2021 9:45:00 PM 12.75 54.95 0.521 8 2.49 9.75
10/24/2021 10:00:00 PM 12.77 54.986 0.521 7.99 2.48 9.71
10/24/2021 10:15:00 PM 12.78 55.004 0.522 7.99 2.48 9.67
10/24/2021 10:30:00 PM 12.79 55.022 0.523 7.98 2.69 9.64
10/24/2021 10:45:00 PM 12.79 55.022 0.523 7.97 2.65 9.62
10/24/2021 11:00:00 PM 12.79 55.022 0.523 7.95 3.01 9.61
10/24/2021 11:15:00 PM 12.78 55.004 0.524 7.94 2.61 9.61
10/24/2021 11:30:00 PM 12.76 54.968 0.525 7.94 2.52 9.61
10/24/2021 11:45:00 PM 12.74 54.932 0.525 7.94 2.67 9.6
10/25/2021 12:00:00 AM 12.72 54.896 0.526 7.92 2.58 9.59
10/25/2021 12:15:00 AM 12.69 54.842 0.526 7.92 2.55 9.58
10/25/2021 12:30:00 AM 12.67 54.806 0.526 7.92 2.55 9.58
10/25/2021 12:45:00 AM 12.64 54.752 0.527 7.9 2.65 9.59
10/25/2021 1:00:00 AM 12.61 54.698 0.527 7.91 2.44 9.61
10/25/2021 1:15:00 AM 12.59 54.662 0.528 7.91 2.67 9.61
10/25/2021 1:30:00 AM 12.56 54.608 0.528 7.89 10.97 9.62
10/25/2021 1:45:00 AM 12.53 54.554 0.528 7.91 2.82 9.61
10/25/2021 2:00:00 AM 12.51 54.518 0.528 7.89 2.4 9.62
10/25/2021 2:15:00 AM 12.49 54.482 0.528 7.89 10.55 9.64
10/25/2021 2:30:00 AM 12.47 54.446 0.528 7.88 11.56 9.63
10/25/2021 2:45:00 AM 12.45 54.41 0.528 7.89 2.42 9.64
10/25/2021 3:00:00 AM 12.43 54.374 0.529 7.88 11.65 9.65
10/25/2021 3:15:00 AM 12.4 54.32 0.528 7.89 2.53 9.65
10/25/2021 3:30:00 AM 12.38 54.284 0.528 7.89 2.36 9.66
10/25/2021 3:45:00 AM 12.35 54.23 0.528 7.88 2.36 9.66
10/25/2021 4:00:00 AM 12.33 54.194 0.528 7.89 2.46 9.67
10/25/2021 4:15:00 AM 12.3 54.14 0.528 7.88 11.5 9.67
10/25/2021 4:30:00 AM 12.28 54.104 0.528 7.89 2.48 9.68
10/25/2021 4:45:00 AM 12.26 54.068 0.528 7.88 2.48 9.68
10/25/2021 5:00:00 AM 12.25 54.05 0.529 7.87 11.3 9.69
10/25/2021 5:15:00 AM 12.23 54.014 0.529 7.89 2.52 9.7
10/25/2021 5:30:00 AM 12.21 53.978 0.529 7.89 2.6 9.72
10/25/2021 5:45:00 AM 12.2 53.96 0.529 7.89 2.45 9.71
10/25/2021 6:00:00 AM 12.18 53.924 0.529 7.87 2.37 9.71
10/25/2021 6:15:00 AM 12.17 53.906 0.529 7.87 11.74 9.71
10/25/2021 6:30:00 AM 12.15 53.87 0.529 7.87 10.98 9.71
10/25/2021 6:45:00 AM 12.13 53.834 0.529 7.87 10.92 9.73
10/25/2021 7:00:00 AM 12.11 53.798 0.53 7.88 2.51 9.73
10/25/2021 7:15:00 AM 12.08 53.744 0.53 7.87 11.17 9.74
10/25/2021 7:30:00 AM 12.07 53.726 0.53 7.87 11.54 9.74
10/25/2021 7:45:00 AM 12.05 53.69 0.53 7.89 2.45 9.77
10/25/2021 8:00:00 AM 12.04 53.672 0.53 7.88 2.28 9.85
10/25/2021 8:15:00 AM 12.04 53.672 0.53 7.88 11.25 9.96
10/25/2021 8:30:00 AM 12.04 53.672 0.53 7.9 11.08 10.08
10/25/2021 8:45:00 AM 12.05 53.69 0.529 7.93 2.34 10.25
10/25/2021 9:00:00 AM 12.07 53.726 0.529 7.93 2.33 10.5
10/25/2021 9:15:00 AM 12.12 53.816 0.528 7.97 2.22 10.8
10/25/2021 9:30:00 AM 12.17 53.906 0.528 8 2.18 11.08
10/25/2021 9:45:00 AM 12.22 53.996 0.527 8.01 2.37 11.28
10/25/2021 10:00:00 AM 12.26 54.068 0.527 8.04 2.09 11.35
10/25/2021 10:15:00 AM 12.3 54.14 0.527 8.06 2.18 11.42
10/25/2021 10:30:00 AM 12.35 54.23 0.526 8.06 2.44 11.56
10/25/2021 10:45:00 AM 12.45 54.41 0.525 8.1 2.01 11.79
10/25/2021 11:00:00 AM 12.54 54.572 0.525 8.11 10.84 12.01
10/25/2021 11:15:00 AM 12.63 54.734 0.524 8.13 10.95 12.1
10/25/2021 11:30:00 AM 12.74 54.932 0.524 8.15 2.21 12.2
10/25/2021 11:45:00 AM 12.85 55.13 0.523 8.19 2.05 12.28
10/25/2021 12:00:00 PM 13 55.4 0.522 8.2 2.17 12.38
10/25/2021 12:15:00 PM 13.13 55.634 0.522 8.21 11.16 12.53
10/25/2021 12:30:00 PM 13.28 55.904 0.521 8.25 2.2 12.62
10/25/2021 12:45:00 PM 13.41 56.138 0.52 8.26 10.56 12.76
10/25/2021 1:00:00 PM 13.57 56.426 0.519 8.29 2.07 12.82
10/25/2021 1:15:00 PM 13.74 56.732 0.518 8.3 2.22 12.91
10/25/2021 1:30:00 PM 13.9 57.02 0.518 8.33 2.1 12.97
10/25/2021 1:45:00 PM 14.08 57.344 0.517 8.35 2.1 12.95
10/25/2021 2:00:00 PM 14.24 57.632 0.516 8.37 2.23 13.1
10/25/2021 2:15:00 PM 14.4 57.92 0.515 8.37 2.11 13.1
10/25/2021 2:30:00 PM 14.52 58.136 0.514 8.39 2.18 13.1
10/25/2021 2:45:00 PM 14.64 58.352 0.514 8.41 2.18 13.04
10/25/2021 3:00:00 PM 14.73 58.514 0.513 8.4 2.23 12.84
10/25/2021 3:15:00 PM 14.86 58.748 0.513 8.41 2.25 12.72
10/25/2021 3:30:00 PM 14.94 58.892 0.512 8.41 2.41 12.56
10/25/2021 3:45:00 PM 15.02 59.036 0.511 8.41 2.24 12.51
10/25/2021 4:00:00 PM 15.11 59.198 0.511 8.42 2.3 12.41
10/25/2021 4:15:00 PM 15.21 59.378 0.51 8.42 2.43 12.24
10/25/2021 4:30:00 PM 15.27 59.486 0.51 8.41 2.44 12.02
10/25/2021 4:45:00 PM 15.31 59.558 0.511 8.39 2.52 11.74
10/25/2021 5:00:00 PM 15.36 59.648 0.511 8.37 2.76 11.52
10/25/2021 5:15:00 PM 15.4 59.72 0.512 8.35 2.83 11.26
10/25/2021 5:30:00 PM 15.45 59.81 0.512 8.33 2.91 10.96
10/25/2021 5:45:00 PM 15.47 59.846 0.513 8.3 3.04 10.6
10/25/2021 6:00:00 PM 15.51 59.918 0.513 8.26 2.71 10.26
10/25/2021 6:15:00 PM 15.54 59.972 0.514 8.22 2.89 9.96
10/25/2021 6:30:00 PM 15.58 60.044 0.514 8.18 11.7 9.73
10/25/2021 6:45:00 PM 15.63 60.134 0.515 8.17 2.81 9.54
10/25/2021 7:00:00 PM 15.68 60.224 0.515 8.13 2.89 9.37
10/25/2021 7:15:00 PM 15.73 60.314 0.515 8.12 2.66 9.22
10/25/2021 7:30:00 PM 15.77 60.386 0.516 8.1 2.65 9.1
10/25/2021 7:45:00 PM 15.81 60.458 0.516 8.08 2.88 9
10/25/2021 8:00:00 PM 15.85 60.53 0.515 8.06 2.73 8.92
10/25/2021 8:15:00 PM 15.89 60.602 0.507 8.05 2.94 8.87
10/25/2021 8:30:00 PM 15.9 60.62 0.494 8.04 5.41 8.85
10/25/2021 8:45:00 PM 15.89 60.602 0.484 8.01 9.47 8.74
10/25/2021 9:00:00 PM 15.88 60.584 0.482 7.97 10.88 8.66
10/25/2021 9:15:00 PM 15.86 60.548 0.483 7.97 7.58 8.57
10/25/2021 9:30:00 PM 15.84 60.512 0.483 7.94 7.78 8.55
10/25/2021 9:45:00 PM 15.79 60.422 0.481 7.93 8.46 8.52
10/25/2021 10:00:00 PM 15.73 60.314 0.477 7.91 9.02 8.49
10/25/2021 10:15:00 PM 15.67 60.206 0.473 7.89 9.44 8.49
10/25/2021 10:30:00 PM 15.59 60.062 0.469 7.87 11.06 8.49
10/25/2021 10:45:00 PM 15.5 59.9 0.467 7.85 9.7 8.49
10/25/2021 11:00:00 PM 15.41 59.738 0.467 7.84 9.44 8.48
10/25/2021 11:15:00 PM 15.32 59.576 0.469 7.81 11.03 8.47
10/25/2021 11:30:00 PM 15.23 59.414 0.47 7.82 12.3 8.49
10/25/2021 11:45:00 PM 15.13 59.234 0.468 7.81 12.86 8.51
10/26/2021 12:00:00 AM 15.03 59.054 0.467 7.78 12.89 8.54
10/26/2021 12:15:00 AM 14.94 58.892 0.469 7.78 12.44 8.57
10/26/2021 12:30:00 AM 14.85 58.73 0.469 7.76 13.74 8.58
10/26/2021 12:45:00 AM 14.76 58.568 0.468 7.77 12.16 8.63
10/26/2021 1:00:00 AM 14.68 58.424 0.463 7.76 12.83 8.66
10/26/2021 1:15:00 AM 14.61 58.298 0.458 7.75 14.23 8.66
10/26/2021 1:30:00 AM 14.55 58.19 0.452 7.74 14.9 8.67
10/26/2021 1:45:00 AM 14.49 58.082 0.446 7.72 17.68 8.67
10/26/2021 2:00:00 AM 14.44 57.992 0.441 7.71 21.34 8.66
10/26/2021 2:15:00 AM 14.38 57.884 0.436 7.69 23.71 8.64
10/26/2021 2:30:00 AM 14.33 57.794 0.434 7.68 23.42 8.59
10/26/2021 2:45:00 AM 14.27 57.686 0.433 7.66 24.71 8.53
10/26/2021 3:00:00 AM 14.22 57.596 0.435 7.65 29.92 8.49
10/26/2021 3:15:00 AM 14.18 57.524 0.436 7.65 23.66 8.46
10/26/2021 3:30:00 AM 14.15 57.47 0.438 7.64 26.56 8.44
10/26/2021 3:45:00 AM 14.13 57.434 0.439 7.63 25.03 8.42
10/26/2021 4:00:00 AM 14.1 57.38 0.439 7.64 23.4 8.42
10/26/2021 4:15:00 AM 14.08 57.344 0.439 7.64 23.25 8.4
10/26/2021 4:30:00 AM 14.06 57.308 0.438 7.64 22.76 8.4
10/26/2021 4:45:00 AM 14.05 57.29 0.437 7.63 19.45 8.39
10/26/2021 5:00:00 AM 14.03 57.254 0.436 7.63 19.47 8.39
10/26/2021 5:15:00 AM 14.02 57.236 0.436 7.63 19.2 8.4
10/26/2021 5:30:00 AM 14.01 57.218 0.435 7.63 18.56 8.42
10/26/2021 5:45:00 AM 14 57.2 0.432 7.63 17.35 8.43
10/26/2021 6:00:00 AM 13.99 57.182 0.429 7.62 16.37 8.44
10/26/2021 6:15:00 AM 13.99 57.182 0.424 7.62 16.28 8.47
10/26/2021 6:30:00 AM 13.99 57.182 0.42 7.62 15.34 8.48
10/26/2021 6:45:00 AM 13.99 57.182 0.416 7.61 14.41 8.47
10/26/2021 7:00:00 AM 13.99 57.182 0.412 7.61 15.11 8.47
10/26/2021 7:15:00 AM 13.99 57.182 0.41 7.61 12.96 8.47
10/26/2021 7:30:00 AM 13.99 57.182 0.408 7.6 13.3 8.51
10/26/2021 7:45:00 AM 14 57.2 0.407 7.6 13.01 8.53
10/26/2021 8:00:00 AM 14.02 57.236 0.407 7.59 12.31 8.56
10/26/2021 8:15:00 AM 14.03 57.254 0.406 7.6 11.76 8.58
10/26/2021 8:30:00 AM 14.04 57.272 0.406 7.61 9.99 8.66
10/26/2021 8:45:00 AM 14.05 57.29 0.406 7.62 9.62 8.73
10/26/2021 9:00:00 AM 14.07 57.326 0.406 7.63 9.45 8.84
10/26/2021 9:15:00 AM 14.1 57.38 0.406 7.63 9.1 8.95
10/26/2021 9:30:00 AM 14.13 57.434 0.405 7.67 8.27 9.07
10/26/2021 9:45:00 AM 14.15 57.47 0.404 7.68 8.12 9.2
10/26/2021 10:00:00 AM 14.18 57.524 0.403 7.68 8.01 9.32
10/26/2021 10:15:00 AM 14.21 57.578 0.403 7.71 7.7 9.42
10/26/2021 10:30:00 AM 14.25 57.65 0.403 7.72 6.96 9.55
10/26/2021 10:45:00 AM 14.31 57.758 0.404 7.74 16.12 9.76
10/26/2021 11:00:00 AM 14.38 57.884 0.404 7.78 6.97 10
10/26/2021 11:15:00 AM 14.43 57.974 0.405 7.8 6.49 10.15
10/26/2021 11:30:00 AM 14.47 58.046 0.407 7.83 6.5 10.21
10/26/2021 11:45:00 AM 14.51 58.118 0.409 7.83 6.35 10.27
10/26/2021 12:00:00 PM 14.55 58.19 0.411 7.86 6.08 10.38
10/26/2021 12:15:00 PM 14.54 58.172 0.414 7.86 6.74 10.18
10/26/2021 12:30:00 PM 14.52 58.136 0.416 7.84 5.98 10.03
10/26/2021 12:45:00 PM 14.57 58.226 0.418 7.86 5.84 10.18
10/26/2021 1:00:00 PM 14.57 58.226 0.421 7.86 6.1 10.13
10/26/2021 1:15:00 PM 14.58 58.244 0.423 7.86 15.46 10.17
10/26/2021 1:30:00 PM 14.56 58.208 0.426 7.88 6.34 10.16
10/26/2021 1:45:00 PM 14.58 58.244 0.428 7.9 5.46 10.3
10/26/2021 2:00:00 PM 14.57 58.226 0.431 7.9 5.51 10.32
10/26/2021 2:15:00 PM 14.53 58.154 0.434 7.91 5.14 10.22
10/26/2021 2:30:00 PM 14.51 58.118 0.437 7.91 5.37 10.24
10/26/2021 2:45:00 PM 14.48 58.064 0.439 7.93 4.9 10.27
10/26/2021 3:00:00 PM 14.46 58.028 0.442 7.93 4.91 10.29
10/26/2021 3:15:00 PM 14.42 57.956 0.445 7.94 4.92 10.25
10/26/2021 3:30:00 PM 14.37 57.866 0.447 7.94 4.84 10.23
10/26/2021 3:45:00 PM 14.34 57.812 0.449 7.94 4.68 10.19
10/26/2021 4:00:00 PM 14.3 57.74 0.451 7.95 4.55 10.11
10/26/2021 4:15:00 PM 14.26 57.668 0.453 7.94 4.6 10
10/26/2021 4:30:00 PM 14.22 57.596 0.455 7.93 4.34 9.93
10/26/2021 4:45:00 PM 14.17 57.506 0.456 7.92 4.32 9.83
10/26/2021 5:00:00 PM 14.12 57.416 0.457 7.9 4.39 9.72
10/26/2021 5:15:00 PM 14.07 57.326 0.457 7.89 4.45 9.67
10/26/2021 5:30:00 PM 14 57.2 0.457 7.88 4.63 9.59
10/26/2021 5:45:00 PM 13.93 57.074 0.456 7.87 4.81 9.5
10/26/2021 6:00:00 PM 13.86 56.948 0.456 7.86 14.4 9.43
10/26/2021 6:15:00 PM 13.79 56.822 0.455 7.84 4.79 9.37
10/26/2021 6:30:00 PM 13.72 56.696 0.455 7.85 4.78 9.32
10/26/2021 6:45:00 PM 13.63 56.534 0.454 7.83 4.9 9.29
10/26/2021 7:00:00 PM 13.55 56.39 0.454 7.81 14.22 9.25
10/26/2021 7:15:00 PM 13.48 56.264 0.455 7.82 5.22 9.24
10/26/2021 7:30:00 PM 13.39 56.102 0.456 7.81 5.13 9.23
10/26/2021 7:45:00 PM 13.3 55.94 0.457 7.8 4.95 9.22
10/26/2021 8:00:00 PM 13.22 55.796 0.458 7.8 5.09 9.23
10/26/2021 8:15:00 PM 13.13 55.634 0.459 7.8 5 9.25
10/26/2021 8:30:00 PM 13.05 55.49 0.461 7.8 4.83 9.25
10/26/2021 8:45:00 PM 12.97 55.346 0.462 7.79 4.62 9.26
10/26/2021 9:00:00 PM 12.89 55.202 0.464 7.78 15.05 9.28
10/26/2021 9:15:00 PM 12.82 55.076 0.466 7.78 14.96 9.29
10/26/2021 9:30:00 PM 12.74 54.932 0.467 7.8 4.63 9.29
10/26/2021 9:45:00 PM 12.67 54.806 0.47 7.79 14.79 9.3
10/26/2021 10:00:00 PM 12.6 54.68 0.471 7.78 4.6 9.3
10/26/2021 10:15:00 PM 12.53 54.554 0.473 7.79 4.82 9.33
10/26/2021 10:30:00 PM 12.46 54.428 0.475 7.78 14.43 9.36
10/26/2021 10:45:00 PM 12.4 54.32 0.477 7.79 4.49 9.38
10/26/2021 11:00:00 PM 12.34 54.212 0.478 7.78 13.52 9.39
10/26/2021 11:15:00 PM 12.29 54.122 0.48 7.78 13.77 9.41
10/26/2021 11:30:00 PM 12.24 54.032 0.482 7.78 13.62 9.42
10/26/2021 11:45:00 PM 12.19 53.942 0.483 7.8 4.42 9.45
10/27/2021 12:00:00 AM 12.15 53.87 0.484 7.78 13.88 9.46
10/27/2021 12:15:00 AM 12.11 53.798 0.486 7.78 13.52 9.49
10/27/2021 12:30:00 AM 12.07 53.726 0.486 7.79 4.12 9.51
10/27/2021 12:45:00 AM 12.03 53.654 0.487 7.8 4.16 9.53
10/27/2021 1:00:00 AM 11.99 53.582 0.488 7.8 3.91 9.54
10/27/2021 1:15:00 AM 11.96 53.528 0.49 7.79 4.01 9.56
10/27/2021 1:30:00 AM 11.93 53.474 0.49 7.8 4.14 9.58
10/27/2021 1:45:00 AM 11.9 53.42 0.491 7.79 4.01 9.59
10/27/2021 2:00:00 AM 11.88 53.384 0.492 7.79 13.13 9.59
10/27/2021 2:15:00 AM 11.86 53.348 0.493 7.79 3.96 9.62
10/27/2021 2:30:00 AM 11.85 53.33 0.493 7.79 4.18 9.63
10/27/2021 2:45:00 AM 11.84 53.312 0.494 7.79 3.84 9.62
10/27/2021 3:00:00 AM 11.82 53.276 0.494 7.79 13.8 9.62
10/27/2021 3:15:00 AM 11.81 53.258 0.495 7.8 5.36 9.65
10/27/2021 3:30:00 AM 11.79 53.222 0.496 7.79 13.85 9.64
10/27/2021 3:45:00 AM 11.77 53.186 0.496 7.8 4.2 9.66
10/27/2021 4:00:00 AM 11.75 53.15 0.497 7.79 13.1 9.66
10/27/2021 4:15:00 AM 11.73 53.114 0.498 7.79 13.11 9.68
10/27/2021 4:30:00 AM 11.74 53.132 0.498 7.79 13.12 9.68
10/27/2021 4:45:00 AM 11.74 53.132 0.499 7.79 13 9.69
10/27/2021 5:00:00 AM 11.74 53.132 0.499 7.8 13.51 9.7
10/27/2021 5:15:00 AM 11.74 53.132 0.499 7.8 13.08 9.7
10/27/2021 5:30:00 AM 11.74 53.132 0.5 7.8 13.1 9.69
10/27/2021 5:45:00 AM 11.75 53.15 0.5 7.8 13.13 9.71
10/27/2021 6:00:00 AM 11.75 53.15 0.5 7.81 3.65 9.71
10/27/2021 6:15:00 AM 11.76 53.168 0.501 7.8 3.72 9.72
10/27/2021 6:30:00 AM 11.77 53.186 0.501 7.8 4.1 9.7
10/27/2021 6:45:00 AM 11.78 53.204 0.502 7.8 15.55 9.71
10/27/2021 7:00:00 AM 11.78 53.204 0.502 7.81 5.51 9.7
10/27/2021 7:15:00 AM 11.79 53.222 0.502 7.83 3.7 9.69
10/27/2021 7:30:00 AM 11.79 53.222 0.502 7.82 14.19 9.71
10/27/2021 7:45:00 AM 11.81 53.258 0.503 7.82 12.89 9.72
10/27/2021 8:00:00 AM 11.83 53.294 0.503 7.83 12.43 9.77
10/27/2021 8:15:00 AM 11.84 53.312 0.503 7.85 3.44 9.84
10/27/2021 8:30:00 AM 11.87 53.366 0.503 7.84 12.18 9.88
10/27/2021 8:45:00 AM 11.89 53.402 0.503 7.85 11.8 9.98
10/27/2021 9:00:00 AM 11.95 53.51 0.503 7.88 2.93 10.11
10/27/2021 9:15:00 AM 12.02 53.636 0.503 7.88 2.93 10.27
10/27/2021 9:30:00 AM 12.07 53.726 0.503 7.9 2.88 10.37
10/27/2021 9:45:00 AM 12.13 53.834 0.503 7.91 2.74 10.46
10/27/2021 10:00:00 AM 12.2 53.96 0.503 7.94 2.83 10.68
10/27/2021 10:15:00 AM 12.28 54.104 0.503 7.97 2.59 10.92
10/27/2021 10:30:00 AM 12.38 54.284 0.503 8 2.55 11.17
10/27/2021 10:45:00 AM 12.48 54.464 0.503 8.02 12.49 11.39
10/27/2021 11:00:00 AM 12.62 54.716 0.502 8.05 2.51 11.6
10/27/2021 11:15:00 AM 12.74 54.932 0.499 8.1 2.4 11.63
10/27/2021 11:30:00 AM 12.85 55.13 0.499 8.13 2.35 11.77
10/27/2021 11:45:00 AM 12.98 55.364 0.498 8.16 2.36 11.87
10/27/2021 12:00:00 PM 13.07 55.526 0.499 8.16 2.35 11.85
10/27/2021 12:15:00 PM 13.16 55.688 0.499 8.18 2.44 11.85
10/27/2021 12:30:00 PM 13.25 55.85 0.499 8.19 2.45 11.86
10/27/2021 12:45:00 PM 13.37 56.066 0.499 8.2 2.4 11.87
10/27/2021 1:00:00 PM 13.48 56.264 0.499 8.21 2.39 11.89
10/27/2021 1:15:00 PM 13.59 56.462 0.499 8.22 2.39 11.9
10/27/2021 1:30:00 PM 13.7 56.66 0.499 8.23 2.35 11.93
10/27/2021 1:45:00 PM 13.83 56.894 0.499 8.24 2.39 11.97
10/27/2021 2:00:00 PM 13.96 57.128 0.499 8.25 2.39 12
10/27/2021 2:15:00 PM 14.08 57.344 0.499 8.26 2.43 12.01
10/27/2021 2:30:00 PM 14.17 57.506 0.499 8.27 2.42 11.99
10/27/2021 2:45:00 PM 14.23 57.614 0.499 8.27 2.42 11.93
10/27/2021 3:00:00 PM 14.3 57.74 0.499 8.28 2.29 11.85
10/27/2021 3:15:00 PM 14.38 57.884 0.499 8.28 2.31 11.75
10/27/2021 3:30:00 PM 14.45 58.01 0.499 8.28 2.35 11.62
10/27/2021 3:45:00 PM 14.51 58.118 0.499 8.28 2.44 11.52
10/27/2021 4:00:00 PM 14.54 58.172 0.499 8.27 2.38 11.35
10/27/2021 4:15:00 PM 14.56 58.208 0.5 8.26 2.49 11.16
10/27/2021 4:30:00 PM 14.55 58.19 0.5 8.24 2.41 10.98
10/27/2021 4:45:00 PM 14.54 58.172 0.501 8.23 2.41 10.81
10/27/2021 5:00:00 PM 14.51 58.118 0.501 8.21 2.48 10.67
10/27/2021 5:15:00 PM 14.47 58.046 0.502 8.2 2.43 10.49
10/27/2021 5:30:00 PM 14.42 57.956 0.502 8.17 2.57 10.29
10/27/2021 5:45:00 PM 14.36 57.848 0.503 8.15 2.55 10.1
10/27/2021 6:00:00 PM 14.32 57.776 0.504 8.13 2.52 9.93
10/27/2021 6:15:00 PM 14.28 57.704 0.504 8.1 2.45 9.77
10/27/2021 6:30:00 PM 14.26 57.668 0.504 8.07 2.71 9.61
10/27/2021 6:45:00 PM 14.25 57.65 0.505 8.06 2.94 9.48
10/27/2021 7:00:00 PM 14.25 57.65 0.505 8.04 2.94 9.38
10/27/2021 7:15:00 PM 14.26 57.668 0.505 8.03 2.64 9.29
10/27/2021 7:30:00 PM 14.27 57.686 0.505 8.02 2.76 9.22
10/27/2021 7:45:00 PM 14.28 57.704 0.505 8.01 2.67 9.16
10/27/2021 8:00:00 PM 14.28 57.704 0.506 8 2.69 9.11
10/27/2021 8:15:00 PM 14.27 57.686 0.506 7.99 2.73 9.08
10/27/2021 8:30:00 PM 14.25 57.65 0.506 7.98 3.08 9.05
10/27/2021 8:45:00 PM 14.22 57.596 0.506 7.98 2.67 9.03
10/27/2021 9:00:00 PM 14.18 57.524 0.507 7.97 2.91 9.01
10/27/2021 9:15:00 PM 14.13 57.434 0.507 7.96 2.79 9.01
10/27/2021 9:30:00 PM 14.08 57.344 0.508 7.94 2.96 9.01
10/27/2021 9:45:00 PM 14.01 57.218 0.508 7.95 3.23 9
10/27/2021 10:00:00 PM 13.94 57.092 0.509 7.95 2.91 9.01
10/27/2021 10:15:00 PM 13.87 56.966 0.509 7.94 3.01 9.02
10/27/2021 10:30:00 PM 13.79 56.822 0.509 7.94 3.11 9.04
10/27/2021 10:45:00 PM 13.7 56.66 0.51 7.94 3.25 9.06
10/27/2021 11:00:00 PM 13.61 56.498 0.51 7.93 3.09 9.08
10/27/2021 11:15:00 PM 13.51 56.318 0.511 7.93 3.09 9.1
10/27/2021 11:30:00 PM 13.41 56.138 0.511 7.93 3.32 9.13
10/27/2021 11:45:00 PM 13.3 55.94 0.512 7.92 3.37 9.15
10/28/2021 12:00:00 AM 13.19 55.742 0.512 7.92 3.25 9.18
10/28/2021 12:15:00 AM 13.07 55.526 0.513 7.92 3.34 9.21
10/28/2021 12:30:00 AM 12.97 55.346 0.513 7.91 3.49 9.23
10/28/2021 12:45:00 AM 12.86 55.148 0.514 7.91 3.38 9.27
10/28/2021 1:00:00 AM 12.76 54.968 0.514 7.91 3.59 9.29
10/28/2021 1:15:00 AM 12.66 54.788 0.515 7.9 3.88 9.31
10/28/2021 1:30:00 AM 12.57 54.626 0.515 7.9 3.49 9.35
10/28/2021 1:45:00 AM 12.48 54.464 0.515 7.9 3.44 9.38
10/28/2021 2:00:00 AM 12.38 54.284 0.515 7.9 3.38 9.41
10/28/2021 2:15:00 AM 12.3 54.14 0.515 7.9 3.45 9.44
10/28/2021 2:30:00 AM 12.22 53.996 0.516 7.9 3.34 9.46
10/28/2021 2:45:00 AM 12.14 53.852 0.516 7.9 3.61 9.49
10/28/2021 3:00:00 AM 12.05 53.69 0.516 7.9 3.43 9.51
10/28/2021 3:15:00 AM 11.97 53.546 0.516 7.9 3.54 9.53
10/28/2021 3:30:00 AM 11.89 53.402 0.516 7.9 3.56 9.56
10/28/2021 3:45:00 AM 11.82 53.276 0.516 7.87 3.69 9.58
10/28/2021 4:00:00 AM 11.73 53.114 0.516 7.9 3.7 9.61
10/28/2021 4:15:00 AM 11.65 52.97 0.516 7.9 3.49 9.63
10/28/2021 4:30:00 AM 11.58 52.844 0.516 7.9 3.49 9.66
10/28/2021 4:45:00 AM 11.51 52.718 0.517 7.88 3.74 9.68
10/28/2021 5:00:00 AM 11.43 52.574 0.517 7.9 3.58 9.7
10/28/2021 5:15:00 AM 11.36 52.448 0.517 7.9 3.41 9.73
10/28/2021 5:30:00 AM 11.29 52.322 0.517 7.9 3.47 9.75
10/28/2021 5:45:00 AM 11.22 52.196 0.517 7.86 3.58 9.77
10/28/2021 6:00:00 AM 11.15 52.07 0.518 7.9 3.49 9.8
10/28/2021 6:15:00 AM 11.09 51.962 0.518 7.9 3.57 9.81
10/28/2021 6:30:00 AM 11.03 51.854 0.518 7.9 3.42 9.83
10/28/2021 6:45:00 AM 10.96 51.728 0.518 7.9 3.43 9.86
10/28/2021 7:00:00 AM 10.9 51.62 0.519 7.9 3.82 9.88
10/28/2021 7:15:00 AM 10.84 51.512 0.519 7.9 3.53 9.9
10/28/2021 7:30:00 AM 10.78 51.404 0.519 7.9 3.33 9.93
10/28/2021 7:45:00 AM 10.73 51.314 0.519 7.9 3.42 9.96
10/28/2021 8:00:00 AM 10.68 51.224 0.519 7.91 3.39 10.01
10/28/2021 8:15:00 AM 10.63 51.134 0.519 7.91 3.27 10.07
10/28/2021 8:30:00 AM 10.59 51.062 0.52 7.92 3.35 10.14
10/28/2021 8:45:00 AM 10.55 50.99 0.52 7.92 3.24 10.21
10/28/2021 9:00:00 AM 10.53 50.954 0.52 7.93 3.16 10.3
10/28/2021 9:15:00 AM 10.51 50.918 0.52 7.94 3.14 10.37
10/28/2021 9:30:00 AM 10.5 50.9 0.52 7.95 3.15 10.45
10/28/2021 9:45:00 AM 10.5 50.9 0.52 7.95 3.01 10.52
10/28/2021 10:00:00 AM 10.51 50.918 0.52 7.96 3.07 10.62
10/28/2021 10:15:00 AM 10.56 51.008 0.519 7.98 3.05 10.76
10/28/2021 10:30:00 AM 10.62 51.116 0.519 7.99 3.08 10.91
10/28/2021 10:45:00 AM 10.69 51.242 0.519 8.02 3.5 11.04
10/28/2021 11:00:00 AM 10.75 51.35 0.518 8.03 3.3 11.18
10/28/2021 11:15:00 AM 10.84 51.512 0.518 8.05 3.45 11.33
10/28/2021 11:30:00 AM 10.95 51.71 0.517 8.07 3.31 11.5
10/28/2021 11:45:00 AM 11.08 51.944 0.517 8.09 3.39 11.66
10/28/2021 12:00:00 PM 11.21 52.178 0.516 8.12 3.24 11.82
10/28/2021 12:15:00 PM 11.36 52.448 0.516 8.14 3.24 11.97
10/28/2021 12:30:00 PM 11.51 52.718 0.515 8.17 3.25 12.1
10/28/2021 12:45:00 PM 11.66 52.988 0.515 8.19 3.27 12.21
10/28/2021 1:00:00 PM 11.82 53.276 0.514 8.21 3.34 12.3
10/28/2021 1:15:00 PM 11.95 53.51 0.514 8.22 3.39 12.36
10/28/2021 1:30:00 PM 12.1 53.78 0.514 8.24 3.62 12.42
10/28/2021 1:45:00 PM 12.25 54.05 0.513 8.26 3.87 12.48
10/28/2021 2:00:00 PM 12.39 54.302 0.512 8.28 4.19 12.52
10/28/2021 2:15:00 PM 12.53 54.554 0.512 8.3 4.46 12.61
10/28/2021 2:30:00 PM 12.65 54.77 0.511 8.31 4.46 12.63
10/28/2021 2:45:00 PM 12.75 54.95 0.511 8.32 4.36 12.56
10/28/2021 3:00:00 PM 12.85 55.13 0.51 8.34 4.21 12.51
10/28/2021 3:15:00 PM 12.97 55.346 0.509 8.35 4.17 12.49
10/28/2021 3:30:00 PM 13.1 55.58 0.509 8.36 4.02 12.46
10/28/2021 3:45:00 PM 13.22 55.796 0.508 8.37 3.87 12.43
10/28/2021 4:00:00 PM 13.3 55.94 0.508 8.37 3.86 12.26
10/28/2021 4:15:00 PM 13.35 56.03 0.508 8.35 3.67 11.95
10/28/2021 4:30:00 PM 13.41 56.138 0.508 8.34 3.84 11.71
10/28/2021 4:45:00 PM 13.47 56.246 0.508 8.32 3.77 11.51
10/28/2021 5:00:00 PM 13.53 56.354 0.508 8.31 3.66 11.32
10/28/2021 5:15:00 PM 13.57 56.426 0.509 8.29 3.68 11.1
10/28/2021 5:30:00 PM 13.62 56.516 0.509 8.27 3.61 10.9
10/28/2021 5:45:00 PM 13.68 56.624 0.509 8.25 3.63 10.76
10/28/2021 6:00:00 PM 13.72 56.696 0.51 8.23 3.66 10.54
10/28/2021 6:15:00 PM 13.75 56.75 0.51 8.2 3.65 10.29
10/28/2021 6:30:00 PM 13.77 56.786 0.511 8.17 3.64 10.05
10/28/2021 6:45:00 PM 13.79 56.822 0.511 8.15 3.58 9.87
10/28/2021 7:00:00 PM 13.8 56.84 0.512 8.12 3.83 9.72
10/28/2021 7:15:00 PM 13.8 56.84 0.512 8.1 3.78 9.61
10/28/2021 7:30:00 PM 13.81 56.858 0.513 8.09 4.49 9.51
10/28/2021 7:45:00 PM 13.8 56.84 0.513 8.07 3.65 9.42
10/28/2021 8:00:00 PM 13.79 56.822 0.513 8.06 3.75 9.35
10/28/2021 8:15:00 PM 13.76 56.768 0.514 8.04 3.85 9.3
10/28/2021 8:30:00 PM 13.72 56.696 0.514 8.03 3.81 9.26
10/28/2021 8:45:00 PM 13.66 56.588 0.515 8.01 4.07 9.23
10/28/2021 9:00:00 PM 13.6 56.48 0.515 8.01 4.01 9.21
10/28/2021 9:15:00 PM 13.54 56.372 0.515 8 3.93 9.2
10/28/2021 9:30:00 PM 13.48 56.264 0.516 7.99 4.12 9.2
10/28/2021 9:45:00 PM 13.44 56.192 0.516 7.99 4.25 9.2
10/28/2021 10:00:00 PM 13.4 56.12 0.516 7.98 4.3 9.2
10/28/2021 10:15:00 PM 13.35 56.03 0.517 7.97 4.41 9.2
10/28/2021 10:30:00 PM 13.31 55.958 0.517 7.97 4.27 9.21
10/28/2021 10:45:00 PM 13.26 55.868 0.518 7.96 4.24 9.22
10/28/2021 11:00:00 PM 13.21 55.778 0.518 7.96 4.21 9.23
10/28/2021 11:15:00 PM 13.16 55.688 0.518 7.96 4.37 9.24
10/28/2021 11:30:00 PM 13.11 55.598 0.519 7.95 4.36 9.25
10/28/2021 11:45:00 PM 13.07 55.526 0.519 7.95 4.38 9.27
10/29/2021 12:00:00 AM 13.04 55.472 0.519 7.95 4.37 9.28
10/29/2021 12:15:00 AM 13 55.4 0.519 7.94 4.57 9.29
10/29/2021 12:30:00 AM 12.96 55.328 0.52 7.91 4.45 9.3
10/29/2021 12:45:00 AM 12.92 55.256 0.52 7.94 4.22 9.31
10/29/2021 1:00:00 AM 12.87 55.166 0.52 7.94 4.33 9.32
10/29/2021 1:15:00 AM 12.83 55.094 0.52 7.94 4.54 9.33
10/29/2021 1:30:00 AM 12.79 55.022 0.52 7.93 4.21 9.35
10/29/2021 1:45:00 AM 12.74 54.932 0.52 7.93 4.32 9.36
10/29/2021 2:00:00 AM 12.7 54.86 0.521 7.93 4.12 9.38
10/29/2021 2:15:00 AM 12.65 54.77 0.521 7.93 4.01 9.4
10/29/2021 2:30:00 AM 12.61 54.698 0.521 7.93 4.27 9.4
10/29/2021 2:45:00 AM 12.57 54.626 0.521 7.93 4.42 9.41
10/29/2021 3:00:00 AM 12.53 54.554 0.521 7.93 4.08 9.42
10/29/2021 3:15:00 AM 12.48 54.464 0.521 7.93 4.2 9.44
10/29/2021 3:30:00 AM 12.45 54.41 0.521 7.93 4.14 9.45
10/29/2021 3:45:00 AM 12.41 54.338 0.521 7.93 4.58 9.45
10/29/2021 4:00:00 AM 12.38 54.284 0.521 7.93 4.31 9.45
10/29/2021 4:15:00 AM 12.34 54.212 0.521 7.92 4.33 9.47
10/29/2021 4:30:00 AM 12.32 54.176 0.521 7.93 4.25 9.48
10/29/2021 4:45:00 AM 12.29 54.122 0.521 7.93 4.22 9.48
10/29/2021 5:00:00 AM 12.26 54.068 0.521 7.92 4.08 9.48
10/29/2021 5:15:00 AM 12.24 54.032 0.521 7.93 4.27 9.5
10/29/2021 5:30:00 AM 12.21 53.978 0.521 7.93 4.28 9.5
10/29/2021 5:45:00 AM 12.19 53.942 0.522 7.93 4.25 9.5
10/29/2021 6:00:00 AM 12.17 53.906 0.521 7.93 4.1 9.5
10/29/2021 6:15:00 AM 12.15 53.87 0.522 7.93 4.44 9.53
10/29/2021 6:30:00 AM 12.14 53.852 0.522 7.93 4.04 9.52
10/29/2021 6:45:00 AM 12.12 53.816 0.522 7.93 4.18 9.54
10/29/2021 7:00:00 AM 12.1 53.78 0.521 7.93 4.14 9.54
10/29/2021 7:15:00 AM 12.07 53.726 0.521 7.93 4.19 9.54
10/29/2021 7:30:00 AM 12.04 53.672 0.521 7.93 4.42 9.54
10/29/2021 7:45:00 AM 12.01 53.618 0.521 7.93 4.04 9.56
10/29/2021 8:00:00 AM 11.98 53.564 0.521 7.93 4.01 9.58
10/29/2021 8:15:00 AM 11.97 53.546 0.521 7.94 4.03 9.61
10/29/2021 8:30:00 AM 11.94 53.492 0.521 7.94 3.95 9.67
10/29/2021 8:45:00 AM 11.94 53.492 0.521 7.95 4.02 9.76
10/29/2021 9:00:00 AM 11.93 53.474 0.521 7.96 3.91 9.92
10/29/2021 9:15:00 AM 11.93 53.474 0.521 7.98 3.78 10.04
10/29/2021 9:30:00 AM 11.93 53.474 0.52 7.98 3.81 10.16
10/29/2021 9:45:00 AM 11.97 53.546 0.52 8.02 3.8 10.5
10/29/2021 10:00:00 AM 11.98 53.564 0.52 8.04 3.7 10.72
10/29/2021 10:15:00 AM 11.99 53.582 0.519 8.05 3.69 10.82
10/29/2021 10:30:00 AM 11.98 53.564 0.519 8.07 4.2 10.88
10/29/2021 10:45:00 AM 11.99 53.582 0.519 8.08 3.76 10.94
10/29/2021 11:00:00 AM 12 53.6 0.519 8.09 3.65 11.07
10/29/2021 11:15:00 AM 12.02 53.636 0.518 8.12 3.76 11.26
10/29/2021 11:30:00 AM 12.07 53.726 0.518 8.15 3.71 11.57
10/29/2021 11:45:00 AM 12.1 53.78 0.517 8.18 3.7 11.72
10/29/2021 12:00:00 PM 12.12 53.816 0.517 8.19 3.8 11.73
10/29/2021 12:15:00 PM 12.11 53.798 0.517 8.19 3.59 11.64
10/29/2021 12:30:00 PM 12.12 53.816 0.516 8.19 3.69 11.63
10/29/2021 12:45:00 PM 12.13 53.834 0.515 8.2 3.75 11.64
10/29/2021 1:00:00 PM 12.15 53.87 0.514 8.21 3.7 11.74
10/29/2021 1:15:00 PM 12.23 54.014 0.513 8.24 3.98 12.01
10/29/2021 1:30:00 PM 12.27 54.086 0.512 8.26 3.93 12.12
10/29/2021 1:45:00 PM 12.33 54.194 0.512 8.28 3.99 12.21
10/29/2021 2:00:00 PM 12.35 54.23 0.511 8.28 4.01 12.11
10/29/2021 2:15:00 PM 12.34 54.212 0.511 8.27 4.09 11.92
10/29/2021 2:30:00 PM 12.35 54.23 0.51 8.26 4.14 11.79
10/29/2021 2:45:00 PM 12.34 54.212 0.509 8.25 4.2 11.66
10/29/2021 3:00:00 PM 12.33 54.194 0.506 8.24 4.4 11.49
10/29/2021 3:15:00 PM 12.32 54.176 0.506 8.23 4.61 11.3
10/29/2021 3:30:00 PM 12.32 54.176 0.507 8.21 4.37 11.09
10/29/2021 3:45:00 PM 12.32 54.176 0.507 8.19 4.33 10.93
10/29/2021 4:00:00 PM 12.31 54.158 0.505 8.18 4.26 10.78
10/29/2021 4:15:00 PM 12.29 54.122 0.5 8.16 4.37 10.59
10/29/2021 4:30:00 PM 12.27 54.086 0.497 8.14 5.07 10.46
10/29/2021 4:45:00 PM 12.27 54.086 0.495 8.12 5.51 10.34
10/29/2021 5:00:00 PM 12.28 54.104 0.495 8.1 5.2 10.23
10/29/2021 5:15:00 PM 12.28 54.104 0.493 8.08 5.27 10.11
10/29/2021 5:30:00 PM 12.28 54.104 0.49 8.07 5.64 10.02
10/29/2021 5:45:00 PM 12.27 54.086 0.48 8.05 6.87 9.95
10/29/2021 6:00:00 PM 12.26 54.068 0.466 8.03 10.61 9.88
10/29/2021 6:15:00 PM 12.26 54.068 0.456 8 14.23 9.79
10/29/2021 6:30:00 PM 12.26 54.068 0.448 7.97 15.96 9.76
10/29/2021 6:45:00 PM 12.28 54.104 0.439 7.94 20.71 9.67
10/29/2021 7:00:00 PM 12.29 54.122 0.431 7.9 26.16 9.61
10/29/2021 7:15:00 PM 12.3 54.14 0.423 7.87 29.87 9.55
10/29/2021 7:30:00 PM 12.31 54.158 0.417 7.84 42.77 9.5
10/29/2021 7:45:00 PM 12.3 54.14 0.414 7.81 49.36 9.47
10/29/2021 8:00:00 PM 12.26 54.068 0.411 7.79 79.27 9.44
10/29/2021 8:15:00 PM 12.22 53.996 0.41 7.78 92.43 9.43
10/29/2021 8:30:00 PM 12.17 53.906 0.407 7.76 99.27 9.38
10/29/2021 8:45:00 PM 12.13 53.834 0.388 7.71 132.1 9.3
10/29/2021 9:00:00 PM 12.09 53.762 0.356 7.66 270.82 9.2
10/29/2021 9:15:00 PM 12.05 53.69 0.33 7.63 205.37 9.16
10/29/2021 9:30:00 PM 12.04 53.672 0.325 7.59 194.87 9.06
10/29/2021 9:45:00 PM 12.04 53.672 0.334 7.56 220.6 9
10/29/2021 10:00:00 PM 12.04 53.672 0.335 7.56 199.55 9.05
10/29/2021 10:15:00 PM 12.04 53.672 0.317 7.55 193.96 9.11
10/29/2021 10:30:00 PM 12.05 53.69 0.291 7.54 193.87 9.15
10/29/2021 10:45:00 PM 12.06 53.708 0.262 7.5 186.13 9.18
10/29/2021 11:00:00 PM 12.05 53.69 0.242 7.48 186.94 9.21
10/29/2021 11:15:00 PM 12.02 53.636 0.233 7.45 179.38 9.22
10/29/2021 11:30:00 PM 11.99 53.582 0.229 7.45 175.92 9.22
10/29/2021 11:45:00 PM 11.95 53.51 0.227 7.43 182.19 9.21
10/30/2021 12:00:00 AM 11.92 53.456 0.224 7.42 181.75 9.2
10/30/2021 12:15:00 AM 11.9 53.42 0.222 7.41 182.23 9.2
10/30/2021 12:30:00 AM 11.89 53.402 0.223 7.4 192.69 9.18
10/30/2021 12:45:00 AM 11.91 53.438 0.229 7.41 199.43 9.18
10/30/2021 1:00:00 AM 11.92 53.456 0.233 7.41 203.66 9.21
10/30/2021 1:15:00 AM 11.94 53.492 0.233 7.41 196.16 9.23
10/30/2021 1:30:00 AM 11.94 53.492 0.23 7.41 188.33 9.27
10/30/2021 1:45:00 AM 11.93 53.474 0.225 7.4 176.99 9.29
10/30/2021 2:00:00 AM 11.92 53.456 0.223 7.39 158.07 9.31
10/30/2021 2:15:00 AM 11.92 53.456 0.223 7.39 146.38 9.32
10/30/2021 2:30:00 AM 11.92 53.456 0.226 7.39 135.56 9.31
10/30/2021 2:45:00 AM 11.92 53.456 0.229 7.38 126.97 9.32
10/30/2021 3:00:00 AM 11.92 53.456 0.233 7.39 117.1 9.3
10/30/2021 3:15:00 AM 11.93 53.474 0.237 7.39 106.97 9.3
10/30/2021 3:30:00 AM 11.94 53.492 0.241 7.4 100.13 9.32
10/30/2021 3:45:00 AM 11.95 53.51 0.246 7.41 94.09 9.33
10/30/2021 4:00:00 AM 11.95 53.51 0.25 7.41 88.33 9.33
10/30/2021 4:15:00 AM 11.96 53.528 0.254 7.4 86.75 9.34
10/30/2021 4:30:00 AM 11.97 53.546 0.259 7.43 81.26 9.34
10/30/2021 4:45:00 AM 11.99 53.582 0.263 7.43 78.29 9.34
10/30/2021 5:00:00 AM 12 53.6 0.267 7.44 72.52 9.34
10/30/2021 5:15:00 AM 12.01 53.618 0.271 7.45 86.2 9.34
10/30/2021 5:30:00 AM 12.02 53.636 0.275 7.45 65.28 9.35
10/30/2021 5:45:00 AM 12.04 53.672 0.28 7.45 62.32 9.35
10/30/2021 6:00:00 AM 12.05 53.69 0.284 7.47 62.69 9.36
10/30/2021 6:15:00 AM 12.06 53.708 0.288 7.48 57.45 9.36
10/30/2021 6:30:00 AM 12.08 53.744 0.293 7.48 53.22 9.37
10/30/2021 6:45:00 AM 12.09 53.762 0.298 7.49 49.46 9.37
10/30/2021 7:00:00 AM 12.11 53.798 0.302 7.5 48.81 9.37
10/30/2021 7:15:00 AM 12.12 53.816 0.307 7.51 45.9 9.37
10/30/2021 7:30:00 AM 12.14 53.852 0.312 7.51 44.2 9.37
10/30/2021 7:45:00 AM 12.15 53.87 0.317 7.52 50.34 9.37
10/30/2021 8:00:00 AM 12.16 53.888 0.322 7.53 48.4 9.38
10/30/2021 8:15:00 AM 12.18 53.924 0.326 7.54 47.1 9.39
10/30/2021 8:30:00 AM 12.2 53.96 0.331 7.55 46.81 9.4
10/30/2021 8:45:00 AM 12.21 53.978 0.335 7.55 40.01 9.41
10/30/2021 9:00:00 AM 12.23 54.014 0.34 7.56 35.32 9.42
10/30/2021 9:15:00 AM 12.25 54.05 0.345 7.56 33.92 9.43
10/30/2021 9:30:00 AM 12.28 54.104 0.349 7.57 31.09 9.45
10/30/2021 9:45:00 AM 12.31 54.158 0.354 7.58 29.98 9.49
10/30/2021 10:00:00 AM 12.33 54.194 0.358 7.59 29.36 9.5
10/30/2021 10:15:00 AM 12.36 54.248 0.362 7.59 28.73 9.51
10/30/2021 10:30:00 AM 12.4 54.32 0.366 7.6 28.91 9.53
10/30/2021 10:45:00 AM 12.45 54.41 0.37 7.61 27.42 9.59
10/30/2021 11:00:00 AM 12.49 54.482 0.374 7.62 25.57 9.59
10/30/2021 11:15:00 AM 12.52 54.536 0.378 7.64 26.64 9.6
10/30/2021 11:30:00 AM 12.57 54.626 0.381 7.65 26.28 9.64
10/30/2021 11:45:00 AM 12.64 54.752 0.384 7.66 24.73 9.71
10/30/2021 12:00:00 PM 12.68 54.824 0.387 7.67 24.05 9.71
10/30/2021 12:15:00 PM 12.77 54.986 0.39 7.68 44.63 9.78
10/30/2021 12:30:00 PM 12.84 55.112 0.394 7.69 26.18 9.83
10/30/2021 12:45:00 PM 12.92 55.256 0.396 7.71 24.73 9.87
10/30/2021 1:00:00 PM 13 55.4 0.399 7.72 24.82 9.91
10/30/2021 1:15:00 PM 13.1 55.58 0.401 7.73 24.56 9.95
10/30/2021 1:30:00 PM 13.21 55.778 0.403 7.75 23.02 10
10/30/2021 1:45:00 PM 13.35 56.03 0.405 7.76 33.58 10.08
10/30/2021 2:00:00 PM 13.46 56.228 0.407 7.77 20.77 10.09
10/30/2021 2:15:00 PM 13.5 56.3 0.408 7.77 16.83 10.01
10/30/2021 2:30:00 PM 13.55 56.39 0.409 7.78 16.38 10.01
10/30/2021 2:45:00 PM 13.6 56.48 0.41 7.79 16.15 10
10/30/2021 3:00:00 PM 13.66 56.588 0.411 7.79 15.65 9.96
10/30/2021 3:15:00 PM 13.72 56.696 0.412 7.79 15.86 9.94
10/30/2021 3:30:00 PM 13.78 56.804 0.413 7.79 16.02 9.92
10/30/2021 3:45:00 PM 13.81 56.858 0.414 7.79 15.52 9.89
10/30/2021 4:00:00 PM 13.85 56.93 0.415 7.8 15.4 9.88
10/30/2021 4:15:00 PM 13.88 56.984 0.416 7.8 15.23 9.84
10/30/2021 4:30:00 PM 13.91 57.038 0.418 7.79 15.18 9.8
10/30/2021 4:45:00 PM 13.96 57.128 0.419 7.8 15.12 9.79
10/30/2021 5:00:00 PM 13.96 57.128 0.42 7.8 14.65 9.74
10/30/2021 5:15:00 PM 13.96 57.128 0.422 7.8 14.08 9.71
10/30/2021 5:30:00 PM 13.97 57.146 0.423 7.8 13.91 9.67
10/30/2021 5:45:00 PM 13.95 57.11 0.424 7.8 13.43 9.62
10/30/2021 6:00:00 PM 13.91 57.038 0.425 7.79 12.93 9.58
10/30/2021 6:15:00 PM 13.87 56.966 0.426 7.76 13.05 9.54
10/30/2021 6:30:00 PM 13.82 56.876 0.427 7.77 13.04 9.5
10/30/2021 6:45:00 PM 13.76 56.768 0.428 7.77 12.96 9.48
10/30/2021 7:00:00 PM 13.71 56.678 0.429 7.76 13.21 9.45
10/30/2021 7:15:00 PM 13.65 56.57 0.429 7.77 12.74 9.44
10/30/2021 7:30:00 PM 13.58 56.444 0.43 7.77 13.14 9.43
10/30/2021 7:45:00 PM 13.52 56.336 0.431 7.77 12.51 9.43
10/30/2021 8:00:00 PM 13.46 56.228 0.432 7.76 12.72 9.43
10/30/2021 8:15:00 PM 13.4 56.12 0.433 7.76 12.72 9.43
10/30/2021 8:30:00 PM 13.33 55.994 0.434 7.76 12.34 9.43
10/30/2021 8:45:00 PM 13.26 55.868 0.435 7.76 12.43 9.44
10/30/2021 9:00:00 PM 13.19 55.742 0.436 7.76 12.21 9.44
10/30/2021 9:15:00 PM 13.1 55.58 0.437 7.76 12.5 9.45
10/30/2021 9:30:00 PM 13.02 55.436 0.438 7.76 12.36 9.46
10/30/2021 9:45:00 PM 12.93 55.274 0.44 7.76 12.39 9.47
10/30/2021 10:00:00 PM 12.85 55.13 0.441 7.75 12.49 9.47
10/30/2021 10:15:00 PM 12.77 54.986 0.442 7.76 12.06 9.48
10/30/2021 10:30:00 PM 12.69 54.842 0.444 7.76 12.07 9.49
10/30/2021 10:45:00 PM 12.6 54.68 0.445 7.76 11.9 9.51
10/30/2021 11:00:00 PM 12.52 54.536 0.447 7.76 12.03 9.52
10/30/2021 11:15:00 PM 12.45 54.41 0.449 7.75 12 9.53
10/30/2021 11:30:00 PM 12.37 54.266 0.45 7.76 11.95 9.55
10/30/2021 11:45:00 PM 12.3 54.14 0.451 7.75 12.25 9.56
10/31/2021 12:00:00 AM 12.23 54.014 0.453 7.76 11.94 9.58
10/31/2021 12:15:00 AM 12.16 53.888 0.454 7.75 12.39 9.59
10/31/2021 12:30:00 AM 12.1 53.78 0.455 7.76 13.37 9.61
10/31/2021 12:45:00 AM 12.03 53.654 0.457 7.76 11.75 9.62
10/31/2021 1:00:00 AM 11.97 53.546 0.458 7.76 11.92 9.65
10/31/2021 1:15:00 AM 11.9 53.42 0.459 7.76 11.97 9.67
10/31/2021 1:30:00 AM 11.84 53.312 0.46 7.76 11.39 9.68
10/31/2021 1:45:00 AM 11.78 53.204 0.461 7.76 11.58 9.7
10/31/2021 2:00:00 AM 11.73 53.114 0.462 7.77 11.52 9.72
10/31/2021 2:15:00 AM 11.68 53.024 0.463 7.77 11.01 9.73
10/31/2021 2:30:00 AM 11.62 52.916 0.464 7.77 11.08 9.75
10/31/2021 2:45:00 AM 11.57 52.826 0.465 7.77 11.48 9.76
10/31/2021 3:00:00 AM 11.52 52.736 0.466 7.77 10.65 9.78
10/31/2021 3:15:00 AM 11.47 52.646 0.467 7.77 10.99 9.79
10/31/2021 3:30:00 AM 11.42 52.556 0.468 7.78 11.1 9.81
10/31/2021 3:45:00 AM 11.37 52.466 0.469 7.78 11.18 9.82
10/31/2021 4:00:00 AM 11.31 52.358 0.47 7.78 11.21 9.84
10/31/2021 4:15:00 AM 11.26 52.268 0.47 7.78 10.56 9.86
10/31/2021 4:30:00 AM 11.22 52.196 0.471 7.78 10.89 9.87
10/31/2021 4:45:00 AM 11.18 52.124 0.472 7.78 10.84 9.88
10/31/2021 5:00:00 AM 11.14 52.052 0.472 7.78 10.94 9.9
10/31/2021 5:15:00 AM 11.09 51.962 0.473 7.78 10.51 9.91
10/31/2021 5:30:00 AM 11.05 51.89 0.474 7.79 10.73 9.93
10/31/2021 5:45:00 AM 11.02 51.836 0.474 7.79 10.49 9.94
10/31/2021 6:00:00 AM 10.99 51.782 0.475 7.79 10.74 9.95
10/31/2021 6:15:00 AM 10.96 51.728 0.476 7.79 10.26 9.96
10/31/2021 6:30:00 AM 10.94 51.692 0.476 7.79 10.44 9.97
10/31/2021 6:45:00 AM 10.92 51.656 0.477 7.79 10.47 9.99
10/31/2021 7:00:00 AM 10.89 51.602 0.478 7.79 10.22 10
10/31/2021 7:15:00 AM 10.86 51.548 0.478 7.79 10.03 10.01
10/31/2021 7:30:00 AM 10.83 51.494 0.479 7.8 9.62 10.03
10/31/2021 7:45:00 AM 10.81 51.458 0.479 7.8 9.62 10.05
10/31/2021 8:00:00 AM 10.8 51.44 0.479 7.8 8.89 10.08
10/31/2021 8:15:00 AM 10.8 51.44 0.48 7.81 8.82 10.13
10/31/2021 8:30:00 AM 10.8 51.44 0.48 7.81 8.34 10.16
10/31/2021 8:45:00 AM 10.83 51.494 0.481 7.82 7.81 10.24
10/31/2021 9:00:00 AM 10.85 51.53 0.481 7.82 7.3 10.3
10/31/2021 9:15:00 AM 10.88 51.584 0.481 7.83 7.21 10.33
10/31/2021 9:30:00 AM 10.91 51.638 0.481 7.84 7.05 10.35
10/31/2021 9:45:00 AM 10.94 51.692 0.481 7.84 6.74 10.4
10/31/2021 10:00:00 AM 10.98 51.764 0.481 7.85 6.6 10.46
10/31/2021 10:15:00 AM 11.03 51.854 0.481 7.83 6.45 10.51
10/31/2021 10:30:00 AM 11.08 51.944 0.48 7.86 6.44 10.56
10/31/2021 10:45:00 AM 11.16 52.088 0.48 7.88 6.43 10.66
10/31/2021 11:00:00 AM 11.25 52.25 0.481 7.89 6.29 10.77
10/31/2021 11:15:00 AM 11.33 52.394 0.481 7.9 6.32 10.85
10/31/2021 11:30:00 AM 11.43 52.574 0.481 7.92 6.32 10.93
10/31/2021 11:45:00 AM 11.52 52.736 0.481 7.93 6.45 10.98
10/31/2021 12:00:00 PM 11.63 52.934 0.482 7.94 6.61 11.05
10/31/2021 12:15:00 PM 11.74 53.132 0.482 7.96 6.85 11.11
10/31/2021 12:30:00 PM 11.86 53.348 0.482 7.97 7.1 11.15
10/31/2021 12:45:00 PM 12 53.6 0.482 7.99 7.08 11.2
10/31/2021 1:00:00 PM 12.17 53.906 0.482 8 7.27 11.25
10/31/2021 1:15:00 PM 12.35 54.23 0.482 8.02 7.09 11.27
10/31/2021 1:30:00 PM 12.48 54.464 0.482 8.03 6.81 11.3
10/31/2021 1:45:00 PM 12.54 54.572 0.482 8.04 6.68 11.24
10/31/2021 2:00:00 PM 12.62 54.716 0.482 8.04 6.46 11.15
10/31/2021 2:15:00 PM 12.67 54.806 0.482 8.04 6.28 11.05
10/31/2021 2:30:00 PM 12.72 54.896 0.482 8.04 7.05 10.98
10/31/2021 2:45:00 PM 12.84 55.112 0.482 8.05 6.8 11.02
10/31/2021 3:00:00 PM 12.93 55.274 0.482 8.05 13.24 10.99
10/31/2021 3:15:00 PM 13.06 55.508 0.482 8.06 9.37 11.01
10/31/2021 3:30:00 PM 13.14 55.652 0.482 8.06 6.63 10.91
10/31/2021 3:45:00 PM 13.26 55.868 0.483 8.06 7.11 10.9
10/31/2021 4:00:00 PM 13.34 56.012 0.483 8.06 7.23 10.83
10/31/2021 4:15:00 PM 13.38 56.084 0.483 8.06 7.49 10.71
10/31/2021 4:30:00 PM 13.45 56.21 0.484 8.05 7.59 10.62
10/31/2021 4:45:00 PM 13.48 56.264 0.484 8.05 7.72 10.52
10/31/2021 5:00:00 PM 13.51 56.318 0.484 8.04 7.83 10.4
10/31/2021 5:15:00 PM 13.54 56.372 0.485 8.02 7.95 10.28
10/31/2021 5:30:00 PM 13.58 56.444 0.485 8.02 8.59 10.17
10/31/2021 5:45:00 PM 13.59 56.462 0.486 8 7.95 10.06
10/31/2021 6:00:00 PM 13.61 56.498 0.486 7.99 8.31 9.94
10/31/2021 6:15:00 PM 13.62 56.516 0.487 7.96 7.7 9.86
10/31/2021 6:30:00 PM 13.62 56.516 0.487 7.97 7.57 9.78
10/31/2021 6:45:00 PM 13.63 56.534 0.487 7.95 7.71 9.73
10/31/2021 7:00:00 PM 13.63 56.534 0.488 7.96 7.67 9.67
10/31/2021 7:15:00 PM 13.63 56.534 0.488 7.95 7.94 9.64
10/31/2021 7:30:00 PM 13.62 56.516 0.488 7.94 8.29 9.6
10/31/2021 7:45:00 PM 13.59 56.462 0.489 7.94 7.88 9.58
10/31/2021 8:00:00 PM 13.54 56.372 0.489 7.93 7.84 9.56
10/31/2021 8:15:00 PM 13.49 56.282 0.489 7.93 8.01 9.55
10/31/2021 8:30:00 PM 13.42 56.156 0.489 7.92 7.99 9.54
10/31/2021 8:45:00 PM 13.35 56.03 0.49 7.92 8.19 9.55
10/31/2021 9:00:00 PM 13.27 55.886 0.49 7.91 8.05 9.55
10/31/2021 9:15:00 PM 13.18 55.724 0.49 7.91 7.91 9.56
10/31/2021 9:30:00 PM 13.09 55.562 0.49 7.9 8.08 9.57
10/31/2021 9:45:00 PM 12.99 55.382 0.49 7.9 8.2 9.59
10/31/2021 10:00:00 PM 12.88 55.184 0.491 7.9 8.35 9.61
10/31/2021 10:15:00 PM 12.78 55.004 0.491 7.89 8.4 9.62
10/31/2021 10:30:00 PM 12.68 54.824 0.491 7.89 8.54 9.64
10/31/2021 10:45:00 PM 12.57 54.626 0.491 7.89 8.3 9.66
10/31/2021 11:00:00 PM 12.47 54.446 0.492 7.88 8.99 9.69
10/31/2021 11:15:00 PM 12.37 54.266 0.492 7.88 8.69 9.71
10/31/2021 11:30:00 PM 12.28 54.104 0.492 7.88 8.53 9.73
10/31/2021 11:45:00 PM 12.19 53.942 0.492 7.87 8.6 9.75
11/1/2021 12:00:00 AM 12.1 53.78 0.493 7.88 8.7 9.77
11/1/2021 12:15:00 AM 12.02 53.636 0.493 7.87 9.28 9.79
11/1/2021 12:30:00 AM 11.94 53.492 0.493 7.87 8.67 9.81
11/1/2021 12:45:00 AM 11.87 53.366 0.493 7.87 8.89 9.83
11/1/2021 1:00:00 AM 11.79 53.222 0.494 7.87 8.64 9.86
11/1/2021 1:15:00 AM 11.71 53.078 0.494 7.87 8.57 9.88
11/1/2021 1:30:00 AM 11.64 52.952 0.494 7.87 8.94 9.9
11/1/2021 1:45:00 AM 11.57 52.826 0.495 7.86 8.71 9.92
11/1/2021 2:00:00 AM 11.51 52.718 0.495 7.87 9.13 9.94
11/1/2021 2:15:00 AM 11.45 52.61 0.495 7.87 9.04 9.96
11/1/2021 2:30:00 AM 11.4 52.52 0.495 7.87 9.06 9.98
11/1/2021 2:45:00 AM 11.34 52.412 0.496 7.86 8.91 9.99
11/1/2021 3:00:00 AM 11.29 52.322 0.496 7.87 9.11 10
11/1/2021 3:15:00 AM 11.24 52.232 0.496 7.87 8.89 10.02
11/1/2021 3:30:00 AM 11.19 52.142 0.497 7.86 8.55 10.04
11/1/2021 3:45:00 AM 11.15 52.07 0.497 7.87 8.72 10.05
11/1/2021 4:00:00 AM 11.1 51.98 0.497 7.87 8.63 10.07
11/1/2021 4:15:00 AM 11.05 51.89 0.498 7.87 8.85 10.08
11/1/2021 4:30:00 AM 11 51.8 0.498 7.87 9.02 10.1
11/1/2021 4:45:00 AM 10.96 51.728 0.498 7.87 8.7 10.11
11/1/2021 5:00:00 AM 10.91 51.638 0.499 7.87 9.14 10.13
11/1/2021 5:15:00 AM 10.87 51.566 0.499 7.87 9.28 10.14
11/1/2021 5:30:00 AM 10.83 51.494 0.499 7.87 8.96 10.15
11/1/2021 5:45:00 AM 10.79 51.422 0.499 7.87 9.1 10.17
11/1/2021 6:00:00 AM 10.76 51.368 0.5 7.87 8.99 10.18
11/1/2021 6:15:00 AM 10.74 51.332 0.5 7.87 8.89 10.19
11/1/2021 6:30:00 AM 10.71 51.278 0.5 7.87 8.06 10.2
11/1/2021 6:45:00 AM 10.67 51.206 0.5 7.87 9.03 10.22
11/1/2021 7:00:00 AM 10.64 51.152 0.5 7.87 8.78 10.22
11/1/2021 7:15:00 AM 10.61 51.098 0.501 7.87 8.26 10.24
11/1/2021 7:30:00 AM 10.58 51.044 0.501 7.87 8.55 10.25
11/1/2021 7:45:00 AM 10.56 51.008 0.501 7.88 8.57 10.27
11/1/2021 8:00:00 AM 10.54 50.972 0.501 7.88 8.33 10.3
11/1/2021 8:15:00 AM 10.52 50.936 0.501 7.88 7.91 10.34
11/1/2021 8:30:00 AM 10.5 50.9 0.501 7.88 7.9 10.37
11/1/2021 8:45:00 AM 10.49 50.882 0.501 7.89 7.39 10.42
11/1/2021 9:00:00 AM 10.49 50.882 0.502 7.89 7.3 10.46
11/1/2021 9:15:00 AM 10.49 50.882 0.502 7.9 7.2 10.5
11/1/2021 9:30:00 AM 10.5 50.9 0.502 7.9 7.28 10.54
11/1/2021 9:45:00 AM 10.51 50.918 0.502 7.91 7.32 10.58
11/1/2021 10:00:00 AM 10.5 50.9 0.502 7.92 6.83 10.63
11/1/2021 10:15:00 AM 10.51 50.918 0.502 7.92 6.87 10.7
11/1/2021 10:30:00 AM 10.55 50.99 0.502 7.93 7.3 10.78
11/1/2021 10:45:00 AM 10.61 51.098 0.502 7.95 6.73 10.84
11/1/2021 11:00:00 AM 10.66 51.188 0.502 7.96 7.54 10.91
11/1/2021 11:15:00 AM 10.71 51.278 0.502 7.97 6.61 10.99
11/1/2021 11:30:00 AM 10.78 51.404 0.502 7.98 6.58 11.07
11/1/2021 11:45:00 AM 10.88 51.584 0.502 7.98 6.61 11.17
11/1/2021 12:00:00 PM 10.98 51.764 0.502 8.01 6.65 11.24
11/1/2021 12:15:00 PM 11.1 51.98 0.502 8.02 6.75 11.32
11/1/2021 12:30:00 PM 11.2 52.16 0.502 8.03 7 11.37
11/1/2021 12:45:00 PM 11.28 52.304 0.502 8.04 6.7 11.42
11/1/2021 1:00:00 PM 11.39 52.502 0.502 8.05 6.94 11.47
11/1/2021 1:15:00 PM 11.54 52.772 0.502 8.07 7.19 11.5
11/1/2021 1:30:00 PM 11.67 53.006 0.501 8.08 7.71 11.54
11/1/2021 1:45:00 PM 11.83 53.294 0.501 8.09 7.37 11.57
11/1/2021 2:00:00 PM 12 53.6 0.501 8.11 7.38 11.58
11/1/2021 2:15:00 PM 12.16 53.888 0.501 8.12 12.4 11.6
11/1/2021 2:30:00 PM 12.32 54.176 0.501 8.13 7.89 11.58
11/1/2021 2:45:00 PM 12.44 54.392 0.501 8.14 8.14 11.51
11/1/2021 3:00:00 PM 12.52 54.536 0.501 8.14 8.99 11.44
11/1/2021 3:15:00 PM 12.61 54.698 0.501 8.14 6.06 11.38
11/1/2021 3:30:00 PM 12.68 54.824 0.501 8.14 14.88 11.32
11/1/2021 3:45:00 PM 12.76 54.968 0.501 8.15 9.28 11.28
11/1/2021 4:00:00 PM 12.82 55.076 0.501 8.15 8.93 11.25
11/1/2021 4:15:00 PM 12.85 55.13 0.501 8.15 16.54 11.18
11/1/2021 4:30:00 PM 12.84 55.112 0.501 8.12 10.06 11.06
11/1/2021 4:45:00 PM 12.82 55.076 0.502 8.13 6.95 10.94
11/1/2021 5:00:00 PM 12.81 55.058 0.502 8.12 13.25 10.84
11/1/2021 5:15:00 PM 12.77 54.986 0.503 8.1 8.34 10.7
11/1/2021 5:30:00 PM 12.72 54.896 0.503 8.09 9.29 10.57
11/1/2021 5:45:00 PM 12.68 54.824 0.503 8.05 11.17 10.46
11/1/2021 6:00:00 PM 12.64 54.752 0.504 8.06 8.24 10.37
11/1/2021 6:15:00 PM 12.6 54.68 0.504 8.05 8.49 10.27
11/1/2021 6:30:00 PM 12.56 54.608 0.504 8.04 8.05 10.2
11/1/2021 6:45:00 PM 12.51 54.518 0.505 8.02 8.27 10.13
11/1/2021 7:00:00 PM 12.47 54.446 0.505 8.02 8.16 10.09
11/1/2021 7:15:00 PM 12.43 54.374 0.505 8 8.6 10.05
11/1/2021 7:30:00 PM 12.37 54.266 0.506 8 8.4 10.03
11/1/2021 7:45:00 PM 12.29 54.122 0.506 7.99 8.63 10.02
11/1/2021 8:00:00 PM 12.21 53.978 0.506 7.98 8.3 10.01
11/1/2021 8:15:00 PM 12.13 53.834 0.506 7.98 8.49 10.01
11/1/2021 8:30:00 PM 12.05 53.69 0.507 7.97 8.29 10.01
11/1/2021 8:45:00 PM 11.97 53.546 0.507 7.97 8.12 10.02
11/1/2021 9:00:00 PM 11.88 53.384 0.507 7.96 8.24 10.04
11/1/2021 9:15:00 PM 11.78 53.204 0.508 7.96 8.48 10.05
11/1/2021 9:30:00 PM 11.68 53.024 0.508 7.94 8.29 10.07
11/1/2021 9:45:00 PM 11.57 52.826 0.508 7.95 8.03 10.1
11/1/2021 10:00:00 PM 11.46 52.628 0.509 7.94 8.11 10.12
11/1/2021 10:15:00 PM 11.36 52.448 0.509 7.95 8.21 10.14
11/1/2021 10:30:00 PM 11.25 52.25 0.509 7.94 8.04 10.17
11/1/2021 10:45:00 PM 11.14 52.052 0.51 7.94 8.44 10.19
11/1/2021 11:00:00 PM 11.03 51.854 0.51 7.93 8.66 10.22
11/1/2021 11:15:00 PM 10.93 51.674 0.51 7.93 8.52 10.24
11/1/2021 11:30:00 PM 10.83 51.494 0.51 7.93 8.29 10.27
11/1/2021 11:45:00 PM 10.74 51.332 0.511 7.92 9.22 10.29
11/2/2021 12:00:00 AM 10.64 51.152 0.511 7.92 9.42 10.32
11/2/2021 12:15:00 AM 10.55 50.99 0.511 7.92 8.73 10.33
11/2/2021 12:30:00 AM 10.47 50.846 0.511 7.92 8.84 10.36
11/2/2021 12:45:00 AM 10.39 50.702 0.511 7.89 9.81 10.38
11/2/2021 1:00:00 AM 10.31 50.558 0.512 7.91 9.1 10.4
11/2/2021 1:15:00 AM 10.24 50.432 0.512 7.9 8.3 10.42
11/2/2021 1:30:00 AM 10.18 50.324 0.512 7.91 8.42 10.44
11/2/2021 1:45:00 AM 10.13 50.234 0.512 7.9 9.57 10.45
11/2/2021 2:00:00 AM 10.08 50.144 0.512 7.9 8.6 10.47
11/2/2021 2:15:00 AM 10.04 50.072 0.512 7.89 9.04 10.49
11/2/2021 2:30:00 AM 10 50 0.512 7.89 8.97 10.5
11/2/2021 2:45:00 AM 9.97 49.946 0.512 7.9 8.49 10.52
11/2/2021 3:00:00 AM 9.95 49.91 0.512 7.9 8.6 10.53
11/2/2021 3:15:00 AM 9.93 49.874 0.512 7.89 8.34 10.54
11/2/2021 3:30:00 AM 9.91 49.838 0.512 7.89 7.49 10.55
11/2/2021 3:45:00 AM 9.89 49.802 0.512 7.9 7.54 10.56
11/2/2021 4:00:00 AM 9.87 49.766 0.512 7.87 7.84 10.56
11/2/2021 4:15:00 AM 9.86 49.748 0.513 7.9 7.7 10.57
11/2/2021 4:30:00 AM 9.85 49.73 0.513 7.89 7.6 10.57
11/2/2021 4:45:00 AM 9.84 49.712 0.513 7.89 8.49 10.57
11/2/2021 5:00:00 AM 9.82 49.676 0.513 7.9 8.9 10.58
11/2/2021 5:15:00 AM 9.8 49.64 0.513 7.9 8.34 10.58
11/2/2021 5:30:00 AM 9.79 49.622 0.513 7.9 8.19 10.59
11/2/2021 5:45:00 AM 9.79 49.622 0.513 7.9 7.66 10.58
11/2/2021 6:00:00 AM 9.78 49.604 0.513 7.9 7.97 10.59
11/2/2021 6:15:00 AM 9.77 49.586 0.513 7.9 7.3 10.59
11/2/2021 6:30:00 AM 9.77 49.586 0.513 7.9 8.05 10.6
11/2/2021 6:45:00 AM 9.77 49.586 0.513 7.9 8.22 10.6
11/2/2021 7:00:00 AM 9.78 49.604 0.514 7.9 7.25 10.6
11/2/2021 7:15:00 AM 9.78 49.604 0.514 7.9 7.68 10.59
11/2/2021 7:30:00 AM 9.79 49.622 0.514 7.9 7.34 10.6
11/2/2021 7:45:00 AM 9.8 49.64 0.514 7.9 7.9 10.6
11/2/2021 8:00:00 AM 9.82 49.676 0.514 7.91 7.64 10.64
11/2/2021 8:15:00 AM 9.84 49.712 0.513 7.92 7.23 10.69
11/2/2021 8:30:00 AM 9.87 49.766 0.513 7.92 7.31 10.71
11/2/2021 8:45:00 AM 9.89 49.802 0.513 7.92 7.01 10.74
11/2/2021 9:00:00 AM 9.92 49.856 0.513 7.93 6.63 10.75
11/2/2021 9:15:00 AM 9.94 49.892 0.513 7.93 6.43 10.79
11/2/2021 9:30:00 AM 9.97 49.946 0.513 7.94 6.62 10.87
11/2/2021 9:45:00 AM 10.01 50.018 0.513 7.96 6.71 10.97
11/2/2021 10:00:00 AM 10.06 50.108 0.513 7.97 6.96 11.05
11/2/2021 10:15:00 AM 10.1 50.18 0.512 7.98 7.21 11.14
11/2/2021 10:30:00 AM 10.13 50.234 0.512 7.99 7.05 11.21
11/2/2021 10:45:00 AM 10.17 50.306 0.512 8 7.1 11.27
11/2/2021 11:00:00 AM 10.2 50.36 0.512 8.01 7.09 11.32
11/2/2021 11:15:00 AM 10.25 50.45 0.512 8.03 6.57 11.42
11/2/2021 11:30:00 AM 10.3 50.54 0.511 8.02 6.96 11.54
11/2/2021 11:45:00 AM 10.34 50.612 0.511 8.06 6.99 11.6
11/2/2021 12:00:00 PM 10.4 50.72 0.511 8.07 7.28 11.67
11/2/2021 12:15:00 PM 10.45 50.81 0.511 8.08 7.13 11.72
11/2/2021 12:30:00 PM 10.49 50.882 0.511 8.09 7.01 11.75
11/2/2021 12:45:00 PM 10.53 50.954 0.511 8.1 7.2 11.81
11/2/2021 1:00:00 PM 10.58 51.044 0.51 8.1 7.12 11.85
11/2/2021 1:15:00 PM 10.63 51.134 0.51 8.12 7.42 11.9
11/2/2021 1:30:00 PM 10.68 51.224 0.51 8.13 6.37 11.92
11/2/2021 1:45:00 PM 10.71 51.278 0.51 8.13 6.96 11.9
11/2/2021 2:00:00 PM 10.73 51.314 0.51 8.13 7.27 11.86
11/2/2021 2:15:00 PM 10.76 51.368 0.509 8.14 6.1 11.87
11/2/2021 2:30:00 PM 10.79 51.422 0.509 8.15 5.68 11.86
11/2/2021 2:45:00 PM 10.82 51.476 0.509 8.15 5.77 11.84
11/2/2021 3:00:00 PM 10.84 51.512 0.508 8.16 6.35 11.8
11/2/2021 3:15:00 PM 10.85 51.53 0.509 8.15 4.96 11.72
11/2/2021 3:30:00 PM 10.88 51.584 0.509 8.15 4.93 11.67
11/2/2021 3:45:00 PM 10.9 51.62 0.509 8.15 7.06 11.58
11/2/2021 4:00:00 PM 10.91 51.638 0.509 8.14 6.47 11.52
11/2/2021 4:15:00 PM 10.92 51.656 0.509 8.13 6.26 11.43
11/2/2021 4:30:00 PM 10.94 51.692 0.509 8.13 6.57 11.39
11/2/2021 4:45:00 PM 10.95 51.71 0.51 8.13 6.28 11.34
11/2/2021 5:00:00 PM 10.96 51.728 0.51 8.12 6.54 11.25
11/2/2021 5:15:00 PM 10.96 51.728 0.51 8.11 6.34 11.16
11/2/2021 5:30:00 PM 10.96 51.728 0.509 8.1 6.27 11.07
11/2/2021 5:45:00 PM 10.96 51.728 0.51 8.09 6.27 11
11/2/2021 6:00:00 PM 10.93 51.674 0.51 8.07 6.32 10.9
11/2/2021 6:15:00 PM 10.9 51.62 0.51 8.07 6.37 10.8
11/2/2021 6:30:00 PM 10.87 51.566 0.51 8.04 6.86 10.73
11/2/2021 6:45:00 PM 10.83 51.494 0.51 8.05 6.57 10.67
11/2/2021 7:00:00 PM 10.79 51.422 0.511 8.03 6.81 10.61
11/2/2021 7:15:00 PM 10.74 51.332 0.511 8.02 6.78 10.57
11/2/2021 7:30:00 PM 10.68 51.224 0.511 8.01 7.38 10.54
11/2/2021 7:45:00 PM 10.62 51.116 0.511 8.01 7.18 10.52
11/2/2021 8:00:00 PM 10.55 50.99 0.512 8 6.71 10.5
11/2/2021 8:15:00 PM 10.48 50.864 0.512 7.99 7.4 10.5
11/2/2021 8:30:00 PM 10.41 50.738 0.512 7.99 7 10.5
11/2/2021 8:45:00 PM 10.35 50.63 0.512 7.98 6.81 10.5
11/2/2021 9:00:00 PM 10.28 50.504 0.512 7.98 6.66 10.51
11/2/2021 9:15:00 PM 10.21 50.378 0.512 7.98 6.95 10.52
11/2/2021 9:30:00 PM 10.14 50.252 0.513 7.97 7.06 10.53
11/2/2021 9:45:00 PM 10.07 50.126 0.513 7.97 6.97 10.54
11/2/2021 10:00:00 PM 10 50 0.513 7.96 6.83 10.55
11/2/2021 10:15:00 PM 9.93 49.874 0.513 7.96 6.91 10.57
11/2/2021 10:30:00 PM 9.86 49.748 0.513 7.96 7.05 10.58
11/2/2021 10:45:00 PM 9.79 49.622 0.513 7.95 6.79 10.59
11/2/2021 11:00:00 PM 9.72 49.496 0.513 7.95 6.78 10.6
11/2/2021 11:15:00 PM 9.64 49.352 0.514 7.95 6.56 10.62
11/2/2021 11:30:00 PM 9.57 49.226 0.514 7.95 6.72 10.64
11/2/2021 11:45:00 PM 9.5 49.1 0.514 7.94 6.68 10.65
11/3/2021 12:00:00 AM 9.42 48.956 0.514 7.94 6.72 10.67
11/3/2021 12:15:00 AM 9.34 48.812 0.514 7.94 6.71 10.69
11/3/2021 12:30:00 AM 9.27 48.686 0.514 7.94 6.64 10.71
11/3/2021 12:45:00 AM 9.19 48.542 0.515 7.92 6.77 10.74
11/3/2021 1:00:00 AM 9.12 48.416 0.515 7.93 6.79 10.76
11/3/2021 1:15:00 AM 9.05 48.29 0.515 7.93 6.76 10.78
11/3/2021 1:30:00 AM 8.98 48.164 0.515 7.93 7.88 10.8
11/3/2021 1:45:00 AM 8.91 48.038 0.515 7.92 6.73 10.82
11/3/2021 2:00:00 AM 8.84 47.912 0.515 7.92 6.74 10.84
11/3/2021 2:15:00 AM 8.78 47.804 0.515 7.92 6.38 10.86
11/3/2021 2:30:00 AM 8.72 47.696 0.515 7.92 6.33 10.87
11/3/2021 2:45:00 AM 8.67 47.606 0.515 7.92 6.37 10.89
11/3/2021 3:00:00 AM 8.61 47.498 0.515 7.92 6.28 10.91
11/3/2021 3:15:00 AM 8.56 47.408 0.515 7.92 6.56 10.93
11/3/2021 3:30:00 AM 8.5 47.3 0.515 7.92 6.54 10.94
11/3/2021 3:45:00 AM 8.45 47.21 0.515 7.91 6.75 10.97
11/3/2021 4:00:00 AM 8.39 47.102 0.515 7.91 6.76 10.99
11/3/2021 4:15:00 AM 8.34 47.012 0.515 7.91 6.83 11
11/3/2021 4:30:00 AM 8.28 46.904 0.515 7.91 7.07 11.02
11/3/2021 4:45:00 AM 8.23 46.814 0.516 7.91 6.91 11.03
11/3/2021 5:00:00 AM 8.17 46.706 0.516 7.91 7.12 11.05
11/3/2021 5:15:00 AM 8.12 46.616 0.516 7.91 10.21 11.07
11/3/2021 5:30:00 AM 8.07 46.526 0.516 7.91 10.08 11.08
11/3/2021 5:45:00 AM 8.02 46.436 0.516 7.91 6.32 11.1
11/3/2021 6:00:00 AM 7.98 46.364 0.516 7.91 5.95 11.11
11/3/2021 6:15:00 AM 7.93 46.274 0.517 7.91 5.9 11.13
11/3/2021 6:30:00 AM 7.88 46.184 0.517 7.92 5.92 11.15
11/3/2021 6:45:00 AM 7.84 46.112 0.517 7.92 6.33 11.16
11/3/2021 7:00:00 AM 7.8 46.04 0.517 7.92 6.31 11.18
11/3/2021 7:15:00 AM 7.75 45.95 0.517 7.92 6.32 11.19
11/3/2021 7:30:00 AM 7.71 45.878 0.517 7.9 6.24 11.2
11/3/2021 7:45:00 AM 7.67 45.806 0.517 7.92 6.82 11.23
11/3/2021 8:00:00 AM 7.64 45.752 0.517 7.92 5.88 11.26
11/3/2021 8:15:00 AM 7.6 45.68 0.517 7.92 5.76 11.3
11/3/2021 8:30:00 AM 7.57 45.626 0.517 7.93 6.45 11.35
11/3/2021 8:45:00 AM 7.54 45.572 0.517 7.94 5.74 11.4
11/3/2021 9:00:00 AM 7.52 45.536 0.517 7.94 5.55 11.45
11/3/2021 9:15:00 AM 7.51 45.518 0.517 7.95 5.42 11.5
11/3/2021 9:30:00 AM 7.5 45.5 0.517 7.95 5.38 11.56
11/3/2021 9:45:00 AM 7.51 45.518 0.517 7.96 5.3 11.61
11/3/2021 10:00:00 AM 7.52 45.536 0.517 7.97 5 11.66
11/3/2021 10:15:00 AM 7.55 45.59 0.517 7.98 4.93 11.74
11/3/2021 10:30:00 AM 7.61 45.698 0.516 7.99 4.36 11.82
11/3/2021 10:45:00 AM 7.67 45.806 0.516 8 5.1 11.89
11/3/2021 11:00:00 AM 7.74 45.932 0.516 8.01 5.51 11.95
11/3/2021 11:15:00 AM 7.82 46.076 0.516 8.02 4.58 12.02
11/3/2021 11:30:00 AM 7.92 46.256 0.516 8.04 4.59 12.09
11/3/2021 11:45:00 AM 8.04 46.472 0.515 8.05 5.43 12.16
11/3/2021 12:00:00 PM 8.17 46.706 0.515 8.06 5.44 12.22
11/3/2021 12:15:00 PM 8.33 46.994 0.515 8.08 5.33 12.27
11/3/2021 12:30:00 PM 8.48 47.264 0.515 8.09 5.54 12.32
11/3/2021 12:45:00 PM 8.62 47.516 0.514 8.1 5.57 12.34
11/3/2021 1:00:00 PM 8.77 47.786 0.514 8.11 5.81 12.38
11/3/2021 1:15:00 PM 8.87 47.966 0.514 8.12 5.83 12.35
11/3/2021 1:30:00 PM 9.07 48.326 0.514 8.14 6.18 12.41
11/3/2021 1:45:00 PM 9.24 48.632 0.513 8.15 6.09 12.45
11/3/2021 2:00:00 PM 9.28 48.704 0.513 8.16 6.07 12.35
11/3/2021 2:15:00 PM 9.53 49.154 0.513 8.17 5.8 12.39
11/3/2021 2:30:00 PM 9.7 49.46 0.513 8.19 5.7 12.36
11/3/2021 2:45:00 PM 9.83 49.694 0.512 8.19 5.39 12.27
11/3/2021 3:00:00 PM 9.97 49.946 0.512 8.2 5.6 12.26
11/3/2021 3:15:00 PM 10.1 50.18 0.512 8.21 5.4 12.22
11/3/2021 3:30:00 PM 10.25 50.45 0.511 8.22 5.43 12.19
11/3/2021 3:45:00 PM 10.34 50.612 0.511 8.22 5.51 12.14
11/3/2021 4:00:00 PM 10.4 50.72 0.511 8.22 5.34 12.05
11/3/2021 4:15:00 PM 10.49 50.882 0.511 8.22 5.54 11.99
11/3/2021 4:30:00 PM 10.57 51.026 0.511 8.22 5.62 11.9
11/3/2021 4:45:00 PM 10.61 51.098 0.511 8.21 5.51 11.75
11/3/2021 5:00:00 PM 10.65 51.17 0.511 8.21 5.62 11.61
11/3/2021 5:15:00 PM 10.67 51.206 0.511 8.19 5.72 11.46
11/3/2021 5:30:00 PM 10.66 51.188 0.511 8.18 5.68 11.32
11/3/2021 5:45:00 PM 10.65 51.17 0.512 8.16 5.57 11.18
11/3/2021 6:00:00 PM 10.64 51.152 0.512 8.15 5.52 11.04
11/3/2021 6:15:00 PM 10.62 51.116 0.512 8.13 5.85 10.92
11/3/2021 6:30:00 PM 10.59 51.062 0.513 8.11 5.97 10.82
11/3/2021 6:45:00 PM 10.56 51.008 0.513 8.1 5.95 10.75
11/3/2021 7:00:00 PM 10.53 50.954 0.513 8.09 5.79 10.69
11/3/2021 7:15:00 PM -99999.99 -179968 -99999.99 -99999.99 -99999.99 -99999.99
11/3/2021 7:30:00 PM 10.45 50.81 0.514 8.07 5.97 10.61
11/3/2021 7:45:00 PM 10.4 50.72 0.514 8.06 6.2 10.58
11/3/2021 8:00:00 PM 10.33 50.594 0.515 8.05 6.18 10.57
11/3/2021 8:15:00 PM 10.26 50.468 0.515 8.04 6.15 10.56
11/3/2021 8:30:00 PM 10.18 50.324 0.515 8.04 6.28 10.56
11/3/2021 8:45:00 PM 10.09 50.162 0.515 8.03 6.24 10.57
11/3/2021 9:00:00 PM 10 50 0.515 8.03 6.22 10.58
11/3/2021 9:15:00 PM 9.91 49.838 0.516 8.02 5.81 10.6
11/3/2021 9:30:00 PM 9.81 49.658 0.516 8.02 6.45 10.62
11/3/2021 9:45:00 PM 9.72 49.496 0.516 8.01 5.67 10.64
11/3/2021 10:00:00 PM 9.62 49.316 0.516 8.01 13.24 10.66
11/3/2021 10:15:00 PM 9.52 49.136 0.517 8 8.36 10.69
11/3/2021 10:30:00 PM 9.42 48.956 0.517 8 8.39 10.72
11/3/2021 10:45:00 PM 9.31 48.758 0.517 8 8.27 10.74
11/3/2021 11:00:00 PM 9.21 48.578 0.518 7.99 8.55 10.76
11/3/2021 11:15:00 PM 9.11 48.398 0.518 7.98 8.51 10.79
11/3/2021 11:30:00 PM 9.01 48.218 0.518 7.98 8.64 10.81
11/3/2021 11:45:00 PM 8.91 48.038 0.518 7.98 8.56 10.84
11/4/2021 12:00:00 AM 8.82 47.876 0.519 7.98 8.57 10.86
11/4/2021 12:15:00 AM 8.73 47.714 0.519 7.97 8.51 10.89
11/4/2021 12:30:00 AM 8.64 47.552 0.519 7.97 8.74 10.91
11/4/2021 12:45:00 AM 8.56 47.408 0.519 7.97 8.69 10.94
11/4/2021 1:00:00 AM 8.48 47.264 0.519 7.96 8.86 10.96
11/4/2021 1:15:00 AM 8.4 47.12 0.519 7.96 8.91 10.98
11/4/2021 1:30:00 AM 8.32 46.976 0.519 7.96 10.66 11
11/4/2021 1:45:00 AM 8.25 46.85 0.52 7.96 9.83 11.03
11/4/2021 2:00:00 AM 8.18 46.724 0.519 7.96 9.01 11.05
11/4/2021 2:15:00 AM 8.12 46.616 0.519 7.96 9.04 11.07
11/4/2021 2:30:00 AM 8.05 46.49 0.519 7.96 6.71 11.1
11/4/2021 2:45:00 AM 7.99 46.382 0.519 7.96 6.7 11.11
11/4/2021 3:00:00 AM 7.93 46.274 0.519 7.96 6.65 11.13
11/4/2021 3:15:00 AM 7.88 46.184 0.519 7.96 6.44 11.16
11/4/2021 3:30:00 AM 7.82 46.076 0.52 7.95 6.46 11.17
11/4/2021 3:45:00 AM 7.77 45.986 0.52 7.95 6.64 11.19
11/4/2021 4:00:00 AM 7.72 45.896 0.52 7.95 7.16 11.2
11/4/2021 4:15:00 AM 7.66 45.788 0.52 7.95 6.1 11.22
11/4/2021 4:30:00 AM 7.61 45.698 0.521 7.95 6.32 11.24
11/4/2021 4:45:00 AM 7.56 45.608 0.521 7.95 5.65 11.26
11/4/2021 5:00:00 AM 7.51 45.518 0.521 7.95 8.95 11.27
11/4/2021 5:15:00 AM 7.47 45.446 0.521 7.94 7.04 11.29
11/4/2021 5:30:00 AM 7.42 45.356 0.521 7.94 9.79 11.3
11/4/2021 5:45:00 AM 7.37 45.266 0.521 7.95 6.64 11.32
11/4/2021 6:00:00 AM 7.33 45.194 0.521 7.94 5.72 11.33
11/4/2021 6:15:00 AM 7.28 45.104 0.521 7.94 6.03 11.35
11/4/2021 6:30:00 AM 7.24 45.032 0.521 7.94 7.19 11.36
11/4/2021 6:45:00 AM 7.2 44.96 0.521 7.93 5.36 11.38
11/4/2021 7:00:00 AM 7.16 44.888 0.521 7.94 5.33 11.38
11/4/2021 7:15:00 AM 7.12 44.816 0.521 7.94 5.5 11.41
11/4/2021 7:30:00 AM 7.08 44.744 0.521 7.94 5.29 11.42
11/4/2021 7:45:00 AM 7.04 44.672 0.521 7.94 5.28 11.43
11/4/2021 8:00:00 AM 7 44.6 0.521 7.94 5.12 11.46
11/4/2021 8:15:00 AM 6.97 44.546 0.521 7.94 4.98 11.5
11/4/2021 8:30:00 AM 6.94 44.492 0.521 7.95 4.89 11.55
11/4/2021 8:45:00 AM 6.92 44.456 0.521 7.96 4.78 11.61
11/4/2021 9:00:00 AM 6.9 44.42 0.521 7.96 4.68 11.66
11/4/2021 9:15:00 AM 6.89 44.402 0.521 7.97 4.69 11.71
11/4/2021 9:30:00 AM 6.89 44.402 0.521 7.97 4.66 11.77
11/4/2021 9:45:00 AM 6.9 44.42 0.521 7.97 4.78 11.82
11/4/2021 10:00:00 AM 6.92 44.456 0.521 7.98 4.58 11.87
11/4/2021 10:15:00 AM 6.95 44.51 0.52 7.99 4.54 11.94
11/4/2021 10:30:00 AM 7.01 44.618 0.52 8 4.64 12.02
11/4/2021 10:45:00 AM 7.09 44.762 0.52 8.02 4.5 12.11
11/4/2021 11:00:00 AM 7.17 44.906 0.52 8.03 4.57 12.17
11/4/2021 11:15:00 AM 7.28 45.104 0.519 8.04 4.46 12.25
11/4/2021 11:30:00 AM 7.37 45.266 0.519 8.05 4.48 12.32
11/4/2021 11:45:00 AM 7.5 45.5 0.519 8.07 4.55 12.41
11/4/2021 12:00:00 PM 7.63 45.734 0.519 8.08 4.51 12.48
11/4/2021 12:15:00 PM 7.76 45.968 0.518 8.09 4.51 12.55
11/4/2021 12:30:00 PM 7.94 46.292 0.518 8.12 4.58 12.65
11/4/2021 12:45:00 PM 8.08 46.544 0.517 8.13 4.57 12.73
11/4/2021 1:00:00 PM 8.27 46.886 0.517 8.15 4.52 12.81
11/4/2021 1:15:00 PM 8.43 47.174 0.516 8.17 4.72 12.87
11/4/2021 1:30:00 PM 8.53 47.354 0.516 8.17 4.49 12.83
11/4/2021 1:45:00 PM 8.63 47.534 0.516 8.19 4.51 12.84
11/4/2021 2:00:00 PM 8.76 47.768 0.515 8.2 4.58 12.84
11/4/2021 2:15:00 PM 8.92 48.056 0.515 8.22 4.62 12.85
11/4/2021 2:30:00 PM 9.15 48.47 0.514 8.23 4.63 12.9
11/4/2021 2:45:00 PM 9.31 48.758 0.514 8.25 4.5 12.88
11/4/2021 3:00:00 PM 9.42 48.956 0.513 8.25 4.5 12.83
11/4/2021 3:15:00 PM 9.57 49.226 0.513 8.26 4.8 12.79
11/4/2021 3:30:00 PM 9.74 49.532 0.512 8.26 4.6 12.72
11/4/2021 3:45:00 PM 9.85 49.73 0.512 8.27 4.94 12.66
11/4/2021 4:00:00 PM 9.93 49.874 0.512 8.27 4.68 12.58
11/4/2021 4:15:00 PM 10.03 50.054 0.511 8.27 4.72 12.46
11/4/2021 4:30:00 PM 10.08 50.144 0.511 8.27 4.7 12.32
11/4/2021 4:45:00 PM 10.14 50.252 0.511 8.26 4.82 12.18
11/4/2021 5:00:00 PM 10.19 50.342 0.512 8.25 4.72 12.02
11/4/2021 5:15:00 PM 10.2 50.36 0.512 8.23 4.88 11.84
11/4/2021 5:30:00 PM 10.2 50.36 0.512 8.22 4.76 11.67
11/4/2021 5:45:00 PM 10.2 50.36 0.513 8.19 4.79 11.51
11/4/2021 6:00:00 PM 10.19 50.342 0.513 8.18 4.85 11.34
11/4/2021 6:15:00 PM 10.16 50.288 0.514 8.16 4.9 11.19
11/4/2021 6:30:00 PM 10.12 50.216 0.514 8.14 4.92 11.07
11/4/2021 6:45:00 PM 10.08 50.144 0.515 8.12 5.11 10.98
11/4/2021 7:00:00 PM 10.04 50.072 0.515 8.11 5.26 10.9
11/4/2021 7:15:00 PM 9.99 49.982 0.516 8.1 5.3 10.86
11/4/2021 7:30:00 PM 9.94 49.892 0.516 8.09 5.23 10.8
11/4/2021 7:45:00 PM 9.88 49.784 0.516 8.08 5.21 10.77
11/4/2021 8:00:00 PM 9.82 49.676 0.517 8.06 5.38 10.75
11/4/2021 8:15:00 PM 9.76 49.568 0.517 8.06 5.17 10.73
11/4/2021 8:30:00 PM 9.69 49.442 0.517 8.05 5.23 10.71
11/4/2021 8:45:00 PM 9.61 49.298 0.517 8.05 5.01 10.71
11/4/2021 9:00:00 PM 9.54 49.172 0.518 8.04 5.29 10.7
11/4/2021 9:15:00 PM 9.47 49.046 0.518 8.04 5.17 10.71
11/4/2021 9:30:00 PM 9.38 48.884 0.518 8.03 5.23 10.71
11/4/2021 9:45:00 PM 9.3 48.74 0.518 8.02 5.17 10.74
11/4/2021 10:00:00 PM 9.21 48.578 0.518 8.02 5.29 10.76
11/4/2021 10:15:00 PM 9.12 48.416 0.518 8.02 5.25 10.77
11/4/2021 10:30:00 PM 9.03 48.254 0.518 8.01 5.18 10.79
11/4/2021 10:45:00 PM 8.93 48.074 0.518 8.01 5.63 10.82
11/4/2021 11:00:00 PM 8.83 47.894 0.519 8 5.37 10.84
11/4/2021 11:15:00 PM 8.73 47.714 0.519 8 5.27 10.86
11/4/2021 11:30:00 PM 8.63 47.534 0.519 8 5.26 10.88
11/4/2021 11:45:00 PM 8.53 47.354 0.519 7.99 5.29 10.91
11/5/2021 12:00:00 AM 8.44 47.192 0.519 7.99 5.99 10.94
11/5/2021 12:15:00 AM 8.35 47.03 0.52 7.99 5.53 10.96
11/5/2021 12:30:00 AM 8.25 46.85 0.52 7.98 5.48 11
11/5/2021 12:45:00 AM 8.17 46.706 0.52 7.96 5.48 11.02
11/5/2021 1:00:00 AM 8.08 46.544 0.52 7.98 5.76 11.04
11/5/2021 1:15:00 AM 8 46.4 0.52 7.97 5.91 11.07
11/5/2021 1:30:00 AM 7.92 46.256 0.52 7.97 5.7 11.09
11/5/2021 1:45:00 AM 7.84 46.112 0.52 7.97 6.05 11.12
11/5/2021 2:00:00 AM 7.76 45.968 0.52 7.96 5.69 11.15
11/5/2021 2:15:00 AM 7.69 45.842 0.52 7.97 5.76 11.17
11/5/2021 2:30:00 AM 7.62 45.716 0.52 7.96 5.43 11.19
11/5/2021 2:45:00 AM 7.55 45.59 0.52 7.96 5.62 11.21
11/5/2021 3:00:00 AM 7.48 45.464 0.52 7.96 5.51 11.24
11/5/2021 3:15:00 AM 7.41 45.338 0.52 7.96 5.57 11.25
11/5/2021 3:30:00 AM 7.35 45.23 0.52 7.96 5.61 11.28
11/5/2021 3:45:00 AM 7.29 45.122 0.52 7.95 5.66 11.3
11/5/2021 4:00:00 AM 7.22 44.996 0.52 7.96 5.76 11.32
11/5/2021 4:15:00 AM 7.17 44.906 0.52 7.96 5.87 11.33
11/5/2021 4:30:00 AM 7.11 44.798 0.52 7.95 5.86 11.36
11/5/2021 4:45:00 AM 7.05 44.69 0.521 7.95 5.94 11.38
11/5/2021 5:00:00 AM 7 44.6 0.521 7.95 5.62 11.4
11/5/2021 5:15:00 AM 6.95 44.51 0.521 7.95 6.41 11.42
11/5/2021 5:30:00 AM 6.9 44.42 0.521 7.95 6.05 11.43
11/5/2021 5:45:00 AM 6.85 44.33 0.521 7.95 5.89 11.45
11/5/2021 6:00:00 AM 6.81 44.258 0.522 7.95 5.87 11.47
11/5/2021 6:15:00 AM 6.77 44.186 0.522 7.95 6.65 11.48
11/5/2021 6:30:00 AM 6.72 44.096 0.522 7.94 5.97 11.5
11/5/2021 6:45:00 AM 6.68 44.024 0.522 7.94 5.61 11.52
11/5/2021 7:00:00 AM 6.64 43.952 0.522 7.94 5.74 11.53
11/5/2021 7:15:00 AM 6.6 43.88 0.522 7.94 5.68 11.55
11/5/2021 7:30:00 AM 6.56 43.808 0.522 7.95 5.66 11.56
11/5/2021 7:45:00 AM 6.53 43.754 0.522 7.94 5.82 11.58
11/5/2021 8:00:00 AM 6.5 43.7 0.522 7.95 5.59 11.62
11/5/2021 8:15:00 AM 6.47 43.646 0.522 7.95 5.45 11.67
11/5/2021 8:30:00 AM 6.44 43.592 0.522 7.95 5.45 11.72
11/5/2021 8:45:00 AM 6.42 43.556 0.522 7.95 5.33 11.77
11/5/2021 9:00:00 AM 6.4 43.52 0.522 7.96 5.34 11.83
11/5/2021 9:15:00 AM 6.4 43.52 0.522 7.97 5.17 11.89
11/5/2021 9:30:00 AM 6.4 43.52 0.522 7.97 5.15 11.95
11/5/2021 9:45:00 AM 6.42 43.556 0.522 7.98 5.15 12
11/5/2021 10:00:00 AM 6.44 43.592 0.521 7.99 5.18 12.06
11/5/2021 10:15:00 AM 6.48 43.664 0.521 8 5.39 12.12
11/5/2021 10:30:00 AM 6.55 43.79 0.521 8.01 5.06 12.22
11/5/2021 10:45:00 AM 6.63 43.934 0.521 8.02 5.03 12.3
11/5/2021 11:00:00 AM 6.73 44.114 0.521 8.04 4.98 12.37
11/5/2021 11:15:00 AM 6.84 44.312 0.52 8.05 4.91 12.44
11/5/2021 11:30:00 AM 6.96 44.528 0.52 8.05 4.93 12.5
11/5/2021 11:45:00 AM 7.1 44.78 0.52 8.07 4.91 12.57
11/5/2021 12:00:00 PM 7.26 45.068 0.519 8.08 4.97 12.63
11/5/2021 12:15:00 PM 7.43 45.374 0.519 8.1 4.96 12.7
11/5/2021 12:30:00 PM 7.61 45.698 0.518 8.1 4.87 12.75
11/5/2021 12:45:00 PM 7.68 45.824 0.518 8.12 4.92 12.69
11/5/2021 1:00:00 PM 7.9 46.22 0.518 8.14 4.98 12.77
11/5/2021 1:15:00 PM 8.08 46.544 0.518 8.15 4.98 12.81
11/5/2021 1:30:00 PM 8.26 46.868 0.517 8.16 4.97 12.83
11/5/2021 1:45:00 PM 8.36 47.048 0.517 8.17 4.91 12.78
11/5/2021 2:00:00 PM 8.48 47.264 0.516 8.18 4.9 12.74
11/5/2021 2:15:00 PM 8.78 47.804 0.516 8.2 5 12.81
11/5/2021 2:30:00 PM 9.01 48.218 0.515 8.21 4.84 12.82
11/5/2021 2:45:00 PM 9.17 48.506 0.515 8.22 4.83 12.76
11/5/2021 3:00:00 PM 9.32 48.776 0.514 8.23 4.81 12.66
11/5/2021 3:15:00 PM 9.47 49.046 0.514 8.23 4.76 12.59
11/5/2021 3:30:00 PM 9.6 49.28 0.513 8.24 5.12 12.49
11/5/2021 3:45:00 PM 9.71 49.478 0.513 8.24 4.91 12.39
11/5/2021 4:00:00 PM 9.79 49.622 0.513 8.24 4.88 12.29
11/5/2021 4:15:00 PM 9.86 49.748 0.513 8.24 4.65 12.18
11/5/2021 4:30:00 PM 9.91 49.838 0.513 8.23 4.92 12.05
11/5/2021 4:45:00 PM 9.93 49.874 0.513 8.22 4.78 11.93
11/5/2021 5:00:00 PM 9.95 49.91 0.513 8.21 4.99 11.82
11/5/2021 5:15:00 PM 9.96 49.928 0.513 8.2 5.05 11.68
11/5/2021 5:30:00 PM 9.95 49.91 0.514 8.19 5.19 11.54
11/5/2021 5:45:00 PM 9.94 49.892 0.514 8.17 5.25 11.4
11/5/2021 6:00:00 PM 9.92 49.856 0.515 8.15 5.1 11.27
11/5/2021 6:15:00 PM 9.9 49.82 0.515 8.14 5.35 11.14
11/5/2021 6:30:00 PM 9.88 49.784 0.515 8.12 5.34 11.04
11/5/2021 6:45:00 PM 9.86 49.748 0.516 8.11 5.55 10.96
11/5/2021 7:00:00 PM 9.84 49.712 0.516 8.1 5.23 10.9
11/5/2021 7:15:00 PM 9.82 49.676 0.517 8.09 7.98 10.84
11/5/2021 7:30:00 PM 9.79 49.622 0.517 8.08 6.8 10.8
11/5/2021 7:45:00 PM 9.76 49.568 0.517 8.07 5.89 10.78
11/5/2021 8:00:00 PM 9.71 49.478 0.518 8.07 6.31 10.75
11/5/2021 8:15:00 PM 9.66 49.388 0.518 8.06 6.04 10.74
11/5/2021 8:30:00 PM 9.6 49.28 0.518 8.05 5.83 10.73
11/5/2021 8:45:00 PM 9.53 49.154 0.518 8.05 5.56 10.73
11/5/2021 9:00:00 PM 9.45 49.01 0.519 8.04 5.51 10.73
11/5/2021 9:15:00 PM 9.37 48.866 0.519 8.04 6.34 10.74
11/5/2021 9:30:00 PM 9.29 48.722 0.519 8.03 5.7 10.76
11/5/2021 9:45:00 PM 9.21 48.578 0.519 8.03 5.69 10.75
11/5/2021 10:00:00 PM 9.12 48.416 0.52 8.02 6.68 10.78
11/5/2021 10:15:00 PM 9.03 48.254 0.52 8.02 5.62 10.79
11/5/2021 10:30:00 PM 8.93 48.074 0.52 8.02 8.88 10.81
11/5/2021 10:45:00 PM 8.83 47.894 0.52 8.01 8.86 10.86
11/5/2021 11:00:00 PM 8.72 47.696 0.521 8.01 7.94 10.88
11/5/2021 11:15:00 PM 8.61 47.498 0.521 8 6.64 10.91
11/5/2021 11:30:00 PM 8.51 47.318 0.521 8 5.28 10.95
11/5/2021 11:45:00 PM 8.4 47.12 0.522 8 5.07 10.97
11/6/2021 12:00:00 AM 8.29 46.922 0.522 8 5.27 11
11/6/2021 12:15:00 AM 8.19 46.742 0.522 7.99 5.24 11.03
11/6/2021 12:30:00 AM 8.09 46.562 0.522 7.99 5.24 11.07
11/6/2021 12:45:00 AM 8 46.4 0.523 7.98 5.51 11.09
11/6/2021 1:00:00 AM 7.91 46.238 0.523 7.98 5.43 11.12
11/6/2021 1:15:00 AM 7.82 46.076 0.523 7.98 5.23 11.15
11/6/2021 1:30:00 AM 7.74 45.932 0.523 7.98 5.25 11.17
11/6/2021 1:45:00 AM 7.66 45.788 0.523 7.98 5.2 11.2
11/6/2021 2:00:00 AM 7.58 45.644 0.523 7.98 5.16 11.24
11/6/2021 2:15:00 AM 7.5 45.5 0.523 7.96 5.22 11.26
11/6/2021 2:30:00 AM 7.42 45.356 0.523 7.97 5.24 11.28
11/6/2021 2:45:00 AM 7.35 45.23 0.523 7.97 5.46 11.31
11/6/2021 3:00:00 AM 7.27 45.086 0.523 7.97 5.23 11.34
11/6/2021 3:15:00 AM 7.2 44.96 0.523 7.97 5.22 11.36
11/6/2021 3:30:00 AM 7.13 44.834 0.523 7.97 5.18 11.39
11/6/2021 3:45:00 AM 7.07 44.726 0.523 7.97 5.08 11.41
11/6/2021 4:00:00 AM 7 44.6 0.523 7.97 5.7 11.43
11/6/2021 4:15:00 AM 6.94 44.492 0.524 7.97 6.06 11.46
11/6/2021 4:30:00 AM 6.88 44.384 0.524 7.96 5.5 11.48
11/6/2021 4:45:00 AM 6.82 44.276 0.524 7.97 7.14 11.5
11/6/2021 5:00:00 AM 6.76 44.168 0.524 7.96 5.75 11.52
11/6/2021 5:15:00 AM 6.71 44.078 0.524 7.96 6.27 11.54
11/6/2021 5:30:00 AM 6.66 43.988 0.524 7.96 5.09 11.56
11/6/2021 5:45:00 AM 6.61 43.898 0.524 7.96 9.78 11.58
11/6/2021 6:00:00 AM 6.55 43.79 0.524 7.96 6.4 11.6
11/6/2021 6:15:00 AM 6.51 43.718 0.524 7.96 5.46 11.61
11/6/2021 6:30:00 AM 6.46 43.628 0.524 7.96 5.54 11.62
11/6/2021 6:45:00 AM 6.42 43.556 0.524 7.96 7.2 11.64
11/6/2021 7:00:00 AM 6.37 43.466 0.524 7.96 6.32 11.65
11/6/2021 7:15:00 AM 6.33 43.394 0.524 7.95 6.07 11.67
11/6/2021 7:30:00 AM 6.29 43.322 0.524 7.95 6.64 11.69
11/6/2021 7:45:00 AM 6.25 43.25 0.525 7.95 5.88 11.71
11/6/2021 8:00:00 AM 6.22 43.196 0.525 7.95 5.04 11.74
11/6/2021 8:15:00 AM 6.19 43.142 0.525 7.95 5.48 11.79
11/6/2021 8:30:00 AM 6.16 43.088 0.525 7.96 4.55 11.85
11/6/2021 8:45:00 AM 6.14 43.052 0.524 7.97 4.3 11.9
11/6/2021 9:00:00 AM 6.12 43.016 0.524 7.97 4.43 11.96
11/6/2021 9:15:00 AM 6.11 42.998 0.524 7.98 4.36 12.02
11/6/2021 9:30:00 AM 6.11 42.998 0.524 7.98 4.14 12.08
11/6/2021 9:45:00 AM 6.13 43.034 0.524 7.99 8.6 12.14
11/6/2021 10:00:00 AM 6.15 43.07 0.524 8 4.69 12.2
11/6/2021 10:15:00 AM 6.19 43.142 0.524 8 4.38 12.26
11/6/2021 10:30:00 AM 6.25 43.25 0.523 8.02 4.28 12.37
11/6/2021 10:45:00 AM 6.33 43.394 0.523 8.03 4.28 12.45
11/6/2021 11:00:00 AM 6.43 43.574 0.523 8.04 4.2 12.53
11/6/2021 11:15:00 AM 6.54 43.772 0.523 8.06 4.27 12.61
11/6/2021 11:30:00 AM 6.66 43.988 0.522 8.07 4.16 12.68
11/6/2021 11:45:00 AM 6.81 44.258 0.522 8.08 4.22 12.76
11/6/2021 12:00:00 PM 6.98 44.564 0.521 8.09 4.21 12.82
11/6/2021 12:15:00 PM 7.15 44.87 0.521 8.11 4.16 12.88
11/6/2021 12:30:00 PM 7.33 45.194 0.521 8.12 4.29 12.92
11/6/2021 12:45:00 PM 7.5 45.5 0.52 8.14 4.39 12.95
11/6/2021 1:00:00 PM 7.66 45.788 0.52 8.15 4.45 12.95
11/6/2021 1:15:00 PM 7.84 46.112 0.52 8.16 5.21 12.97
11/6/2021 1:30:00 PM 8.02 46.436 0.519 8.17 4.41 12.99
11/6/2021 1:45:00 PM 8.21 46.778 0.519 8.18 4.31 13.01
11/6/2021 2:00:00 PM 8.41 47.138 0.518 8.2 4.93 13.01
11/6/2021 2:15:00 PM 8.62 47.516 0.517 8.21 4.73 13
11/6/2021 2:30:00 PM 8.82 47.876 0.517 8.22 4.51 12.96
11/6/2021 2:45:00 PM 8.99 48.182 0.516 8.23 4.22 12.9
11/6/2021 3:00:00 PM 9.12 48.416 0.516 8.24 4.21 12.81
11/6/2021 3:15:00 PM 9.28 48.704 0.515 8.25 4.09 12.73
11/6/2021 3:30:00 PM 9.42 48.956 0.515 8.25 4.12 12.62
11/6/2021 3:45:00 PM 9.54 49.172 0.514 8.25 4.08 12.55
11/6/2021 4:00:00 PM 9.63 49.334 0.514 8.26 4.19 12.43
11/6/2021 4:15:00 PM 9.71 49.478 0.514 8.25 4.05 12.31
11/6/2021 4:30:00 PM 9.76 49.568 0.514 8.25 4.14 12.18
11/6/2021 4:45:00 PM 9.81 49.658 0.513 8.23 4.18 12.06
11/6/2021 5:00:00 PM 9.86 49.748 0.514 8.23 4.19 11.93
11/6/2021 5:15:00 PM 9.88 49.784 0.514 8.22 4.29 11.78
11/6/2021 5:30:00 PM 9.89 49.802 0.514 8.2 4.41 11.62
11/6/2021 5:45:00 PM 9.89 49.802 0.515 8.19 4.47 11.47
11/6/2021 6:00:00 PM 9.89 49.802 0.515 8.17 4.63 11.31
11/6/2021 6:15:00 PM 9.88 49.784 0.515 8.14 4.76 11.17
11/6/2021 6:30:00 PM 9.87 49.766 0.516 8.13 5.17 11.05
11/6/2021 6:45:00 PM 9.86 49.748 0.516 8.11 5.19 10.97
11/6/2021 7:00:00 PM 9.85 49.73 0.516 8.1 4.8 10.89
11/6/2021 7:15:00 PM 9.84 49.712 0.516 8.09 4.94 10.83
11/6/2021 7:30:00 PM 9.82 49.676 0.516 8.08 5.02 10.79
11/6/2021 7:45:00 PM 9.79 49.622 0.516 8.07 5.33 10.75
11/6/2021 8:00:00 PM 9.75 49.55 0.516 8.07 5.14 10.72
11/6/2021 8:15:00 PM 9.71 49.478 0.517 8.06 5.27 10.71
11/6/2021 8:30:00 PM 9.66 49.388 0.517 8.05 5.32 10.69
11/6/2021 8:45:00 PM 9.6 49.28 0.517 8.04 5.83 10.68
11/6/2021 9:00:00 PM 9.53 49.154 0.517 8.04 5.5 10.69
11/6/2021 9:15:00 PM 9.46 49.028 0.518 8.03 5.29 10.69
11/6/2021 9:30:00 PM 9.39 48.902 0.518 8.03 5.41 10.69
11/6/2021 9:45:00 PM 9.31 48.758 0.518 8.03 5.69 10.7
11/6/2021 10:00:00 PM 9.23 48.614 0.519 8.02 5.22 10.71
11/6/2021 10:15:00 PM 9.14 48.452 0.519 8.02 5.32 10.73
11/6/2021 10:30:00 PM 9.05 48.29 0.52 8.01 5.08 10.76
11/6/2021 10:45:00 PM 8.95 48.11 0.52 8.01 5.21 10.78
11/6/2021 11:00:00 PM 8.84 47.912 0.52 8.01 4.99 10.82
11/6/2021 11:15:00 PM 8.74 47.732 0.521 8 4.88 10.85
11/6/2021 11:30:00 PM 8.63 47.534 0.521 8 5.4 10.88
11/6/2021 11:45:00 PM 8.53 47.354 0.521 7.99 5.36 10.91
11/7/2021 12:00:00 AM 8.43 47.174 0.521 8 4.92 10.94
11/7/2021 12:15:00 AM 8.33 46.994 0.521 7.99 4.51 10.96
11/7/2021 12:30:00 AM 8.24 46.832 0.522 7.99 4.76 10.99
11/7/2021 12:45:00 AM 8.15 46.67 0.522 7.99 4.55 11.02
11/7/2021 1:00:00 AM 8.06 46.508 0.522 7.98 4.46 11.05
11/7/2021 1:15:00 AM 7.98 46.364 0.522 7.98 4.73 11.07
11/7/2021 1:30:00 AM 7.89 46.202 0.522 7.98 4.53 11.1
11/7/2021 1:45:00 AM 7.81 46.058 0.522 7.98 4.54 11.12
11/7/2021 2:00:00 AM 7.73 45.914 0.523 7.98 4.59 11.15
11/7/2021 2:15:00 AM 7.66 45.788 0.522 7.97 4.73 11.17
11/7/2021 2:30:00 AM 7.58 45.644 0.522 7.97 4.67 11.2
11/7/2021 2:45:00 AM 7.51 45.518 0.522 7.97 5.01 11.23
11/7/2021 3:00:00 AM 7.43 45.374 0.522 7.97 4.64 11.25
11/7/2021 3:15:00 AM 7.36 45.248 0.522 7.97 4.63 11.27
11/7/2021 3:30:00 AM 7.29 45.122 0.522 7.97 4.53 11.3
11/7/2021 3:45:00 AM 7.23 45.014 0.522 7.96 5.29 11.32
11/7/2021 4:00:00 AM 7.16 44.888 0.522 7.97 4.71 11.34
11/7/2021 4:15:00 AM 7.1 44.78 0.522 7.95 4.55 11.36
11/7/2021 4:30:00 AM 7.03 44.654 0.522 7.97 4.44 11.39
11/7/2021 4:45:00 AM 6.97 44.546 0.522 7.96 4.58 11.4
11/7/2021 5:00:00 AM 6.92 44.456 0.523 7.96 4.56 11.42
11/7/2021 5:15:00 AM 6.86 44.348 0.523 7.96 4.49 11.44
11/7/2021 5:30:00 AM 6.81 44.258 0.523 7.96 4.57 11.45
11/7/2021 5:45:00 AM 6.76 44.168 0.523 7.96 4.92 11.47
11/7/2021 6:00:00 AM 6.71 44.078 0.523 7.96 6.08 11.49
11/7/2021 6:15:00 AM 6.66 43.988 0.523 7.96 4.53 11.5
11/7/2021 6:30:00 AM 6.61 43.898 0.523 7.96 4.47 11.52
11/7/2021 6:45:00 AM 6.56 43.808 0.523 7.96 4.48 11.54
11/7/2021 7:00:00 AM 6.52 43.736 0.523 7.96 4.41 11.55
11/7/2021 7:15:00 AM 6.47 43.646 0.523 7.96 4.5 11.57
11/7/2021 7:30:00 AM 6.43 43.574 0.523 7.96 4.71 11.59
11/7/2021 7:45:00 AM 6.38 43.484 0.523 7.95 4.48 11.6
11/7/2021 8:00:00 AM 6.35 43.43 0.523 7.96 4.44 11.63
11/7/2021 8:15:00 AM 6.31 43.358 0.523 7.96 4.31 11.68
11/7/2021 8:30:00 AM 6.28 43.304 0.523 7.96 4.36 11.73
11/7/2021 8:45:00 AM 6.26 43.268 0.523 7.97 4.39 11.78
11/7/2021 9:00:00 AM 6.24 43.232 0.523 7.97 4.33 11.84
11/7/2021 9:15:00 AM 6.22 43.196 0.523 7.97 4.25 11.89
11/7/2021 9:30:00 AM 6.21 43.178 0.523 7.98 4.21 11.96
11/7/2021 9:45:00 AM 6.21 43.178 0.523 7.99 4.16 12.04
11/7/2021 10:00:00 AM 6.23 43.214 0.523 8 4.06 12.11
11/7/2021 10:15:00 AM 6.25 43.25 0.522 8.01 4.02 12.19
11/7/2021 10:30:00 AM 6.31 43.358 0.522 8.02 4.08 12.29
11/7/2021 10:45:00 AM 6.38 43.484 0.522 8.03 4.1 12.4
11/7/2021 11:00:00 AM 6.47 43.646 0.522 8.05 4.02 12.48
11/7/2021 11:15:00 AM 6.59 43.862 0.521 8.06 4.31 12.57
11/7/2021 11:30:00 AM 6.7 44.06 0.521 8.07 3.99 12.65
11/7/2021 11:45:00 AM 6.84 44.312 0.52 8.09 3.98 12.73
11/7/2021 12:00:00 PM 7 44.6 0.52 8.1 4.07 12.81
11/7/2021 12:15:00 PM 7.17 44.906 0.519 8.12 4.04 12.88
11/7/2021 12:30:00 PM 7.36 45.248 0.519 8.13 4 12.94
11/7/2021 12:45:00 PM 7.52 45.536 0.518 8.15 4.08 12.96
11/7/2021 1:00:00 PM 7.66 45.788 0.518 8.16 4.11 12.98
11/7/2021 1:15:00 PM 7.83 46.094 0.517 8.18 3.96 13.01
11/7/2021 1:30:00 PM 8 46.4 0.517 8.19 3.98 13.03
11/7/2021 1:45:00 PM 8.16 46.688 0.516 8.21 3.95 13.06
11/7/2021 2:00:00 PM 8.32 46.976 0.516 8.22 4.05 13.07
11/7/2021 2:15:00 PM 8.49 47.282 0.515 8.24 4.42 13.09
11/7/2021 2:30:00 PM 8.67 47.606 0.514 8.25 4.16 13.07
11/7/2021 2:45:00 PM 8.84 47.912 0.514 8.26 3.99 13.03
11/7/2021 3:00:00 PM 8.97 48.146 0.513 8.26 4.02 12.94
11/7/2021 3:15:00 PM 9.13 48.434 0.513 8.27 4 12.86
11/7/2021 3:30:00 PM 9.29 48.722 0.513 8.27 3.99 12.77
11/7/2021 3:45:00 PM 9.41 48.938 0.512 8.28 4.02 12.68
11/7/2021 4:00:00 PM 9.51 49.118 0.512 8.28 4.14 12.56
11/7/2021 4:15:00 PM 9.6 49.28 0.512 8.28 4.07 12.47
11/7/2021 4:30:00 PM 9.69 49.442 0.512 8.27 4.12 12.37
11/7/2021 4:45:00 PM 9.76 49.568 0.511 8.27 4.14 12.2
11/7/2021 5:00:00 PM 9.81 49.658 0.511 8.25 4.22 12.05
11/7/2021 5:15:00 PM 9.84 49.712 0.512 8.24 4.29 11.87
11/7/2021 5:30:00 PM 9.87 49.766 0.512 8.22 4.34 11.7
11/7/2021 5:45:00 PM 9.9 49.82 0.512 8.21 4.28 11.54
11/7/2021 6:00:00 PM 9.91 49.838 0.512 8.19 4.37 11.38
11/7/2021 6:15:00 PM 9.92 49.856 0.513 8.17 4.57 11.22
11/7/2021 6:30:00 PM 9.93 49.874 0.513 8.15 4.42 11.09
11/7/2021 6:45:00 PM 9.94 49.892 0.514 8.14 4.92 10.98
11/7/2021 7:00:00 PM 9.94 49.892 0.514 8.12 4.92 10.9
11/7/2021 7:15:00 PM 9.94 49.892 0.514 8.11 4.91 10.82
11/7/2021 7:30:00 PM 9.93 49.874 0.515 8.09 4.69 10.77
11/7/2021 7:45:00 PM 9.9 49.82 0.515 8.09 4.76 10.72
11/7/2021 8:00:00 PM 9.87 49.766 0.515 8.08 4.71 10.69
11/7/2021 8:15:00 PM 9.83 49.694 0.516 8.07 4.91 10.66
11/7/2021 8:30:00 PM 9.78 49.604 0.516 8.06 4.66 10.64
11/7/2021 8:45:00 PM 9.73 49.514 0.517 8.06 4.6 10.63
11/7/2021 9:00:00 PM 9.68 49.424 0.517 8.05 4.49 10.62
11/7/2021 9:15:00 PM 9.63 49.334 0.517 8.04 4.69 10.62
11/7/2021 9:30:00 PM 9.57 49.226 0.517 8.04 4.88 10.62
11/7/2021 9:45:00 PM 9.5 49.1 0.518 8.03 5.03 10.62
11/7/2021 10:00:00 PM 9.44 48.992 0.518 8.03 5.06 10.62
11/7/2021 10:15:00 PM 9.37 48.866 0.518 8.02 4.9 10.63
11/7/2021 10:30:00 PM 9.29 48.722 0.518 8.02 5.22 10.65
11/7/2021 10:45:00 PM 9.2 48.56 0.518 8.01 4.99 10.66
11/7/2021 11:00:00 PM 9.12 48.416 0.519 8.01 5.15 10.68
11/7/2021 11:15:00 PM 9.03 48.254 0.519 8 5.09 10.7
11/7/2021 11:30:00 PM 8.94 48.092 0.519 8 5.16 10.73
11/7/2021 11:45:00 PM 8.85 47.93 0.52 7.99 5.29 10.75
11/8/2021 12:00:00 AM 8.77 47.786 0.52 7.99 5.03 10.78
11/8/2021 12:15:00 AM 8.68 47.624 0.52 7.99 5.22 10.8
11/8/2021 12:30:00 AM 8.6 47.48 0.52 7.98 5.18 10.82
11/8/2021 12:45:00 AM 8.52 47.336 0.52 7.97 4.97 10.85
11/8/2021 1:00:00 AM 8.44 47.192 0.521 7.97 4.95 10.88
11/8/2021 1:15:00 AM 8.37 47.066 0.521 7.97 4.9 10.9
11/8/2021 1:30:00 AM 8.3 46.94 0.521 7.97 4.92 10.92
11/8/2021 1:45:00 AM 8.23 46.814 0.521 7.97 4.78 10.95
11/8/2021 2:00:00 AM 8.16 46.688 0.521 7.97 4.67 10.97
11/8/2021 2:15:00 AM 8.09 46.562 0.521 7.96 4.78 10.99
11/8/2021 2:30:00 AM 8.02 46.436 0.521 7.97 5.08 11.01
11/8/2021 2:45:00 AM 7.96 46.328 0.521 7.97 5.04 11.03
11/8/2021 3:00:00 AM 7.9 46.22 0.521 7.96 4.94 11.05
11/8/2021 3:15:00 AM 7.84 46.112 0.521 7.96 5.37 11.08
11/8/2021 3:30:00 AM 7.77 45.986 0.522 7.96 5.55 11.09
11/8/2021 3:45:00 AM 7.72 45.896 0.522 7.96 5.43 11.11
11/8/2021 4:00:00 AM 7.66 45.788 0.521 7.95 5.58 11.13
11/8/2021 4:15:00 AM 7.61 45.698 0.521 7.96 5.75 11.15
11/8/2021 4:30:00 AM 7.55 45.59 0.521 7.96 5.4 11.17
11/8/2021 4:45:00 AM 7.5 45.5 0.521 7.96 5.42 11.19
11/8/2021 5:00:00 AM 7.46 45.428 0.521 7.96 5.19 11.2
11/8/2021 5:15:00 AM 7.42 45.356 0.521 7.95 5.33 11.21
11/8/2021 5:30:00 AM 7.38 45.284 0.521 7.95 5.76 11.22
11/8/2021 5:45:00 AM 7.34 45.212 0.521 7.95 5.35 11.24
11/8/2021 6:00:00 AM 7.3 45.14 0.521 7.95 5.51 11.25
11/8/2021 6:15:00 AM 7.27 45.086 0.521 7.95 5.9 11.26
11/8/2021 6:30:00 AM 7.24 45.032 0.521 7.95 6.7 11.28
11/8/2021 6:45:00 AM 7.21 44.978 0.521 7.95 5.65 11.29
11/8/2021 7:00:00 AM 7.19 44.942 0.521 7.95 5.65 11.3
11/8/2021 7:15:00 AM 7.16 44.888 0.521 7.95 5.59 11.31
11/8/2021 7:30:00 AM 7.14 44.852 0.521 7.95 5.52 11.32
11/8/2021 7:45:00 AM 7.12 44.816 0.522 7.95 5.2 11.34
11/8/2021 8:00:00 AM 7.1 44.78 0.521 7.95 5.11 11.37
11/8/2021 8:15:00 AM 7.08 44.744 0.522 7.95 4.95 11.41
11/8/2021 8:30:00 AM 7.07 44.726 0.522 7.96 4.93 11.47
11/8/2021 8:45:00 AM 7.05 44.69 0.521 7.96 4.79 11.53
11/8/2021 9:00:00 AM 7.05 44.69 0.522 7.96 4.8 11.58
11/8/2021 9:15:00 AM 7.07 44.726 0.521 7.97 4.66 11.64
11/8/2021 9:30:00 AM 7.1 44.78 0.521 7.98 4.68 11.71
11/8/2021 9:45:00 AM 7.15 44.87 0.521 7.99 4.53 11.77
11/8/2021 10:00:00 AM 7.21 44.978 0.521 8 4.54 11.84
11/8/2021 10:15:00 AM 7.27 45.086 0.521 8.01 4.5 11.91
11/8/2021 10:30:00 AM 7.37 45.266 0.52 8.02 4.52 12.01
11/8/2021 10:45:00 AM 7.47 45.446 0.52 8.04 4.47 12.11
11/8/2021 11:00:00 AM 7.59 45.662 0.52 8.05 4.52 12.2
11/8/2021 11:15:00 AM 7.72 45.896 0.519 8.07 4.46 12.28
11/8/2021 11:30:00 AM 7.86 46.148 0.519 8.08 4.61 12.37
11/8/2021 11:45:00 AM 8 46.4 0.518 8.1 4.68 12.45
11/8/2021 12:00:00 PM 8.16 46.688 0.518 8.12 4.91 12.53
11/8/2021 12:15:00 PM 8.34 47.012 0.517 8.13 4.59 12.6
11/8/2021 12:30:00 PM 8.53 47.354 0.517 8.15 4.71 12.68
11/8/2021 12:45:00 PM 8.71 47.678 0.516 8.17 4.78 12.72
11/8/2021 1:00:00 PM 8.88 47.984 0.516 8.18 4.92 12.74
11/8/2021 1:15:00 PM 9.07 48.326 0.516 8.19 5.13 12.77
11/8/2021 1:30:00 PM 9.26 48.668 0.515 8.21 5.21 12.78
11/8/2021 1:45:00 PM 9.47 49.046 0.514 8.22 5.24 12.82
11/8/2021 2:00:00 PM 9.68 49.424 0.514 8.24 4.97 12.82
11/8/2021 2:15:00 PM 9.9 49.82 0.513 8.25 4.79 12.82
11/8/2021 2:30:00 PM 10.11 50.198 0.513 8.26 4.79 12.78
11/8/2021 2:45:00 PM 10.3 50.54 0.512 8.27 4.71 12.72
11/8/2021 3:00:00 PM 10.45 50.81 0.512 8.28 4.75 12.6
11/8/2021 3:15:00 PM 10.62 51.116 0.511 8.28 4.65 12.51
11/8/2021 3:30:00 PM 10.78 51.404 0.511 8.29 4.59 12.39
11/8/2021 3:45:00 PM 10.91 51.638 0.511 8.29 8.26 12.29
11/8/2021 4:00:00 PM 11.02 51.836 0.511 8.29 5.45 12.16
11/8/2021 4:15:00 PM 11.11 51.998 0.51 8.28 4.43 12.03
11/8/2021 4:30:00 PM 11.18 52.124 0.51 8.27 4.48 11.87
11/8/2021 4:45:00 PM 11.24 52.232 0.51 8.26 4.47 11.72
11/8/2021 5:00:00 PM 11.29 52.322 0.511 8.25 5.92 11.58
11/8/2021 5:15:00 PM 11.33 52.394 0.511 8.24 6.4 11.4
11/8/2021 5:30:00 PM 11.35 52.43 0.511 8.22 5.73 11.23
11/8/2021 5:45:00 PM 11.36 52.448 0.511 8.2 7.74 11.06
11/8/2021 6:00:00 PM 11.37 52.466 0.512 8.18 6.4 10.88
11/8/2021 6:15:00 PM 11.37 52.466 0.512 8.16 6.01 10.74
11/8/2021 6:30:00 PM 11.37 52.466 0.512 8.14 5.57 10.62
11/8/2021 6:45:00 PM 11.37 52.466 0.513 8.12 4.36 10.52
11/8/2021 7:00:00 PM 11.37 52.466 0.513 8.11 4.73 10.45
11/8/2021 7:15:00 PM 11.37 52.466 0.513 8.1 4.43 10.38
11/8/2021 7:30:00 PM 11.36 52.448 0.513 8.09 4.04 10.33
11/8/2021 7:45:00 PM 11.34 52.412 0.514 8.08 3.78 10.29
11/8/2021 8:00:00 PM 11.32 52.376 0.514 8.07 3.66 10.26
11/8/2021 8:15:00 PM 11.28 52.304 0.514 8.06 3.67 10.23
11/8/2021 8:30:00 PM 11.24 52.232 0.514 8.05 3.87 10.22
11/8/2021 8:45:00 PM 11.19 52.142 0.515 8.05 3.77 10.21
11/8/2021 9:00:00 PM 11.14 52.052 0.515 8.03 3.8 10.2
11/8/2021 9:15:00 PM 11.08 51.944 0.516 8.03 3.94 10.2
11/8/2021 9:30:00 PM 11.01 51.818 0.516 8.03 3.94 10.2
11/8/2021 9:45:00 PM 10.94 51.692 0.516 8.02 4.02 10.21
11/8/2021 10:00:00 PM 10.87 51.566 0.517 8.01 4.16 10.21
11/8/2021 10:15:00 PM 10.79 51.422 0.517 8.01 4.09 10.24
11/8/2021 10:30:00 PM 10.71 51.278 0.518 8.01 4.03 10.25
11/8/2021 10:45:00 PM 10.62 51.116 0.518 8.01 3.9 10.27
11/8/2021 11:00:00 PM 10.52 50.936 0.519 8 3.95 10.29
11/8/2021 11:15:00 PM 10.43 50.774 0.519 8 3.95 10.32
11/8/2021 11:30:00 PM 10.33 50.594 0.52 7.99 3.94 10.34
11/8/2021 11:45:00 PM 10.23 50.414 0.52 7.99 3.9 10.37
11/9/2021 12:00:00 AM 10.13 50.234 0.52 7.99 4.1 10.41
11/9/2021 12:15:00 AM 10.03 50.054 0.52 7.98 4.02 10.42
11/9/2021 12:30:00 AM 9.93 49.874 0.52 7.98 4.19 10.45
11/9/2021 12:45:00 AM 9.84 49.712 0.52 7.98 4.02 10.48
11/9/2021 1:00:00 AM 9.75 49.55 0.521 7.98 4.15 10.51
11/9/2021 1:15:00 AM 9.67 49.406 0.521 7.97 3.94 10.53
11/9/2021 1:30:00 AM 9.58 49.244 0.521 7.97 5.69 10.56
11/9/2021 1:45:00 AM 9.5 49.1 0.521 7.97 4.62 10.59
11/9/2021 2:00:00 AM 9.42 48.956 0.521 7.97 5.1 10.6
11/9/2021 2:15:00 AM 9.34 48.812 0.521 7.97 4.39 10.64
11/9/2021 2:30:00 AM 9.26 48.668 0.521 7.97 6.26 10.66
11/9/2021 2:45:00 AM 9.18 48.524 0.521 7.96 4.86 10.69
11/9/2021 3:00:00 AM 9.1 48.38 0.521 7.96 4.6 10.71
11/9/2021 3:15:00 AM 9.03 48.254 0.521 7.96 5.13 10.73
11/9/2021 3:30:00 AM 8.96 48.128 0.521 7.96 4.88 10.76
11/9/2021 3:45:00 AM 8.89 48.002 0.522 7.96 4.84 10.77
11/9/2021 4:00:00 AM 8.83 47.894 0.521 7.96 4.63 10.8
11/9/2021 4:15:00 AM 8.77 47.786 0.521 7.96 4.77 10.82
11/9/2021 4:30:00 AM 8.71 47.678 0.521 7.96 4.86 10.84
11/9/2021 4:45:00 AM 8.65 47.57 0.521 7.96 5.26 10.85
11/9/2021 5:00:00 AM 8.6 47.48 0.521 7.96 5.95 10.88
11/9/2021 5:15:00 AM 8.55 47.39 0.521 7.96 6.01 10.89
11/9/2021 5:30:00 AM 8.49 47.282 0.521 7.96 5.62 10.91
11/9/2021 5:45:00 AM 8.44 47.192 0.521 7.96 6.32 10.93
11/9/2021 6:00:00 AM 8.39 47.102 0.521 7.96 5.26 10.94
11/9/2021 6:15:00 AM 8.35 47.03 0.521 7.96 4.88 10.96
11/9/2021 6:30:00 AM 8.3 46.94 0.521 7.96 5.23 10.97
11/9/2021 6:45:00 AM 8.25 46.85 0.522 7.95 5.4 10.98
11/9/2021 7:00:00 AM 8.21 46.778 0.522 7.95 5.11 10.99
11/9/2021 7:15:00 AM 8.17 46.706 0.522 7.95 4.96 11.02
11/9/2021 7:30:00 AM 8.13 46.634 0.522 7.95 4.99 11.03
11/9/2021 7:45:00 AM 8.1 46.58 0.522 7.95 5.24 11.05
11/9/2021 8:00:00 AM 8.07 46.526 0.522 7.96 4.97 11.07
11/9/2021 8:15:00 AM 8.04 46.472 0.522 7.96 4.33 11.13
11/9/2021 8:30:00 AM 8.02 46.436 0.522 7.96 4.33 11.18
11/9/2021 8:45:00 AM 8 46.4 0.522 7.97 4.23 11.25
11/9/2021 9:00:00 AM 7.99 46.382 0.522 7.97 4.2 11.32
11/9/2021 9:15:00 AM 7.99 46.382 0.522 7.97 4.11 11.39
11/9/2021 9:30:00 AM 7.99 46.382 0.522 7.99 4.07 11.47
11/9/2021 9:45:00 AM 8 46.4 0.522 7.99 3.96 11.54
11/9/2021 10:00:00 AM 8.03 46.454 0.522 8 4.11 11.62
11/9/2021 10:15:00 AM 8.06 46.508 0.522 8.01 3.98 11.69
11/9/2021 10:30:00 AM 8.13 46.634 0.521 8.02 3.98 11.81
11/9/2021 10:45:00 AM 8.21 46.778 0.521 8.04 3.98 11.92
11/9/2021 11:00:00 AM 8.32 46.976 0.521 8.06 3.97 12.03
11/9/2021 11:15:00 AM 8.45 47.21 0.52 8.07 3.8 12.13
11/9/2021 11:30:00 AM 8.59 47.462 0.52 8.09 3.92 12.23
11/9/2021 11:45:00 AM 8.74 47.732 0.519 8.11 4.04 12.33
11/9/2021 12:00:00 PM 8.9 48.02 0.519 8.13 3.87 12.41
11/9/2021 12:15:00 PM 9.09 48.362 0.518 8.14 3.8 12.49
11/9/2021 12:30:00 PM 9.28 48.704 0.518 8.17 3.78 12.57
11/9/2021 12:45:00 PM 9.46 49.028 0.517 8.18 3.84 12.62
11/9/2021 1:00:00 PM 9.64 49.352 0.517 8.19 3.72 12.66
11/9/2021 1:15:00 PM 9.82 49.676 0.516 8.2 3.71 12.69
11/9/2021 1:30:00 PM 10 50 0.516 8.22 3.68 12.73
11/9/2021 1:45:00 PM 10.19 50.342 0.515 8.24 3.8 12.74
11/9/2021 2:00:00 PM 10.39 50.702 0.514 8.25 3.74 12.77
11/9/2021 2:15:00 PM 10.59 51.062 0.514 8.27 3.74 12.77
11/9/2021 2:30:00 PM 10.77 51.386 0.513 8.28 3.76 12.74
11/9/2021 2:45:00 PM 10.94 51.692 0.513 8.29 3.65 12.68
11/9/2021 3:00:00 PM 11.08 51.944 0.512 8.3 3.96 12.56
11/9/2021 3:15:00 PM 11.24 52.232 0.512 8.3 3.64 12.48
11/9/2021 3:30:00 PM 11.39 52.502 0.511 8.31 3.66 12.37
11/9/2021 3:45:00 PM 11.51 52.718 0.511 8.31 3.71 12.25
11/9/2021 4:00:00 PM 11.62 52.916 0.51 8.31 3.88 12.13
11/9/2021 4:15:00 PM 11.71 53.078 0.51 8.3 3.88 11.99
11/9/2021 4:30:00 PM 11.78 53.204 0.51 8.29 3.96 11.82
11/9/2021 4:45:00 PM 11.83 53.294 0.51 8.28 4.18 11.67
11/9/2021 5:00:00 PM 11.88 53.384 0.51 8.27 4.31 11.49
11/9/2021 5:15:00 PM 11.91 53.438 0.511 8.25 4.88 11.32
11/9/2021 5:30:00 PM 11.93 53.474 0.511 8.23 4.98 11.13
11/9/2021 5:45:00 PM 11.94 53.492 0.512 8.21 4.89 10.92
11/9/2021 6:00:00 PM 11.94 53.492 0.513 8.18 4.53 10.74
11/9/2021 6:15:00 PM 11.94 53.492 0.513 8.16 5 10.57
11/9/2021 6:30:00 PM 11.95 53.51 0.514 8.14 4.27 10.44
11/9/2021 6:45:00 PM 11.96 53.528 0.514 8.13 4.17 10.35
11/9/2021 7:00:00 PM 11.96 53.528 0.515 8.11 4.2 10.26
11/9/2021 7:15:00 PM 11.97 53.546 0.515 8.1 4.29 10.19
11/9/2021 7:30:00 PM 11.98 53.564 0.515 8.08 4.07 10.14
11/9/2021 7:45:00 PM 11.98 53.564 0.515 8.08 4.26 10.08
11/9/2021 8:00:00 PM 11.98 53.564 0.515 8.07 4.87 10.05
11/9/2021 8:15:00 PM 11.98 53.564 0.515 8.06 5.08 10.01
11/9/2021 8:30:00 PM 11.97 53.546 0.516 8.05 5.45 10
11/9/2021 8:45:00 PM 11.95 53.51 0.516 8.04 5.95 9.97
11/9/2021 9:00:00 PM 11.92 53.456 0.517 8.03 6.24 9.95
11/9/2021 9:15:00 PM 11.89 53.402 0.517 8.02 5.2 9.94
11/9/2021 9:30:00 PM 11.85 53.33 0.517 8.02 5.25 9.93
11/9/2021 9:45:00 PM 11.8 53.24 0.518 8.01 5.2 9.94
11/9/2021 10:00:00 PM 11.75 53.15 0.518 8.01 5.28 9.95
11/9/2021 10:15:00 PM 11.69 53.042 0.518 7.99 5.28 9.95
11/9/2021 10:30:00 PM 11.63 52.934 0.518 8 5.65 9.96
11/9/2021 10:45:00 PM 11.56 52.808 0.518 7.99 5.83 9.96
11/9/2021 11:00:00 PM 11.49 52.682 0.519 7.99 5.22 9.99
11/9/2021 11:15:00 PM 11.43 52.574 0.519 7.99 5.07 10
11/9/2021 11:30:00 PM 11.36 52.448 0.52 7.98 6.2 10.02
11/9/2021 11:45:00 PM 11.29 52.322 0.52 7.98 4.88 10.03
11/10/2021 12:00:00 AM 11.21 52.178 0.52 7.97 5.5 10.05
11/10/2021 12:15:00 AM 11.13 52.034 0.521 7.97 5.11 10.06
11/10/2021 12:30:00 AM 11.06 51.908 0.521 7.97 6.29 10.09
11/10/2021 12:45:00 AM 10.99 51.782 0.521 7.96 10.57 10.11
11/10/2021 1:00:00 AM 10.94 51.692 0.521 7.96 9.52 10.12
11/10/2021 1:15:00 AM 10.88 51.584 0.521 7.96 10.76 10.14
11/10/2021 1:30:00 AM 10.82 51.476 0.521 7.96 6.35 10.16
11/10/2021 1:45:00 AM 10.77 51.386 0.521 7.95 6.56 10.17
11/10/2021 2:00:00 AM 10.72 51.296 0.521 7.95 6.39 10.19
11/10/2021 2:15:00 AM 10.67 51.206 0.521 7.95 6.33 10.19
11/10/2021 2:30:00 AM 10.62 51.116 0.522 7.95 6.46 10.21
11/10/2021 2:45:00 AM 10.58 51.044 0.522 7.95 6.24 10.22
11/10/2021 3:00:00 AM 10.55 50.99 0.522 7.94 5.93 10.24
11/10/2021 3:15:00 AM 10.52 50.936 0.522 7.95 6.2 10.25
11/10/2021 3:30:00 AM 10.49 50.882 0.521 7.95 6.24 10.26
11/10/2021 3:45:00 AM 10.46 50.828 0.521 7.94 5.69 10.28
11/10/2021 4:00:00 AM 10.44 50.792 0.521 7.95 6.47 10.29
11/10/2021 4:15:00 AM 10.41 50.738 0.521 7.94 6.98 10.3
11/10/2021 4:30:00 AM 10.38 50.684 0.521 7.94 8.68 10.31
11/10/2021 4:45:00 AM 10.37 50.666 0.521 7.94 6.26 10.31
11/10/2021 5:00:00 AM 10.36 50.648 0.521 7.94 6.56 10.31
11/10/2021 5:15:00 AM 10.34 50.612 0.521 7.94 7.72 10.32
11/10/2021 5:30:00 AM 10.32 50.576 0.521 7.94 5.84 10.32
11/10/2021 5:45:00 AM 10.3 50.54 0.521 7.94 5.38 10.33
11/10/2021 6:00:00 AM 10.29 50.522 0.521 7.93 5.71 10.34
11/10/2021 6:15:00 AM 10.27 50.486 0.521 7.94 5.4 10.34
11/10/2021 6:30:00 AM 10.25 50.45 0.521 7.94 5.43 10.33
11/10/2021 6:45:00 AM 10.24 50.432 0.521 7.94 5.93 10.36
11/10/2021 7:00:00 AM 10.23 50.414 0.521 7.94 5.75 10.36
11/10/2021 7:15:00 AM 10.2 50.36 0.521 7.94 5.99 10.37
11/10/2021 7:30:00 AM 10.18 50.324 0.521 7.94 5.19 10.37
11/10/2021 7:45:00 AM 10.16 50.288 0.522 7.94 4.72 10.39
11/10/2021 8:00:00 AM 10.14 50.252 0.522 7.94 5.36 10.4
11/10/2021 8:15:00 AM 10.13 50.234 0.522 7.94 5.09 10.45
11/10/2021 8:30:00 AM 10.13 50.234 0.521 7.96 5.24 10.51
11/10/2021 8:45:00 AM 10.14 50.252 0.521 7.96 4.58 10.58
11/10/2021 9:00:00 AM 10.16 50.288 0.521 7.97 4.57 10.65
11/10/2021 9:15:00 AM 10.18 50.324 0.521 7.98 4.61 10.74
11/10/2021 9:30:00 AM 10.21 50.378 0.521 7.99 4.5 10.83
11/10/2021 9:45:00 AM 10.25 50.45 0.521 8 4.47 10.9
11/10/2021 10:00:00 AM 10.3 50.54 0.52 8.02 4.42 10.97
11/10/2021 10:15:00 AM 10.35 50.63 0.52 8.03 4.49 11.07
11/10/2021 10:30:00 AM 10.42 50.756 0.52 8.05 4.33 11.23
11/10/2021 10:45:00 AM 10.51 50.918 0.519 8.07 4.29 11.4
11/10/2021 11:00:00 AM 10.6 51.08 0.519 8.08 4.2 11.53
11/10/2021 11:15:00 AM 10.68 51.224 0.519 8.1 4.18 11.65
11/10/2021 11:30:00 AM 10.77 51.386 0.518 8.11 4.33 11.73
11/10/2021 11:45:00 AM 10.86 51.548 0.518 8.13 4.29 11.83
11/10/2021 12:00:00 PM 10.96 51.728 0.517 8.14 4.38 11.92
11/10/2021 12:15:00 PM 11.08 51.944 0.517 8.16 5.3 12.02
11/10/2021 12:30:00 PM 11.21 52.178 0.516 8.18 4.64 12.11
11/10/2021 12:45:00 PM 11.34 52.412 0.516 8.2 5.45 12.18
11/10/2021 1:00:00 PM 11.45 52.61 0.515 8.21 6.67 12.23
11/10/2021 1:15:00 PM 11.57 52.826 0.515 8.23 6.27 12.28
11/10/2021 1:30:00 PM 11.7 53.06 0.514 8.24 6.14 12.33
11/10/2021 1:45:00 PM 11.84 53.312 0.514 8.26 5.88 12.36
11/10/2021 2:00:00 PM 11.97 53.546 0.513 8.27 6.23 12.41
11/10/2021 2:15:00 PM 12.12 53.816 0.512 8.29 5.82 12.42
11/10/2021 2:30:00 PM 12.26 54.068 0.512 8.3 5.63 12.41
11/10/2021 2:45:00 PM 12.38 54.284 0.511 8.31 5.23 12.36
11/10/2021 3:00:00 PM 12.46 54.428 0.511 8.32 5.76 12.24
11/10/2021 3:15:00 PM 12.55 54.59 0.51 8.32 4.66 12.16
11/10/2021 3:30:00 PM 12.62 54.716 0.51 8.32 5.64 12.06
11/10/2021 3:45:00 PM 12.69 54.842 0.51 8.32 4.67 11.93
11/10/2021 4:00:00 PM 12.74 54.932 0.509 8.32 4.9 11.83
11/10/2021 4:15:00 PM 12.76 54.968 0.509 8.32 4.86 11.7
11/10/2021 4:30:00 PM 12.77 54.986 0.509 8.31 5.85 11.53
11/10/2021 4:45:00 PM 12.77 54.986 0.509 8.29 5.74 11.38
11/10/2021 5:00:00 PM 12.76 54.968 0.509 8.28 5.36 11.23
11/10/2021 5:15:00 PM 12.73 54.914 0.51 8.27 5.12 11.07
11/10/2021 5:30:00 PM 12.7 54.86 0.51 8.24 5.5 10.9
11/10/2021 5:45:00 PM 12.66 54.788 0.511 8.22 4.79 10.73
11/10/2021 6:00:00 PM 12.61 54.698 0.511 8.2 5.26 10.57
11/10/2021 6:15:00 PM 12.57 54.626 0.512 8.18 6.46 10.42
11/10/2021 6:30:00 PM 12.53 54.554 0.512 8.16 5.03 10.3
11/10/2021 6:45:00 PM 12.49 54.482 0.512 8.14 5.35 10.21
11/10/2021 7:00:00 PM 12.45 54.41 0.513 8.12 7.53 10.14
11/10/2021 7:15:00 PM 12.41 54.338 0.513 8.11 5.9 10.08
11/10/2021 7:30:00 PM 12.37 54.266 0.513 8.1 5.21 10.04
11/10/2021 7:45:00 PM 12.31 54.158 0.513 8.09 5.82 10
11/10/2021 8:00:00 PM 12.26 54.068 0.514 8.07 5.82 9.98
11/10/2021 8:15:00 PM 12.19 53.942 0.515 8.06 5.42 9.96
11/10/2021 8:30:00 PM 12.12 53.816 0.515 8.06 5.47 9.95
11/10/2021 8:45:00 PM 12.04 53.672 0.516 8.05 5.43 9.96
11/10/2021 9:00:00 PM 11.96 53.528 0.516 8.04 6.67 9.95
11/10/2021 9:15:00 PM 11.87 53.366 0.517 8.04 9.73 9.96
11/10/2021 9:30:00 PM 11.78 53.204 0.517 8.01 7.75 9.96
11/10/2021 9:45:00 PM 11.68 53.024 0.518 8.03 5.44 9.99
11/10/2021 10:00:00 PM 11.58 52.844 0.518 8.02 6.26 10.01
11/10/2021 10:15:00 PM 11.47 52.646 0.518 8.01 4.95 10.03
11/10/2021 10:30:00 PM 11.36 52.448 0.519 8.01 7.61 10.05
11/10/2021 10:45:00 PM 11.25 52.25 0.52 8.01 6.51 10.09
11/10/2021 11:00:00 PM 11.13 52.034 0.52 8 5.01 10.11
11/10/2021 11:15:00 PM 11.01 51.818 0.521 8 6.06 10.14
11/10/2021 11:30:00 PM 10.88 51.584 0.521 8 5.22 10.17
11/10/2021 11:45:00 PM 10.75 51.35 0.522 7.99 5.82 10.21
11/11/2021 12:00:00 AM 10.63 51.134 0.522 7.98 5.1 10.24
11/11/2021 12:15:00 AM 10.51 50.918 0.523 7.98 7.09 10.27
11/11/2021 12:30:00 AM 10.39 50.702 0.523 7.98 7.17 10.31
11/11/2021 12:45:00 AM 10.27 50.486 0.523 7.98 5.82 10.34
11/11/2021 1:00:00 AM 10.17 50.306 0.523 7.97 4.65 10.37
11/11/2021 1:15:00 AM 10.06 50.108 0.523 7.97 4.65 10.4
11/11/2021 1:30:00 AM 9.96 49.928 0.523 7.97 5.14 10.43
11/11/2021 1:45:00 AM 9.87 49.766 0.524 7.97 5.1 10.46
11/11/2021 2:00:00 AM 9.77 49.586 0.524 7.97 5.94 10.49
11/11/2021 2:15:00 AM 9.71 49.478 0.524 7.96 5.6 10.52
11/11/2021 2:30:00 AM 9.66 49.388 0.524 7.96 5.64 10.54
11/11/2021 2:45:00 AM 9.61 49.298 0.524 7.96 5.33 10.57
11/11/2021 3:00:00 AM 9.57 49.226 0.524 7.96 4.94 10.59
11/11/2021 3:15:00 AM 9.53 49.154 0.524 7.95 5.6 10.61
11/11/2021 3:30:00 AM 9.49 49.082 0.524 7.96 6.55 10.62
11/11/2021 3:45:00 AM 9.46 49.028 0.524 7.96 5.43 10.64
11/11/2021 4:00:00 AM 9.43 48.974 0.524 7.94 6.19 10.66
11/11/2021 4:15:00 AM 9.41 48.938 0.524 7.96 4.82 10.66
11/11/2021 4:30:00 AM 9.38 48.884 0.524 7.96 5.44 10.68
11/11/2021 4:45:00 AM 9.35 48.83 0.524 7.95 5.18 10.69
11/11/2021 5:00:00 AM 9.3 48.74 0.524 7.96 5.46 10.7
11/11/2021 5:15:00 AM 9.24 48.632 0.524 7.95 4.81 10.72
11/11/2021 5:30:00 AM 9.19 48.542 0.524 7.95 5.36 10.74
11/11/2021 5:45:00 AM 9.14 48.452 0.524 7.95 5.88 10.75
11/11/2021 6:00:00 AM 9.09 48.362 0.524 7.95 6.05 10.77
11/11/2021 6:15:00 AM 9.04 48.272 0.524 7.95 5.97 10.78
11/11/2021 6:30:00 AM 8.98 48.164 0.524 7.95 5.83 10.79
11/11/2021 6:45:00 AM 8.93 48.074 0.524 7.95 5.38 10.81
11/11/2021 7:00:00 AM 8.88 47.984 0.524 7.95 4.97 10.82
11/11/2021 7:15:00 AM 8.82 47.876 0.524 7.95 4.76 10.84
11/11/2021 7:30:00 AM 8.77 47.786 0.525 7.95 5.31 10.85
11/11/2021 7:45:00 AM 8.73 47.714 0.525 7.95 5.21 10.87
11/11/2021 8:00:00 AM 8.68 47.624 0.525 7.95 5.16 10.9
11/11/2021 8:15:00 AM 8.65 47.57 0.525 7.96 4.97 10.94
11/11/2021 8:30:00 AM 8.63 47.534 0.525 7.96 6.21 11
11/11/2021 8:45:00 AM 8.61 47.498 0.525 7.97 3.87 11.09
11/11/2021 9:00:00 AM 8.6 47.48 0.525 7.98 5.12 11.17
11/11/2021 9:15:00 AM 8.61 47.498 0.524 7.99 4.95 11.28
11/11/2021 9:30:00 AM 8.65 47.57 0.524 8 4.83 11.43
11/11/2021 9:45:00 AM 8.7 47.66 0.524 8.02 4.89 11.57
11/11/2021 10:00:00 AM 8.76 47.768 0.524 8.03 4.93 11.65
11/11/2021 10:15:00 AM 8.82 47.876 0.523 8.05 4.95 11.73
11/11/2021 10:30:00 AM 8.89 48.002 0.523 8.06 4.83 11.82
11/11/2021 10:45:00 AM 8.98 48.164 0.523 8.08 4.86 11.94
11/11/2021 11:00:00 AM 9.08 48.344 0.522 8.1 4.87 12.11
11/11/2021 11:15:00 AM 9.24 48.632 0.521 8.13 5.23 12.33
11/11/2021 11:30:00 AM 9.38 48.884 0.521 8.15 4.94 12.5
11/11/2021 11:45:00 AM 9.5 49.1 0.52 8.17 5.27 12.63
11/11/2021 12:00:00 PM 9.62 49.316 0.519 8.19 4.7 12.73
11/11/2021 12:15:00 PM 9.74 49.532 0.519 8.22 4.95 12.83
11/11/2021 12:30:00 PM 9.89 49.802 0.518 8.24 4.82 12.95
11/11/2021 12:45:00 PM 10.02 50.036 0.517 8.26 4.88 13.03
11/11/2021 1:00:00 PM 10.17 50.306 0.517 8.28 4.71 13.1
11/11/2021 1:15:00 PM 10.26 50.468 0.516 8.29 5.34 13.11
11/11/2021 1:30:00 PM 10.41 50.738 0.516 8.31 4.35 13.18
11/11/2021 1:45:00 PM 10.51 50.918 0.515 8.32 5 13.16
11/11/2021 2:00:00 PM 10.6 51.08 0.514 8.33 5.22 13.13
11/11/2021 2:15:00 PM 10.69 51.242 0.514 8.34 5.41 13.14
11/11/2021 2:30:00 PM 10.8 51.44 0.513 8.35 5.07 13.12
11/11/2021 2:45:00 PM 10.86 51.548 0.513 8.36 4.68 13.01
11/11/2021 3:00:00 PM 10.94 51.692 0.513 8.36 4.7 12.91
11/11/2021 3:15:00 PM 11.02 51.836 0.512 8.36 5.08 12.84
11/11/2021 3:30:00 PM 11.1 51.98 0.512 8.36 4.44 12.69
11/11/2021 3:45:00 PM 11.19 52.142 0.511 8.37 4.55 12.65
11/11/2021 4:00:00 PM 11.28 52.304 0.511 8.37 4.47 12.58
11/11/2021 4:15:00 PM 11.36 52.448 0.51 8.37 4.51 12.48
11/11/2021 4:30:00 PM 11.44 52.592 0.51 8.36 4.94 12.37
11/11/2021 4:45:00 PM 11.48 52.664 0.51 8.35 4.85 12.15
11/11/2021 5:00:00 PM 11.53 52.754 0.511 8.33 5.02 11.95
11/11/2021 5:15:00 PM 11.57 52.826 0.511 8.32 4.97 11.78
11/11/2021 5:30:00 PM 11.61 52.898 0.511 8.3 5.4 11.56
11/11/2021 5:45:00 PM 11.63 52.934 0.511 8.28 4.91 11.35
11/11/2021 6:00:00 PM 11.64 52.952 0.512 8.25 4.87 11.16
11/11/2021 6:15:00 PM 11.64 52.952 0.512 8.24 6.8 10.97
11/11/2021 6:30:00 PM 11.63 52.934 0.513 8.21 5.44 10.82
11/11/2021 6:45:00 PM 11.62 52.916 0.513 8.19 5.49 10.68
11/11/2021 7:00:00 PM 11.61 52.898 0.514 8.17 4.54 10.56
11/11/2021 7:15:00 PM 11.61 52.898 0.514 8.14 4.47 10.46
11/11/2021 7:30:00 PM 11.63 52.934 0.515 8.13 4.61 10.38
11/11/2021 7:45:00 PM 11.67 53.006 0.515 8.1 4.82 10.3
11/11/2021 8:00:00 PM 11.7 53.06 0.516 8.1 4.5 10.24
11/11/2021 8:15:00 PM 11.73 53.114 0.516 8.09 4.92 10.19
11/11/2021 8:30:00 PM 11.76 53.168 0.517 8.07 4.53 10.15
11/11/2021 8:45:00 PM 11.78 53.204 0.517 8.07 4.61 10.1
11/11/2021 9:00:00 PM 11.8 53.24 0.518 8.06 4.49 10.07
11/11/2021 9:15:00 PM 11.81 53.258 0.518 8.05 4.51 10.03
11/11/2021 9:30:00 PM 11.8 53.24 0.519 8.04 4.48 10.02
11/11/2021 9:45:00 PM 11.79 53.222 0.519 8.04 4.57 10
11/11/2021 10:00:00 PM 11.78 53.204 0.519 8.03 4.72 9.99
11/11/2021 10:15:00 PM 11.77 53.186 0.52 8.02 4.52 9.97
11/11/2021 10:30:00 PM 11.77 53.186 0.52 8.02 4.61 9.96
11/11/2021 10:45:00 PM 11.77 53.186 0.521 8.01 5.52 9.94
11/11/2021 11:00:00 PM 11.77 53.186 0.521 8.01 4.75 9.94
11/11/2021 11:15:00 PM 11.76 53.168 0.522 8 4.76 9.93
11/11/2021 11:30:00 PM 11.75 53.15 0.522 7.99 4.6 9.91
11/11/2021 11:45:00 PM 11.73 53.114 0.523 7.99 4.63 9.92
11/12/2021 12:00:00 AM 11.7 53.06 0.523 7.99 5.56 9.92
11/12/2021 12:15:00 AM 11.67 53.006 0.523 7.99 4.83 9.92
11/12/2021 12:30:00 AM 11.66 52.988 0.523 7.98 4.9 9.92
11/12/2021 12:45:00 AM 11.65 52.97 0.524 7.98 4.94 9.93
11/12/2021 1:00:00 AM 11.65 52.97 0.524 7.97 4.76 9.92
11/12/2021 1:15:00 AM 11.64 52.952 0.524 7.97 4.89 9.92
11/12/2021 1:30:00 AM 11.63 52.934 0.524 7.97 5.07 9.92
11/12/2021 1:45:00 AM 11.63 52.934 0.524 7.96 5.49 9.92
11/12/2021 2:00:00 AM 11.64 52.952 0.524 7.97 5.28 9.92
11/12/2021 2:15:00 AM 11.63 52.934 0.524 7.96 5.04 9.91
11/12/2021 2:30:00 AM 11.62 52.916 0.524 7.96 5.23 9.91
11/12/2021 2:45:00 AM 11.62 52.916 0.524 7.96 4.78 9.91
11/12/2021 3:00:00 AM 11.63 52.934 0.524 7.96 4.87 9.9
11/12/2021 3:15:00 AM 11.64 52.952 0.524 7.96 5.35 9.9
11/12/2021 3:30:00 AM 11.65 52.97 0.524 7.96 5 9.9
11/12/2021 3:45:00 AM 11.66 52.988 0.524 7.96 4.89 9.89
11/12/2021 4:00:00 AM 11.68 53.024 0.524 7.96 4.95 9.88
11/12/2021 4:15:00 AM 11.71 53.078 0.523 7.95 5.7 9.87
11/12/2021 4:30:00 AM 11.73 53.114 0.523 7.95 5.1 9.86
11/12/2021 4:45:00 AM 11.76 53.168 0.522 7.95 5.16 9.85
11/12/2021 5:00:00 AM 11.8 53.24 0.521 7.95 5.19 9.84
11/12/2021 5:15:00 AM 11.84 53.312 0.518 7.96 5.53 9.84
11/12/2021 5:30:00 AM 11.89 53.402 0.514 7.95 6.19 9.81
11/12/2021 5:45:00 AM 11.93 53.474 0.512 7.94 6.76 9.79
11/12/2021 6:00:00 AM 11.97 53.546 0.508 7.94 6.43 9.76
11/12/2021 6:15:00 AM 12.01 53.618 0.506 7.93 7.36 9.74
11/12/2021 6:30:00 AM 12.06 53.708 0.501 7.93 7 9.73
11/12/2021 6:45:00 AM 12.12 53.816 0.494 7.93 8.31 9.74
11/12/2021 7:00:00 AM 12.15 53.87 0.49 7.92 11.18 9.7
11/12/2021 7:15:00 AM 12.18 53.924 0.487 7.9 10.32 9.66
11/12/2021 7:30:00 AM 12.21 53.978 0.484 7.9 11.34 9.63
11/12/2021 7:45:00 AM 12.25 54.05 0.48 7.88 12.63 9.6
11/12/2021 8:00:00 AM 12.35 54.23 0.466 7.89 14.64 9.64
11/12/2021 8:15:00 AM 12.39 54.302 0.452 7.87 28.2 9.63
11/12/2021 8:30:00 AM 12.38 54.284 0.448 7.85 31.71 9.56
11/12/2021 8:45:00 AM 12.38 54.284 0.447 7.83 37.81 9.54
11/12/2021 9:00:00 AM 12.4 54.32 0.44 7.82 47.23 9.52
11/12/2021 9:15:00 AM 12.43 54.374 0.435 7.8 53.25 9.49
11/12/2021 9:30:00 AM 12.46 54.428 0.431 7.79 63.22 9.43
11/12/2021 9:45:00 AM 12.51 54.518 0.428 7.76 92.01 9.27
11/12/2021 10:00:00 AM 12.6 54.68 0.413 7.72 120.82 9.09
11/12/2021 10:15:00 AM 12.67 54.806 0.399 7.68 150.44 8.98
11/12/2021 10:30:00 AM 12.77 54.986 0.366 7.64 194.32 8.87
11/12/2021 10:45:00 AM 12.82 55.076 0.345 7.6 200.55 8.83
11/12/2021 11:00:00 AM 12.81 55.058 0.348 7.57 197.9 8.8
11/12/2021 11:15:00 AM 12.79 55.022 0.337 7.55 199.32 8.78
11/12/2021 11:30:00 AM 12.8 55.04 0.324 7.55 181.45 8.82
11/12/2021 11:45:00 AM 12.83 55.094 0.311 7.54 176.85 8.86
11/12/2021 12:00:00 PM 12.9 55.22 0.29 7.52 182.22 8.84
11/12/2021 12:15:00 PM 12.97 55.346 0.277 7.5 180.7 8.76
11/12/2021 12:30:00 PM 13.04 55.472 0.271 7.47 186.15 8.67
11/12/2021 12:45:00 PM 13.09 55.562 0.268 7.46 187.56 8.59
11/12/2021 1:00:00 PM 13.12 55.616 0.269 7.45 181.65 8.54
11/12/2021 1:15:00 PM 13.18 55.724 0.273 7.45 173.4 8.5
11/12/2021 1:30:00 PM 13.23 55.814 0.276 7.44 174.63 8.47
11/12/2021 1:45:00 PM 13.28 55.904 0.278 7.45 173.18 8.45
11/12/2021 2:00:00 PM 13.36 56.048 0.28 7.44 152.1 8.47
11/12/2021 2:15:00 PM 13.42 56.156 0.28 7.45 140.54 8.5
11/12/2021 2:30:00 PM 13.46 56.228 0.28 7.45 129.64 8.55
11/12/2021 2:45:00 PM 13.49 56.282 0.28 7.46 119.97 8.6
11/12/2021 3:00:00 PM 13.51 56.318 0.281 7.47 113.93 8.63
11/12/2021 3:15:00 PM 13.54 56.372 0.283 7.48 105.63 8.67
11/12/2021 3:30:00 PM 13.55 56.39 0.285 7.48 98.82 8.71
11/12/2021 3:45:00 PM 13.53 56.354 0.287 7.49 92.65 8.74
11/12/2021 4:00:00 PM 13.5 56.3 0.29 7.5 86.61 8.77
11/12/2021 4:15:00 PM 13.47 56.246 0.294 7.51 79.86 8.8
11/12/2021 4:30:00 PM 13.42 56.156 0.297 7.51 74.21 8.83
11/12/2021 4:45:00 PM 13.37 56.066 0.301 7.52 67.49 8.86
11/12/2021 5:00:00 PM 13.32 55.976 0.305 7.53 61.92 8.89
11/12/2021 5:15:00 PM 13.26 55.868 0.309 7.54 59.78 8.91
11/12/2021 5:30:00 PM 13.2 55.76 0.313 7.55 54.18 8.93
11/12/2021 5:45:00 PM 13.15 55.67 0.317 7.56 52.21 8.95
11/12/2021 6:00:00 PM 13.08 55.544 0.322 7.56 48.44 8.98
11/12/2021 6:15:00 PM 13.02 55.436 0.327 7.57 46.49 9
11/12/2021 6:30:00 PM 12.94 55.292 0.332 7.58 43.83 9.03
11/12/2021 6:45:00 PM 12.86 55.148 0.337 7.59 42.46 9.05
11/12/2021 7:00:00 PM 12.77 54.986 0.342 7.6 39.54 9.09
11/12/2021 7:15:00 PM 12.67 54.806 0.347 7.6 37.58 9.12
11/12/2021 7:30:00 PM 12.57 54.626 0.352 7.61 35.94 9.16
11/12/2021 7:45:00 PM 12.46 54.428 0.356 7.61 33.87 9.19
11/12/2021 8:00:00 PM 12.35 54.23 0.361 7.62 32.23 9.23
11/12/2021 8:15:00 PM 12.24 54.032 0.366 7.63 30.43 9.27
11/12/2021 8:30:00 PM 12.12 53.816 0.371 7.63 28.84 9.31
11/12/2021 8:45:00 PM 12 53.6 0.375 7.65 27.27 9.35
11/12/2021 9:00:00 PM 11.87 53.366 0.379 7.65 26.72 9.38
11/12/2021 9:15:00 PM 11.74 53.132 0.384 7.66 25.18 9.43
11/12/2021 9:30:00 PM 11.62 52.916 0.388 7.66 24.05 9.46
11/12/2021 9:45:00 PM 11.49 52.682 0.392 7.67 23.23 9.5
11/12/2021 10:00:00 PM 11.37 52.466 0.396 7.67 22.14 9.54
11/12/2021 10:15:00 PM 11.25 52.25 0.4 7.68 21.16 9.58
11/12/2021 10:30:00 PM 11.14 52.052 0.404 7.68 20.5 9.62
11/12/2021 10:45:00 PM 11.02 51.836 0.407 7.69 19.52 9.66
11/12/2021 11:00:00 PM 10.91 51.638 0.41 7.69 18.98 9.7
11/12/2021 11:15:00 PM 10.81 51.458 0.415 7.7 17.8 9.74
11/12/2021 11:30:00 PM 10.71 51.278 0.418 7.7 17.15 9.78
11/12/2021 11:45:00 PM 10.61 51.098 0.42 7.7 16.64 9.82
11/13/2021 12:00:00 AM 10.52 50.936 0.424 7.71 16.15 9.86
11/13/2021 12:15:00 AM 10.43 50.774 0.426 7.7 15.42 9.89
11/13/2021 12:30:00 AM 10.34 50.612 0.429 7.72 15.17 9.93
11/13/2021 12:45:00 AM 10.26 50.468 0.431 7.72 14.55 9.97
11/13/2021 1:00:00 AM 10.18 50.324 0.434 7.72 14.21 10.01
11/13/2021 1:15:00 AM 10.1 50.18 0.436 7.73 13.59 10.04
11/13/2021 1:30:00 AM 10.02 50.036 0.438 7.74 13.05 10.07
11/13/2021 1:45:00 AM 9.95 49.91 0.44 7.74 12.93 10.11
11/13/2021 2:00:00 AM 9.88 49.784 0.442 7.74 12.85 10.14
11/13/2021 2:15:00 AM 9.81 49.658 0.444 7.74 12.47 10.17
11/13/2021 2:30:00 AM 9.74 49.532 0.446 7.75 11.95 10.2
11/13/2021 2:45:00 AM 9.68 49.424 0.448 7.75 11.82 10.22
11/13/2021 3:00:00 AM 9.63 49.334 0.45 7.76 11.44 10.25
11/13/2021 3:15:00 AM 9.58 49.244 0.451 7.76 11.24 10.27
11/13/2021 3:30:00 AM 9.53 49.154 0.453 7.76 11.08 10.3
11/13/2021 3:45:00 AM 9.48 49.064 0.455 7.77 10.65 10.32
11/13/2021 4:00:00 AM 9.43 48.974 0.456 7.77 10.37 10.34
11/13/2021 4:15:00 AM 9.37 48.866 0.457 7.78 10.35 10.36
11/13/2021 4:30:00 AM 9.32 48.776 0.459 7.78 10.28 10.38
11/13/2021 4:45:00 AM 9.27 48.686 0.46 7.78 10.18 10.4
11/13/2021 5:00:00 AM 9.23 48.614 0.462 7.78 9.67 10.42
11/13/2021 5:15:00 AM 9.19 48.542 0.463 7.79 9.6 10.44
11/13/2021 5:30:00 AM 9.15 48.47 0.465 7.78 9.37 10.45
11/13/2021 5:45:00 AM 9.11 48.398 0.466 7.79 9.55 10.47
11/13/2021 6:00:00 AM 9.07 48.326 0.467 7.8 9.01 10.49
11/13/2021 6:15:00 AM 9.04 48.272 0.467 7.8 8.6 10.5
11/13/2021 6:30:00 AM 9 48.2 0.469 7.8 8.86 10.52
11/13/2021 6:45:00 AM 8.98 48.164 0.469 7.8 8.86 10.53
11/13/2021 7:00:00 AM 8.97 48.146 0.47 7.81 8.34 10.54
11/13/2021 7:15:00 AM 8.96 48.128 0.471 7.81 8.55 10.55
11/13/2021 7:30:00 AM 8.95 48.11 0.472 7.81 8.26 10.56
11/13/2021 7:45:00 AM 8.95 48.11 0.473 7.81 8.14 10.57
11/13/2021 8:00:00 AM 8.95 48.11 0.473 7.82 7.74 10.58
11/13/2021 8:15:00 AM 8.95 48.11 0.474 7.82 7.55 10.6
11/13/2021 8:30:00 AM 8.95 48.11 0.475 7.82 7.33 10.63
11/13/2021 8:45:00 AM 8.97 48.146 0.475 7.83 7.23 10.67
11/13/2021 9:00:00 AM 9 48.2 0.476 7.84 6.9 10.71
11/13/2021 9:15:00 AM 9.02 48.236 0.477 7.83 6.21 10.74
11/13/2021 9:30:00 AM 9.06 48.308 0.477 7.85 6.35 10.76
11/13/2021 9:45:00 AM 9.1 48.38 0.478 7.85 6.1 10.81
11/13/2021 10:00:00 AM 9.15 48.47 0.478 7.85 5.96 10.89
11/13/2021 10:15:00 AM 9.21 48.578 0.479 7.87 5.7 10.93
11/13/2021 10:30:00 AM 9.26 48.668 0.479 7.88 5.59 10.95
11/13/2021 10:45:00 AM 9.32 48.776 0.48 7.88 5.66 11
11/13/2021 11:00:00 AM 9.37 48.866 0.48 7.89 5.19 11.03
11/13/2021 11:15:00 AM 9.42 48.956 0.481 7.9 4.98 11.03
11/13/2021 11:30:00 AM 9.47 49.046 0.481 7.9 4.92 11.02
11/13/2021 11:45:00 AM 9.52 49.136 0.482 7.9 4.85 10.99
11/13/2021 12:00:00 PM 9.57 49.226 0.482 7.91 4.88 10.99
11/13/2021 12:15:00 PM 9.62 49.316 0.482 7.92 4.93 11.03
11/13/2021 12:30:00 PM 9.67 49.406 0.482 7.92 5 11.04
11/13/2021 12:45:00 PM 9.73 49.514 0.482 7.93 4.76 11.06
11/13/2021 1:00:00 PM 9.76 49.568 0.483 7.93 4.77 11.02
11/13/2021 1:15:00 PM 9.77 49.586 0.482 7.93 4.84 10.96
11/13/2021 1:30:00 PM 9.75 49.55 0.481 7.93 4.67 10.94
11/13/2021 1:45:00 PM 9.73 49.514 0.479 7.94 4.9 10.95
11/13/2021 2:00:00 PM 9.69 49.442 0.478 7.94 5.58 10.94
11/13/2021 2:15:00 PM 9.67 49.406 0.477 7.95 5.38 10.98
11/13/2021 2:30:00 PM 9.68 49.424 0.476 7.95 5.55 11.05
11/13/2021 2:45:00 PM 9.72 49.496 0.476 7.96 5.34 11.12
11/13/2021 3:00:00 PM 9.77 49.586 0.475 7.97 5.42 11.21
11/13/2021 3:15:00 PM 9.81 49.658 0.474 7.98 5.69 11.24
11/13/2021 3:30:00 PM 9.83 49.694 0.474 7.98 5.34 11.24
11/13/2021 3:45:00 PM 9.89 49.802 0.474 7.97 5.34 11.26
11/13/2021 4:00:00 PM 9.89 49.802 0.474 7.99 5.5 11.25
11/13/2021 4:15:00 PM 9.88 49.784 0.475 7.98 5.94 11.22
11/13/2021 4:30:00 PM 9.9 49.82 0.475 7.99 6 11.22
11/13/2021 4:45:00 PM 9.88 49.784 0.475 7.98 6.31 11.19
11/13/2021 5:00:00 PM 9.85 49.73 0.476 7.98 5.96 11.14
11/13/2021 5:15:00 PM 9.8 49.64 0.476 7.97 5.94 11.07
11/13/2021 5:30:00 PM 9.75 49.55 0.477 7.96 6.77 11
11/13/2021 5:45:00 PM 9.7 49.46 0.476 7.96 8.2 10.93
11/13/2021 6:00:00 PM 9.65 49.37 0.476 7.95 5.99 10.85
11/13/2021 6:15:00 PM 9.59 49.262 0.475 7.93 6.58 10.78
11/13/2021 6:30:00 PM 9.52 49.136 0.474 7.92 6.8 10.71
11/13/2021 6:45:00 PM 9.46 49.028 0.474 7.91 7.05 10.64
11/13/2021 7:00:00 PM 9.42 48.956 0.474 7.9 7.83 10.58
11/13/2021 7:15:00 PM 9.37 48.866 0.473 7.89 8.04 10.53
11/13/2021 7:30:00 PM 9.34 48.812 0.472 7.89 8.87 10.49
11/13/2021 7:45:00 PM 9.32 48.776 0.472 7.87 9.25 10.48
11/13/2021 8:00:00 PM 9.3 48.74 0.471 7.87 9.59 10.44
11/13/2021 8:15:00 PM 9.27 48.686 0.471 7.87 9.43 10.44
11/13/2021 8:30:00 PM 9.23 48.614 0.472 7.87 9.87 10.44
11/13/2021 8:45:00 PM 9.18 48.524 0.473 7.87 9.21 10.46
11/13/2021 9:00:00 PM 9.12 48.416 0.474 7.87 8.62 10.49
11/13/2021 9:15:00 PM 9.04 48.272 0.475 7.86 8.54 10.53
11/13/2021 9:30:00 PM 8.97 48.146 0.476 7.87 7.74 10.56
11/13/2021 9:45:00 PM 8.89 48.002 0.476 7.87 7.64 10.59
11/13/2021 10:00:00 PM 8.82 47.876 0.477 7.86 7.38 10.62
11/13/2021 10:15:00 PM 8.74 47.732 0.477 7.87 7.11 10.65
11/13/2021 10:30:00 PM 8.67 47.606 0.478 7.86 6.81 10.68
11/13/2021 10:45:00 PM 8.6 47.48 0.478 7.86 7.2 10.7
11/13/2021 11:00:00 PM 8.53 47.354 0.477 7.86 7.01 10.72
11/13/2021 11:15:00 PM 8.47 47.246 0.477 7.86 6.86 10.74
11/13/2021 11:30:00 PM 8.41 47.138 0.477 7.86 6.79 10.75
11/13/2021 11:45:00 PM 8.35 47.03 0.476 7.86 6.39 10.77
11/14/2021 12:00:00 AM 8.28 46.904 0.475 7.86 6.39 10.78
11/14/2021 12:15:00 AM 8.22 46.796 0.475 7.85 6.33 10.81
11/14/2021 12:30:00 AM 8.16 46.688 0.474 7.85 6.59 10.84
11/14/2021 12:45:00 AM 8.1 46.58 0.474 7.82 6.54 10.84
11/14/2021 1:00:00 AM 8.04 46.472 0.474 7.84 6.09 10.86
11/14/2021 1:15:00 AM 7.98 46.364 0.473 7.84 6.15 10.89
11/14/2021 1:30:00 AM 7.91 46.238 0.473 7.84 6.47 10.91
11/14/2021 1:45:00 AM 7.85 46.13 0.473 7.83 6.33 10.93
11/14/2021 2:00:00 AM 7.8 46.04 0.473 7.84 6.44 10.95
11/14/2021 2:15:00 AM 7.74 45.932 0.473 7.83 6.08 10.97
11/14/2021 2:30:00 AM 7.69 45.842 0.474 7.84 5.77 10.99
11/14/2021 2:45:00 AM 7.64 45.752 0.474 7.83 8.79 11.01
11/14/2021 3:00:00 AM 7.6 45.68 0.474 7.83 5.66 11.02
11/14/2021 3:15:00 AM 7.56 45.608 0.475 7.83 5.97 11.04
11/14/2021 3:30:00 AM 7.52 45.536 0.475 7.83 6.14 11.06
11/14/2021 3:45:00 AM 7.49 45.482 0.476 7.84 6.24 11.07
11/14/2021 4:00:00 AM 7.45 45.41 0.476 7.83 6.03 11.09
11/14/2021 4:15:00 AM 7.41 45.338 0.477 7.84 5.86 11.09
11/14/2021 4:30:00 AM 7.38 45.284 0.477 7.84 5.74 11.1
11/14/2021 4:45:00 AM 7.34 45.212 0.478 7.84 6.02 11.12
11/14/2021 5:00:00 AM 7.31 45.158 0.479 7.84 6.3 11.13
11/14/2021 5:15:00 AM 7.27 45.086 0.479 7.84 6.64 11.14
11/14/2021 5:30:00 AM 7.24 45.032 0.48 7.84 6.85 11.15
11/14/2021 5:45:00 AM 7.2 44.96 0.481 7.84 6.81 11.16
11/14/2021 6:00:00 AM 7.17 44.906 0.481 7.84 7.01 11.17
11/14/2021 6:15:00 AM 7.13 44.834 0.482 7.85 6.07 11.18
11/14/2021 6:30:00 AM 7.1 44.78 0.483 7.85 5.99 11.2
11/14/2021 6:45:00 AM 7.07 44.726 0.484 7.85 6 11.21
11/14/2021 7:00:00 AM 7.03 44.654 0.485 7.86 6.1 11.23
11/14/2021 7:15:00 AM 6.99 44.582 0.485 7.86 5.77 11.23
11/14/2021 7:30:00 AM 6.95 44.51 0.486 7.86 5.55 11.25
11/14/2021 7:45:00 AM 6.92 44.456 0.487 7.86 5.43 11.27
11/14/2021 8:00:00 AM 6.9 44.42 0.487 7.86 5.43 11.29
11/14/2021 8:15:00 AM 6.88 44.384 0.488 7.86 5.29 11.32
11/14/2021 8:30:00 AM 6.88 44.384 0.489 7.88 5.17 11.37
11/14/2021 8:45:00 AM 6.87 44.366 0.489 7.87 4.8 11.41
11/14/2021 9:00:00 AM 6.86 44.348 0.489 7.88 4.69 11.44
11/14/2021 9:15:00 AM 6.86 44.348 0.489 7.88 4.64 11.47
11/14/2021 9:30:00 AM 6.86 44.348 0.49 7.9 4.62 11.5
11/14/2021 9:45:00 AM 6.87 44.366 0.49 7.9 4.55 11.54
11/14/2021 10:00:00 AM 6.88 44.384 0.491 7.9 4.35 11.59
11/14/2021 10:15:00 AM 7.21 44.978 0.493 7.96 4.27 11.98
11/14/2021 10:30:00 AM 7.36 45.248 0.493 7.99 4.12 12.09
11/14/2021 10:45:00 AM 7.48 45.464 0.493 8 4.48 12.16
11/14/2021 11:00:00 AM 7.65 45.77 0.493 8.02 4.56 12.23
11/14/2021 11:15:00 AM 7.77 45.986 0.493 8.03 4.64 12.28
11/14/2021 11:30:00 AM 7.9 46.22 0.493 8.04 4.81 12.32
11/14/2021 11:45:00 AM 8 46.4 0.493 8.06 5.57 12.34
11/14/2021 12:00:00 PM 8.11 46.598 0.493 8.07 4.94 12.37
11/14/2021 12:15:00 PM 8.24 46.832 0.493 8.08 4.83 12.39
11/14/2021 12:30:00 PM 8.37 47.066 0.493 8.1 4.64 12.42
11/14/2021 12:45:00 PM 8.47 47.246 0.493 8.11 4.58 12.41
11/14/2021 1:00:00 PM 8.54 47.372 0.493 8.12 4.48 12.36
11/14/2021 1:15:00 PM 8.66 47.588 0.493 8.12 4.19 12.36
11/14/2021 1:30:00 PM 8.81 47.858 0.492 8.14 4.03 12.41
11/14/2021 1:45:00 PM 8.92 48.056 0.492 8.15 4 12.4
11/14/2021 2:00:00 PM 8.99 48.182 0.492 8.16 3.95 12.37
11/14/2021 2:15:00 PM 9.09 48.362 0.492 8.15 3.89 12.3
11/14/2021 2:30:00 PM 9.17 48.506 0.492 8.16 3.85 12.23
11/14/2021 2:45:00 PM 9.26 48.668 0.492 8.16 3.87 12.16
11/14/2021 3:00:00 PM 9.34 48.812 0.492 8.16 3.87 12.07
11/14/2021 3:15:00 PM 9.41 48.938 0.492 8.16 5.82 12
11/14/2021 3:30:00 PM 9.46 49.028 0.492 8.16 4.38 11.87
11/14/2021 3:45:00 PM 9.51 49.118 0.493 8.14 4.9 11.75
11/14/2021 4:00:00 PM 9.53 49.154 0.493 8.13 5.37 11.61
11/14/2021 4:15:00 PM 9.55 49.19 0.493 8.12 6.37 11.47
11/14/2021 4:30:00 PM 9.56 49.208 0.494 8.1 7.15 11.33
11/14/2021 4:45:00 PM 9.56 49.208 0.494 8.09 5.78 11.22
11/14/2021 5:00:00 PM 9.55 49.19 0.495 8.08 5.87 11.11
11/14/2021 5:15:00 PM 9.54 49.172 0.495 8.06 6.34 11.01
11/14/2021 5:30:00 PM 9.52 49.136 0.495 8.05 6.97 10.93
11/14/2021 5:45:00 PM 9.5 49.1 0.496 8.04 7.13 10.87
11/14/2021 6:00:00 PM 9.48 49.064 0.496 8.03 6.71 10.83
11/14/2021 6:15:00 PM 9.46 49.028 0.496 8.02 5.87 10.78
11/14/2021 6:30:00 PM 9.43 48.974 0.496 8.01 5.52 10.75
11/14/2021 6:45:00 PM 9.41 48.938 0.497 8 5.45 10.73
11/14/2021 7:00:00 PM 9.39 48.902 0.497 8 5.05 10.72
11/14/2021 7:15:00 PM 9.35 48.83 0.497 8 4.69 10.71
11/14/2021 7:30:00 PM 9.29 48.722 0.496 8 5.09 10.71
11/14/2021 7:45:00 PM 9.24 48.632 0.495 7.99 4.63 10.7
11/14/2021 8:00:00 PM 9.2 48.56 0.496 7.99 5 10.69
11/14/2021 8:15:00 PM 9.17 48.506 0.496 7.98 5.37 10.67
11/14/2021 8:30:00 PM 9.13 48.434 0.496 7.98 4.72 10.69
11/14/2021 8:45:00 PM 9.09 48.362 0.496 7.97 4.95 10.68
11/14/2021 9:00:00 PM 9.03 48.254 0.496 7.97 5.07 10.68
11/14/2021 9:15:00 PM 8.98 48.164 0.497 7.95 4.77 10.69
11/14/2021 9:30:00 PM 8.94 48.092 0.497 7.96 4.94 10.68
11/14/2021 9:45:00 PM 8.89 48.002 0.497 7.95 5.11 10.7
11/14/2021 10:00:00 PM 8.84 47.912 0.498 7.95 5.17 10.7
11/14/2021 10:15:00 PM 8.8 47.84 0.498 7.94 4.95 10.71
11/14/2021 10:30:00 PM 8.76 47.768 0.498 7.94 4.9 10.71
11/14/2021 10:45:00 PM 8.73 47.714 0.498 7.94 5.14 10.71
11/14/2021 11:00:00 PM 8.7 47.66 0.499 7.94 5.01 10.72
11/14/2021 11:15:00 PM 8.68 47.624 0.499 7.93 4.78 10.73
11/14/2021 11:30:00 PM 8.65 47.57 0.499 7.93 4.91 10.73
11/14/2021 11:45:00 PM 8.63 47.534 0.499 7.93 4.99 10.74
11/15/2021 12:00:00 AM 8.58 47.444 0.499 7.93 4.63 10.75
11/15/2021 12:15:00 AM 8.52 47.336 0.498 7.93 4.9 10.77
11/15/2021 12:30:00 AM 8.46 47.228 0.498 7.91 4.83 10.78
11/15/2021 12:45:00 AM 8.41 47.138 0.498 7.92 4.89 10.78
11/15/2021 1:00:00 AM 8.37 47.066 0.498 7.92 4.73 10.8
11/15/2021 1:15:00 AM 8.34 47.012 0.497 7.91 5.02 10.8
11/15/2021 1:30:00 AM 8.31 46.958 0.498 7.92 4.68 10.82
11/15/2021 1:45:00 AM 8.29 46.922 0.498 7.92 4.75 10.81
11/15/2021 2:00:00 AM 8.26 46.868 0.498 7.91 4.77 10.83
11/15/2021 2:15:00 AM 8.24 46.832 0.498 7.91 4.66 10.83
11/15/2021 2:30:00 AM 8.23 46.814 0.498 7.91 4.81 10.82
11/15/2021 2:45:00 AM 8.22 46.796 0.498 7.91 4.49 10.82
11/15/2021 3:00:00 AM 8.21 46.778 0.498 7.91 5.02 10.82
11/15/2021 3:15:00 AM 8.2 46.76 0.498 7.91 4.72 10.82
11/15/2021 3:30:00 AM 8.19 46.742 0.498 7.91 4.73 10.82
11/15/2021 3:45:00 AM 8.17 46.706 0.499 7.91 5.71 10.8
11/15/2021 4:00:00 AM 8.17 46.706 0.499 7.91 5.16 10.82
11/15/2021 4:15:00 AM 8.17 46.706 0.499 7.91 4.53 10.83
11/15/2021 4:30:00 AM 8.16 46.688 0.499 7.91 4.52 10.83
11/15/2021 4:45:00 AM 8.13 46.634 0.499 7.9 4.26 10.84
11/15/2021 5:00:00 AM 8.1 46.58 0.499 7.91 4.36 10.84
11/15/2021 5:15:00 AM 8.1 46.58 0.499 7.91 4.54 10.86
11/15/2021 5:30:00 AM 8.08 46.544 0.5 7.91 4.39 10.86
11/15/2021 5:45:00 AM 8.07 46.526 0.5 7.91 4.25 10.88
11/15/2021 6:00:00 AM 8.06 46.508 0.5 7.91 4.5 10.88
11/15/2021 6:15:00 AM 8.05 46.49 0.5 7.91 4.17 10.89
11/15/2021 6:30:00 AM 8.02 46.436 0.5 7.9 4.37 10.9
11/15/2021 6:45:00 AM 8.02 46.436 0.5 7.91 4.32 10.9
11/15/2021 7:00:00 AM 8.03 46.454 0.5 7.92 4.53 10.91
11/15/2021 7:15:00 AM 8.04 46.472 0.5 7.9 4.14 10.92
11/15/2021 7:30:00 AM 8.04 46.472 0.5 7.92 3.93 10.96
11/15/2021 7:45:00 AM 8.06 46.508 0.5 7.92 4.09 10.99
11/15/2021 8:00:00 AM 8.08 46.544 0.5 7.93 3.75 11.03
11/15/2021 8:15:00 AM 8.1 46.58 0.499 7.93 3.73 11.1
11/15/2021 8:30:00 AM 8.12 46.616 0.499 7.95 3.69 11.21
11/15/2021 8:45:00 AM 8.14 46.652 0.499 7.96 3.53 11.31
11/15/2021 9:00:00 AM 8.16 46.688 0.499 7.97